<?xml version="1.0" encoding="UTF-8" standalone="no" ?>
<gpx xmlns="http://www.topografix.com/GPX/1/1" xmlns:xsi="http://www.w3.org/2001/XMLSchema-instance" xsi:schemaLocation="http://www.topografix.com/GPX/1/1 http://www.topografix.com/GPX/1/1/gpx.xsd" version="1.1" creator="VisuGPX - https://www.visugpx.com">
  <metadata>
    <name>VTT  Valavoire/Saint Geniez/Les Jaumes</name>
    <desc><![CDATA[Une longue montée sur une petite route jusqu\'à Valavoire, puis une piste suivie encore d\'une petite route en direction de St Geniez puis une piste en direction de la Raye et une longue descente par piste jusqu\'à Chateaufort . A faire par une belle journée après mistral la vue avec au premier plan le site supposé de la mystérieuse Théopolis , part en enfilade dans la vallée de la Durance jusqu\'à la Sainte Victoire et le Luberon en passant par Lure ,plus à l\'Est le Ventoux et au nord les Hautes Alpes. La  descente se fait dans une vallée secrète où se cachent un ermitage de  soeurs catholiques , un délicieux prieuré , un imposant domaine doté d\'une énorme bâtisse ancienne Vous êtes dans la Haute Provence authentique et méconnue]]></desc>
  </metadata>
  <trk>
    <name><![CDATA[N°  VALAVOIRE LES JAUMES Par le Malpas]]></name>
    <trkseg>
      <trkpt lat="44.30392" lon="6.03267">
        <ele>598.557861</ele>
        <time>2011-08-28T07:58:29Z</time>
      </trkpt>
      <trkpt lat="44.30579" lon="6.03546">
        <ele>597.115967</ele>
        <time>2011-08-28T07:59:02Z</time>
      </trkpt>
      <trkpt lat="44.30384" lon="6.0333">
        <ele>597.115967</ele>
        <time>2011-08-28T07:59:21Z</time>
      </trkpt>
      <trkpt lat="44.30385" lon="6.0334">
        <ele>597.59668</ele>
        <time>2011-08-28T07:59:51Z</time>
      </trkpt>
      <trkpt lat="44.30382" lon="6.03341">
        <ele>597.115967</ele>
        <time>2011-08-28T08:00:26Z</time>
      </trkpt>
      <trkpt lat="44.30382" lon="6.03339">
        <ele>597.115967</ele>
        <time>2011-08-28T08:00:50Z</time>
      </trkpt>
      <trkpt lat="44.30381" lon="6.03339">
        <ele>597.115967</ele>
        <time>2011-08-28T08:01:15Z</time>
      </trkpt>
      <trkpt lat="44.30383" lon="6.03341">
        <ele>596.635498</ele>
        <time>2011-08-28T08:01:29Z</time>
      </trkpt>
      <trkpt lat="44.30381" lon="6.03337">
        <ele>597.115967</ele>
        <time>2011-08-28T08:02:09Z</time>
      </trkpt>
      <trkpt lat="44.30381" lon="6.03337">
        <ele>596.154785</ele>
        <time>2011-08-28T08:03:16Z</time>
      </trkpt>
      <trkpt lat="44.30381" lon="6.03336">
        <ele>620.187744</ele>
        <time>2011-08-28T08:03:32Z</time>
      </trkpt>
      <trkpt lat="44.30381" lon="6.03336">
        <ele>620.187744</ele>
        <time>2011-08-28T08:03:33Z</time>
      </trkpt>
      <trkpt lat="44.30381" lon="6.03336">
        <ele>540.398315</ele>
        <time>2011-08-28T08:03:34Z</time>
      </trkpt>
      <trkpt lat="44.30381" lon="6.03336">
        <ele>540.398315</ele>
        <time>2011-08-28T08:03:35Z</time>
      </trkpt>
      <trkpt lat="44.30381" lon="6.03336">
        <ele>620.187744</ele>
        <time>2011-08-28T08:03:39Z</time>
      </trkpt>
      <trkpt lat="44.30381" lon="6.03336">
        <ele>620.187744</ele>
        <time>2011-08-28T08:03:40Z</time>
      </trkpt>
      <trkpt lat="44.30381" lon="6.03339">
        <ele>618.264893</ele>
        <time>2011-08-28T08:04:22Z</time>
      </trkpt>
      <trkpt lat="44.3038" lon="6.03338">
        <ele>622.110352</ele>
        <time>2011-08-28T08:04:27Z</time>
      </trkpt>
      <trkpt lat="44.3038" lon="6.03337">
        <ele>622.110352</ele>
        <time>2011-08-28T08:04:28Z</time>
      </trkpt>
      <trkpt lat="44.30378" lon="6.03339">
        <ele>619.707031</ele>
        <time>2011-08-28T08:04:31Z</time>
      </trkpt>
      <trkpt lat="44.30376" lon="6.03346">
        <ele>618.264893</ele>
        <time>2011-08-28T08:04:45Z</time>
      </trkpt>
      <trkpt lat="44.30375" lon="6.03356">
        <ele>619.707031</ele>
        <time>2011-08-28T08:04:51Z</time>
      </trkpt>
      <trkpt lat="44.30403" lon="6.03367">
        <ele>620.668457</ele>
        <time>2011-08-28T08:05:02Z</time>
      </trkpt>
      <trkpt lat="44.30463" lon="6.03385">
        <ele>622.110352</ele>
        <time>2011-08-28T08:05:19Z</time>
      </trkpt>
      <trkpt lat="44.3054" lon="6.03417">
        <ele>622.591064</ele>
        <time>2011-08-28T08:05:39Z</time>
      </trkpt>
      <trkpt lat="44.30613" lon="6.0347">
        <ele>623.55249</ele>
        <time>2011-08-28T08:06:02Z</time>
      </trkpt>
      <trkpt lat="44.3068" lon="6.03515">
        <ele>624.994385</ele>
        <time>2011-08-28T08:06:22Z</time>
      </trkpt>
      <trkpt lat="44.30749" lon="6.03529">
        <ele>625.955566</ele>
        <time>2011-08-28T08:06:41Z</time>
      </trkpt>
      <trkpt lat="44.30834" lon="6.03536">
        <ele>627.878174</ele>
        <time>2011-08-28T08:07:05Z</time>
      </trkpt>
      <trkpt lat="44.30937" lon="6.03531">
        <ele>629.320068</ele>
        <time>2011-08-28T08:07:34Z</time>
      </trkpt>
      <trkpt lat="44.30994" lon="6.03545">
        <ele>630.281494</ele>
        <time>2011-08-28T08:07:52Z</time>
      </trkpt>
      <trkpt lat="44.30998" lon="6.03623">
        <ele>632.204102</ele>
        <time>2011-08-28T08:08:10Z</time>
      </trkpt>
      <trkpt lat="44.31001" lon="6.03682">
        <ele>633.165283</ele>
        <time>2011-08-28T08:08:26Z</time>
      </trkpt>
      <trkpt lat="44.31003" lon="6.03776">
        <ele>632.204102</ele>
        <time>2011-08-28T08:08:45Z</time>
      </trkpt>
      <trkpt lat="44.31004" lon="6.03778">
        <ele>633.165283</ele>
        <time>2011-08-28T08:08:50Z</time>
      </trkpt>
      <trkpt lat="44.31004" lon="6.03778">
        <ele>633.165283</ele>
        <time>2011-08-28T08:09:25Z</time>
      </trkpt>
      <trkpt lat="44.31007" lon="6.03809">
        <ele>632.684814</ele>
        <time>2011-08-28T08:09:38Z</time>
      </trkpt>
      <trkpt lat="44.3102" lon="6.03887">
        <ele>634.607422</ele>
        <time>2011-08-28T08:09:57Z</time>
      </trkpt>
      <trkpt lat="44.31031" lon="6.0395">
        <ele>637.010742</ele>
        <time>2011-08-28T08:10:17Z</time>
      </trkpt>
      <trkpt lat="44.31041" lon="6.04015">
        <ele>640.375488</ele>
        <time>2011-08-28T08:10:38Z</time>
      </trkpt>
      <trkpt lat="44.31042" lon="6.04024">
        <ele>642.298096</ele>
        <time>2011-08-28T08:10:41Z</time>
      </trkpt>
      <trkpt lat="44.31047" lon="6.04081">
        <ele>643.73999</ele>
        <time>2011-08-28T08:11:01Z</time>
      </trkpt>
      <trkpt lat="44.31048" lon="6.041">
        <ele>646.143311</ele>
        <time>2011-08-28T08:11:07Z</time>
      </trkpt>
      <trkpt lat="44.31053" lon="6.04162">
        <ele>649.0271</ele>
        <time>2011-08-28T08:11:28Z</time>
      </trkpt>
      <trkpt lat="44.31056" lon="6.04231">
        <ele>652.391846</ele>
        <time>2011-08-28T08:11:52Z</time>
      </trkpt>
      <trkpt lat="44.31059" lon="6.04307">
        <ele>651.911133</ele>
        <time>2011-08-28T08:12:08Z</time>
      </trkpt>
      <trkpt lat="44.31052" lon="6.04408">
        <ele>650.469238</ele>
        <time>2011-08-28T08:12:24Z</time>
      </trkpt>
      <trkpt lat="44.31043" lon="6.04487">
        <ele>647.585205</ele>
        <time>2011-08-28T08:12:33Z</time>
      </trkpt>
      <trkpt lat="44.3104" lon="6.04505">
        <ele>647.104492</ele>
        <time>2011-08-28T08:12:35Z</time>
      </trkpt>
      <trkpt lat="44.31024" lon="6.04564">
        <ele>645.181885</ele>
        <time>2011-08-28T08:12:42Z</time>
      </trkpt>
      <trkpt lat="44.31021" lon="6.0459">
        <ele>645.181885</ele>
        <time>2011-08-28T08:12:45Z</time>
      </trkpt>
      <trkpt lat="44.31026" lon="6.04631">
        <ele>644.701172</ele>
        <time>2011-08-28T08:12:50Z</time>
      </trkpt>
      <trkpt lat="44.3108" lon="6.04738">
        <ele>644.701172</ele>
        <time>2011-08-28T08:13:09Z</time>
      </trkpt>
      <trkpt lat="44.31125" lon="6.0482">
        <ele>646.143311</ele>
        <time>2011-08-28T08:13:28Z</time>
      </trkpt>
      <trkpt lat="44.31169" lon="6.04895">
        <ele>648.065918</ele>
        <time>2011-08-28T08:13:50Z</time>
      </trkpt>
      <trkpt lat="44.31217" lon="6.04993">
        <ele>650.949707</ele>
        <time>2011-08-28T08:14:16Z</time>
      </trkpt>
      <trkpt lat="44.31259" lon="6.05073">
        <ele>652.391846</ele>
        <time>2011-08-28T08:14:39Z</time>
      </trkpt>
      <trkpt lat="44.31294" lon="6.05146">
        <ele>653.833984</ele>
        <time>2011-08-28T08:14:59Z</time>
      </trkpt>
      <trkpt lat="44.31326" lon="6.05235">
        <ele>654.314697</ele>
        <time>2011-08-28T08:15:21Z</time>
      </trkpt>
      <trkpt lat="44.31359" lon="6.05327">
        <ele>655.275879</ele>
        <time>2011-08-28T08:15:44Z</time>
      </trkpt>
      <trkpt lat="44.3137" lon="6.05357">
        <ele>656.717773</ele>
        <time>2011-08-28T08:15:52Z</time>
      </trkpt>
      <trkpt lat="44.31337" lon="6.05408">
        <ele>658.640381</ele>
        <time>2011-08-28T08:16:07Z</time>
      </trkpt>
      <trkpt lat="44.31335" lon="6.0541">
        <ele>658.640381</ele>
        <time>2011-08-28T08:16:08Z</time>
      </trkpt>
      <trkpt lat="44.3128" lon="6.05445">
        <ele>655.756592</ele>
        <time>2011-08-28T08:16:23Z</time>
      </trkpt>
      <trkpt lat="44.31275" lon="6.05452">
        <ele>655.756592</ele>
        <time>2011-08-28T08:16:24Z</time>
      </trkpt>
      <trkpt lat="44.31256" lon="6.05483">
        <ele>655.756592</ele>
        <time>2011-08-28T08:16:29Z</time>
      </trkpt>
      <trkpt lat="44.31217" lon="6.05532">
        <ele>653.833984</ele>
        <time>2011-08-28T08:16:39Z</time>
      </trkpt>
      <trkpt lat="44.31202" lon="6.0556">
        <ele>653.353271</ele>
        <time>2011-08-28T08:16:44Z</time>
      </trkpt>
      <trkpt lat="44.31182" lon="6.05618">
        <ele>654.314697</ele>
        <time>2011-08-28T08:16:58Z</time>
      </trkpt>
      <trkpt lat="44.31178" lon="6.05666">
        <ele>656.717773</ele>
        <time>2011-08-28T08:17:17Z</time>
      </trkpt>
      <trkpt lat="44.31185" lon="6.05698">
        <ele>660.562988</ele>
        <time>2011-08-28T08:17:30Z</time>
      </trkpt>
      <trkpt lat="44.31185" lon="6.057">
        <ele>660.562988</ele>
        <time>2011-08-28T08:17:31Z</time>
      </trkpt>
      <trkpt lat="44.31175" lon="6.05747">
        <ele>662.485596</ele>
        <time>2011-08-28T08:17:51Z</time>
      </trkpt>
      <trkpt lat="44.31172" lon="6.05791">
        <ele>665.369629</ele>
        <time>2011-08-28T08:18:09Z</time>
      </trkpt>
      <trkpt lat="44.31176" lon="6.05798">
        <ele>666.330811</ele>
        <time>2011-08-28T08:18:13Z</time>
      </trkpt>
      <trkpt lat="44.3118" lon="6.05804">
        <ele>666.330811</ele>
        <time>2011-08-28T08:18:16Z</time>
      </trkpt>
      <trkpt lat="44.31202" lon="6.05831">
        <ele>669.695801</ele>
        <time>2011-08-28T08:18:32Z</time>
      </trkpt>
      <trkpt lat="44.31224" lon="6.05855">
        <ele>672.57959</ele>
        <time>2011-08-28T08:18:49Z</time>
      </trkpt>
      <trkpt lat="44.3124" lon="6.05898">
        <ele>675.944092</ele>
        <time>2011-08-28T08:19:09Z</time>
      </trkpt>
      <trkpt lat="44.31245" lon="6.05934">
        <ele>678.828125</ele>
        <time>2011-08-28T08:19:25Z</time>
      </trkpt>
      <trkpt lat="44.31247" lon="6.05976">
        <ele>681.711914</ele>
        <time>2011-08-28T08:19:42Z</time>
      </trkpt>
      <trkpt lat="44.31247" lon="6.06018">
        <ele>684.596191</ele>
        <time>2011-08-28T08:20:00Z</time>
      </trkpt>
      <trkpt lat="44.31233" lon="6.0604">
        <ele>688.441406</ele>
        <time>2011-08-28T08:20:16Z</time>
      </trkpt>
      <trkpt lat="44.31209" lon="6.06026">
        <ele>690.364014</ele>
        <time>2011-08-28T08:20:32Z</time>
      </trkpt>
      <trkpt lat="44.31179" lon="6.06016">
        <ele>694.209229</ele>
        <time>2011-08-28T08:20:52Z</time>
      </trkpt>
      <trkpt lat="44.31155" lon="6.06035">
        <ele>696.612549</ele>
        <time>2011-08-28T08:21:12Z</time>
      </trkpt>
      <trkpt lat="44.31128" lon="6.0604">
        <ele>699.496338</ele>
        <time>2011-08-28T08:21:33Z</time>
      </trkpt>
      <trkpt lat="44.31108" lon="6.06011">
        <ele>701.419189</ele>
        <time>2011-08-28T08:21:53Z</time>
      </trkpt>
      <trkpt lat="44.31102" lon="6.05963">
        <ele>703.82251</ele>
        <time>2011-08-28T08:22:15Z</time>
      </trkpt>
      <trkpt lat="44.31092" lon="6.0595">
        <ele>704.303223</ele>
        <time>2011-08-28T08:22:23Z</time>
      </trkpt>
      <trkpt lat="44.31051" lon="6.05954">
        <ele>706.706299</ele>
        <time>2011-08-28T08:22:48Z</time>
      </trkpt>
      <trkpt lat="44.31019" lon="6.05933">
        <ele>710.070801</ele>
        <time>2011-08-28T08:23:10Z</time>
      </trkpt>
      <trkpt lat="44.30992" lon="6.05902">
        <ele>712.474121</ele>
        <time>2011-08-28T08:23:31Z</time>
      </trkpt>
      <trkpt lat="44.30964" lon="6.05876">
        <ele>714.396729</ele>
        <time>2011-08-28T08:23:52Z</time>
      </trkpt>
      <trkpt lat="44.30924" lon="6.05861">
        <ele>715.838867</ele>
        <time>2011-08-28T08:24:14Z</time>
      </trkpt>
      <trkpt lat="44.30882" lon="6.05831">
        <ele>716.800293</ele>
        <time>2011-08-28T08:24:35Z</time>
      </trkpt>
      <trkpt lat="44.30854" lon="6.05791">
        <ele>717.761475</ele>
        <time>2011-08-28T08:24:52Z</time>
      </trkpt>
      <trkpt lat="44.30814" lon="6.05748">
        <ele>719.684326</ele>
        <time>2011-08-28T08:25:13Z</time>
      </trkpt>
      <trkpt lat="44.30782" lon="6.05705">
        <ele>721.606689</ele>
        <time>2011-08-28T08:25:35Z</time>
      </trkpt>
      <trkpt lat="44.30747" lon="6.05669">
        <ele>723.529541</ele>
        <time>2011-08-28T08:25:59Z</time>
      </trkpt>
      <trkpt lat="44.30705" lon="6.0564">
        <ele>724.01001</ele>
        <time>2011-08-28T08:26:22Z</time>
      </trkpt>
      <trkpt lat="44.3067" lon="6.0562">
        <ele>725.451904</ele>
        <time>2011-08-28T08:26:40Z</time>
      </trkpt>
      <trkpt lat="44.30635" lon="6.05598">
        <ele>728.81665</ele>
        <time>2011-08-28T08:27:04Z</time>
      </trkpt>
      <trkpt lat="44.30599" lon="6.05597">
        <ele>730.739258</ele>
        <time>2011-08-28T08:27:26Z</time>
      </trkpt>
      <trkpt lat="44.30566" lon="6.05581">
        <ele>733.623291</ele>
        <time>2011-08-28T08:27:48Z</time>
      </trkpt>
      <trkpt lat="44.30546" lon="6.05552">
        <ele>736.026611</ele>
        <time>2011-08-28T08:28:07Z</time>
      </trkpt>
      <trkpt lat="44.30511" lon="6.05537">
        <ele>737.949219</ele>
        <time>2011-08-28T08:28:30Z</time>
      </trkpt>
      <trkpt lat="44.30483" lon="6.05503">
        <ele>739.871826</ele>
        <time>2011-08-28T08:28:52Z</time>
      </trkpt>
      <trkpt lat="44.30451" lon="6.05493">
        <ele>740.833008</ele>
        <time>2011-08-28T08:29:10Z</time>
      </trkpt>
      <trkpt lat="44.30428" lon="6.05538">
        <ele>741.313721</ele>
        <time>2011-08-28T08:29:27Z</time>
      </trkpt>
      <trkpt lat="44.30441" lon="6.05569">
        <ele>741.313721</ele>
        <time>2011-08-28T08:29:38Z</time>
      </trkpt>
      <trkpt lat="44.30448" lon="6.05575">
        <ele>740.833008</ele>
        <time>2011-08-28T08:29:41Z</time>
      </trkpt>
      <trkpt lat="44.30444" lon="6.05606">
        <ele>739.391113</ele>
        <time>2011-08-28T08:29:48Z</time>
      </trkpt>
      <trkpt lat="44.30439" lon="6.05608">
        <ele>740.833008</ele>
        <time>2011-08-28T08:29:50Z</time>
      </trkpt>
      <trkpt lat="44.30417" lon="6.05632">
        <ele>740.833008</ele>
        <time>2011-08-28T08:30:06Z</time>
      </trkpt>
      <trkpt lat="44.30417" lon="6.05637">
        <ele>739.871826</ele>
        <time>2011-08-28T08:30:08Z</time>
      </trkpt>
      <trkpt lat="44.3038" lon="6.05677">
        <ele>739.871826</ele>
        <time>2011-08-28T08:30:13Z</time>
      </trkpt>
      <trkpt lat="44.3036" lon="6.05702">
        <ele>736.987793</ele>
        <time>2011-08-28T08:30:17Z</time>
      </trkpt>
      <trkpt lat="44.30332" lon="6.0571">
        <ele>736.026611</ele>
        <time>2011-08-28T08:30:25Z</time>
      </trkpt>
      <trkpt lat="44.30325" lon="6.05687">
        <ele>737.468506</ele>
        <time>2011-08-28T08:30:32Z</time>
      </trkpt>
      <trkpt lat="44.30334" lon="6.05644">
        <ele>739.871826</ele>
        <time>2011-08-28T08:30:51Z</time>
      </trkpt>
      <trkpt lat="44.30302" lon="6.05638">
        <ele>739.391113</ele>
        <time>2011-08-28T08:31:06Z</time>
      </trkpt>
      <trkpt lat="44.30299" lon="6.05638">
        <ele>739.391113</ele>
        <time>2011-08-28T08:31:07Z</time>
      </trkpt>
      <trkpt lat="44.30276" lon="6.05602">
        <ele>742.755859</ele>
        <time>2011-08-28T08:31:26Z</time>
      </trkpt>
      <trkpt lat="44.30241" lon="6.05561">
        <ele>744.197754</ele>
        <time>2011-08-28T08:31:50Z</time>
      </trkpt>
      <trkpt lat="44.30203" lon="6.05535">
        <ele>746.601074</ele>
        <time>2011-08-28T08:32:13Z</time>
      </trkpt>
      <trkpt lat="44.30165" lon="6.05518">
        <ele>748.523682</ele>
        <time>2011-08-28T08:32:33Z</time>
      </trkpt>
      <trkpt lat="44.30123" lon="6.0553">
        <ele>750.927002</ele>
        <time>2011-08-28T08:32:56Z</time>
      </trkpt>
      <trkpt lat="44.30087" lon="6.0555">
        <ele>752.368896</ele>
        <time>2011-08-28T08:33:17Z</time>
      </trkpt>
      <trkpt lat="44.30066" lon="6.05569">
        <ele>754.772217</ele>
        <time>2011-08-28T08:33:34Z</time>
      </trkpt>
      <trkpt lat="44.30046" lon="6.05587">
        <ele>757.65625</ele>
        <time>2011-08-28T08:33:52Z</time>
      </trkpt>
      <trkpt lat="44.30025" lon="6.05557">
        <ele>760.540039</ele>
        <time>2011-08-28T08:34:13Z</time>
      </trkpt>
      <trkpt lat="44.29994" lon="6.05509">
        <ele>762.943359</ele>
        <time>2011-08-28T08:34:40Z</time>
      </trkpt>
      <trkpt lat="44.29991" lon="6.05466">
        <ele>764.866211</ele>
        <time>2011-08-28T08:34:58Z</time>
      </trkpt>
      <trkpt lat="44.29992" lon="6.05464">
        <ele>764.866211</ele>
        <time>2011-08-28T08:34:59Z</time>
      </trkpt>
      <trkpt lat="44.3002" lon="6.0542">
        <ele>767.269531</ele>
        <time>2011-08-28T08:35:21Z</time>
      </trkpt>
      <trkpt lat="44.30022" lon="6.05416">
        <ele>765.827637</ele>
        <time>2011-08-28T08:35:23Z</time>
      </trkpt>
      <trkpt lat="44.30045" lon="6.05383">
        <ele>769.192139</ele>
        <time>2011-08-28T08:35:42Z</time>
      </trkpt>
      <trkpt lat="44.30046" lon="6.05379">
        <ele>768.711426</ele>
        <time>2011-08-28T08:35:44Z</time>
      </trkpt>
      <trkpt lat="44.30034" lon="6.05367">
        <ele>769.672852</ele>
        <time>2011-08-28T08:35:52Z</time>
      </trkpt>
      <trkpt lat="44.29999" lon="6.05388">
        <ele>770.634033</ele>
        <time>2011-08-28T08:36:13Z</time>
      </trkpt>
      <trkpt lat="44.29955" lon="6.05404">
        <ele>773.037354</ele>
        <time>2011-08-28T08:36:38Z</time>
      </trkpt>
      <trkpt lat="44.29915" lon="6.05401">
        <ele>775.921143</ele>
        <time>2011-08-28T08:37:03Z</time>
      </trkpt>
      <trkpt lat="44.29913" lon="6.05401">
        <ele>776.882568</ele>
        <time>2011-08-28T08:37:04Z</time>
      </trkpt>
      <trkpt lat="44.29894" lon="6.05395">
        <ele>778.324463</ele>
        <time>2011-08-28T08:37:19Z</time>
      </trkpt>
      <trkpt lat="44.29864" lon="6.05383">
        <ele>781.689209</ele>
        <time>2011-08-28T08:37:43Z</time>
      </trkpt>
      <trkpt lat="44.29851" lon="6.05378">
        <ele>783.131104</ele>
        <time>2011-08-28T08:37:55Z</time>
      </trkpt>
      <trkpt lat="44.29821" lon="6.05369">
        <ele>786.015137</ele>
        <time>2011-08-28T08:38:18Z</time>
      </trkpt>
      <trkpt lat="44.29796" lon="6.05338">
        <ele>788.89917</ele>
        <time>2011-08-28T08:38:41Z</time>
      </trkpt>
      <trkpt lat="44.29794" lon="6.05333">
        <ele>789.860352</ele>
        <time>2011-08-28T08:38:44Z</time>
      </trkpt>
      <trkpt lat="44.29775" lon="6.05299">
        <ele>792.744385</ele>
        <time>2011-08-28T08:39:09Z</time>
      </trkpt>
      <trkpt lat="44.29754" lon="6.05272">
        <ele>796.109131</ele>
        <time>2011-08-28T08:39:32Z</time>
      </trkpt>
      <trkpt lat="44.29751" lon="6.05269">
        <ele>795.628174</ele>
        <time>2011-08-28T08:39:35Z</time>
      </trkpt>
      <trkpt lat="44.29728" lon="6.05244">
        <ele>798.031738</ele>
        <time>2011-08-28T08:39:57Z</time>
      </trkpt>
      <trkpt lat="44.29723" lon="6.05246">
        <ele>798.99292</ele>
        <time>2011-08-28T08:40:02Z</time>
      </trkpt>
      <trkpt lat="44.29715" lon="6.05277">
        <ele>801.876953</ele>
        <time>2011-08-28T08:40:21Z</time>
      </trkpt>
      <trkpt lat="44.2972" lon="6.05305">
        <ele>803.318848</ele>
        <time>2011-08-28T08:40:36Z</time>
      </trkpt>
      <trkpt lat="44.29739" lon="6.05329">
        <ele>806.68335</ele>
        <time>2011-08-28T08:40:56Z</time>
      </trkpt>
      <trkpt lat="44.29762" lon="6.05372">
        <ele>809.567383</ele>
        <time>2011-08-28T08:41:25Z</time>
      </trkpt>
      <trkpt lat="44.29779" lon="6.05404">
        <ele>811.48999</ele>
        <time>2011-08-28T08:41:46Z</time>
      </trkpt>
      <trkpt lat="44.29787" lon="6.05431">
        <ele>812.932129</ele>
        <time>2011-08-28T08:42:02Z</time>
      </trkpt>
      <trkpt lat="44.29776" lon="6.05429">
        <ele>813.893311</ele>
        <time>2011-08-28T08:42:11Z</time>
      </trkpt>
      <trkpt lat="44.2977" lon="6.05416">
        <ele>814.854736</ele>
        <time>2011-08-28T08:42:20Z</time>
      </trkpt>
      <trkpt lat="44.29748" lon="6.05394">
        <ele>817.258057</ele>
        <time>2011-08-28T08:42:41Z</time>
      </trkpt>
      <trkpt lat="44.29728" lon="6.05386">
        <ele>819.661377</ele>
        <time>2011-08-28T08:42:57Z</time>
      </trkpt>
      <trkpt lat="44.297" lon="6.05404">
        <ele>823.025879</ele>
        <time>2011-08-28T08:43:23Z</time>
      </trkpt>
      <trkpt lat="44.29679" lon="6.05432">
        <ele>826.390381</ele>
        <time>2011-08-28T08:43:45Z</time>
      </trkpt>
      <trkpt lat="44.29652" lon="6.05447">
        <ele>829.274414</ele>
        <time>2011-08-28T08:44:08Z</time>
      </trkpt>
      <trkpt lat="44.29625" lon="6.0545">
        <ele>832.63916</ele>
        <time>2011-08-28T08:44:29Z</time>
      </trkpt>
      <trkpt lat="44.29623" lon="6.05451">
        <ele>832.63916</ele>
        <time>2011-08-28T08:44:31Z</time>
      </trkpt>
      <trkpt lat="44.29617" lon="6.05454">
        <ele>833.119629</ele>
        <time>2011-08-28T08:44:36Z</time>
      </trkpt>
      <trkpt lat="44.29614" lon="6.05456">
        <ele>834.081055</ele>
        <time>2011-08-28T08:44:38Z</time>
      </trkpt>
      <trkpt lat="44.29599" lon="6.05475">
        <ele>835.522949</ele>
        <time>2011-08-28T08:44:54Z</time>
      </trkpt>
      <trkpt lat="44.29586" lon="6.05506">
        <ele>838.406982</ele>
        <time>2011-08-28T08:45:15Z</time>
      </trkpt>
      <trkpt lat="44.29578" lon="6.05545">
        <ele>841.290771</ele>
        <time>2011-08-28T08:45:38Z</time>
      </trkpt>
      <trkpt lat="44.29575" lon="6.05564">
        <ele>843.213379</ele>
        <time>2011-08-28T08:45:49Z</time>
      </trkpt>
      <trkpt lat="44.29568" lon="6.0557">
        <ele>844.175049</ele>
        <time>2011-08-28T08:45:57Z</time>
      </trkpt>
      <trkpt lat="44.29539" lon="6.0557">
        <ele>847.058838</ele>
        <time>2011-08-28T08:46:19Z</time>
      </trkpt>
      <trkpt lat="44.29515" lon="6.05573">
        <ele>849.462158</ele>
        <time>2011-08-28T08:46:38Z</time>
      </trkpt>
      <trkpt lat="44.29485" lon="6.05588">
        <ele>851.865479</ele>
        <time>2011-08-28T08:47:02Z</time>
      </trkpt>
      <trkpt lat="44.29472" lon="6.05595">
        <ele>853.307373</ele>
        <time>2011-08-28T08:47:11Z</time>
      </trkpt>
      <trkpt lat="44.2946" lon="6.05609">
        <ele>853.788086</ele>
        <time>2011-08-28T08:47:22Z</time>
      </trkpt>
      <trkpt lat="44.2945" lon="6.05648">
        <ele>856.191162</ele>
        <time>2011-08-28T08:47:43Z</time>
      </trkpt>
      <trkpt lat="44.29451" lon="6.0565">
        <ele>856.191162</ele>
        <time>2011-08-28T08:47:44Z</time>
      </trkpt>
      <trkpt lat="44.29455" lon="6.05669">
        <ele>858.114014</ele>
        <time>2011-08-28T08:47:54Z</time>
      </trkpt>
      <trkpt lat="44.29443" lon="6.05691">
        <ele>859.075195</ele>
        <time>2011-08-28T08:48:11Z</time>
      </trkpt>
      <trkpt lat="44.29423" lon="6.05671">
        <ele>860.036621</ele>
        <time>2011-08-28T08:48:30Z</time>
      </trkpt>
      <trkpt lat="44.29397" lon="6.05648">
        <ele>861.959473</ele>
        <time>2011-08-28T08:48:50Z</time>
      </trkpt>
      <trkpt lat="44.29372" lon="6.05637">
        <ele>863.881836</ele>
        <time>2011-08-28T08:49:08Z</time>
      </trkpt>
      <trkpt lat="44.29335" lon="6.05616">
        <ele>866.285156</ele>
        <time>2011-08-28T08:49:35Z</time>
      </trkpt>
      <trkpt lat="44.29299" lon="6.05598">
        <ele>869.169189</ele>
        <time>2011-08-28T08:50:00Z</time>
      </trkpt>
      <trkpt lat="44.2926" lon="6.05596">
        <ele>872.052979</ele>
        <time>2011-08-28T08:50:27Z</time>
      </trkpt>
      <trkpt lat="44.29225" lon="6.05602">
        <ele>873.975586</ele>
        <time>2011-08-28T08:50:51Z</time>
      </trkpt>
      <trkpt lat="44.29193" lon="6.05606">
        <ele>875.898193</ele>
        <time>2011-08-28T08:51:10Z</time>
      </trkpt>
      <trkpt lat="44.29153" lon="6.05611">
        <ele>877.340576</ele>
        <time>2011-08-28T08:51:34Z</time>
      </trkpt>
      <trkpt lat="44.29143" lon="6.05617">
        <ele>879.262939</ele>
        <time>2011-08-28T08:51:40Z</time>
      </trkpt>
      <trkpt lat="44.29138" lon="6.05621">
        <ele>877.340576</ele>
        <time>2011-08-28T08:51:43Z</time>
      </trkpt>
      <trkpt lat="44.29116" lon="6.05639">
        <ele>877.340576</ele>
        <time>2011-08-28T08:51:58Z</time>
      </trkpt>
      <trkpt lat="44.29112" lon="6.05642">
        <ele>878.782471</ele>
        <time>2011-08-28T08:52:01Z</time>
      </trkpt>
      <trkpt lat="44.29098" lon="6.05656">
        <ele>878.301758</ele>
        <time>2011-08-28T08:52:12Z</time>
      </trkpt>
      <trkpt lat="44.29093" lon="6.0566">
        <ele>878.782471</ele>
        <time>2011-08-28T08:52:16Z</time>
      </trkpt>
      <trkpt lat="44.29053" lon="6.05693">
        <ele>880.224365</ele>
        <time>2011-08-28T08:52:44Z</time>
      </trkpt>
      <trkpt lat="44.29023" lon="6.05713">
        <ele>882.627686</ele>
        <time>2011-08-28T08:53:03Z</time>
      </trkpt>
      <trkpt lat="44.29011" lon="6.05719">
        <ele>881.66626</ele>
        <time>2011-08-28T08:53:21Z</time>
      </trkpt>
      <trkpt lat="44.29011" lon="6.05719">
        <ele>881.66626</ele>
        <time>2011-08-28T08:53:22Z</time>
      </trkpt>
      <trkpt lat="44.29011" lon="6.05719">
        <ele>883.108154</ele>
        <time>2011-08-28T08:53:34Z</time>
      </trkpt>
      <trkpt lat="44.29011" lon="6.05719">
        <ele>883.588867</ele>
        <time>2011-08-28T08:53:50Z</time>
      </trkpt>
      <trkpt lat="44.29011" lon="6.05719">
        <ele>884.06958</ele>
        <time>2011-08-28T08:55:29Z</time>
      </trkpt>
      <trkpt lat="44.29011" lon="6.05719">
        <ele>884.550293</ele>
        <time>2011-08-28T08:56:51Z</time>
      </trkpt>
      <trkpt lat="44.29011" lon="6.05719">
        <ele>884.06958</ele>
        <time>2011-08-28T08:59:16Z</time>
      </trkpt>
      <trkpt lat="44.28994" lon="6.05738">
        <ele>884.550293</ele>
        <time>2011-08-28T08:59:23Z</time>
      </trkpt>
      <trkpt lat="44.28989" lon="6.05747">
        <ele>884.550293</ele>
        <time>2011-08-28T08:59:27Z</time>
      </trkpt>
      <trkpt lat="44.28961" lon="6.05799">
        <ele>885.992188</ele>
        <time>2011-08-28T08:59:50Z</time>
      </trkpt>
      <trkpt lat="44.28947" lon="6.05855">
        <ele>885.992188</ele>
        <time>2011-08-28T09:00:11Z</time>
      </trkpt>
      <trkpt lat="44.28944" lon="6.05936">
        <ele>885.031006</ele>
        <time>2011-08-28T09:00:32Z</time>
      </trkpt>
      <trkpt lat="44.28938" lon="6.05974">
        <ele>886.4729</ele>
        <time>2011-08-28T09:00:46Z</time>
      </trkpt>
      <trkpt lat="44.28932" lon="6.05984">
        <ele>887.914795</ele>
        <time>2011-08-28T09:00:54Z</time>
      </trkpt>
      <trkpt lat="44.28927" lon="6.0599">
        <ele>888.876221</ele>
        <time>2011-08-28T09:01:00Z</time>
      </trkpt>
      <trkpt lat="44.28913" lon="6.06014">
        <ele>892.240967</ele>
        <time>2011-08-28T09:01:18Z</time>
      </trkpt>
      <trkpt lat="44.28922" lon="6.06051">
        <ele>895.605469</ele>
        <time>2011-08-28T09:01:41Z</time>
      </trkpt>
      <trkpt lat="44.28934" lon="6.06084">
        <ele>897.528076</ele>
        <time>2011-08-28T09:02:01Z</time>
      </trkpt>
      <trkpt lat="44.28929" lon="6.06098">
        <ele>898.489258</ele>
        <time>2011-08-28T09:02:09Z</time>
      </trkpt>
      <trkpt lat="44.28906" lon="6.06133">
        <ele>900.412109</ele>
        <time>2011-08-28T09:02:31Z</time>
      </trkpt>
      <trkpt lat="44.28903" lon="6.06143">
        <ele>900.412109</ele>
        <time>2011-08-28T09:02:33Z</time>
      </trkpt>
      <trkpt lat="44.28879" lon="6.06211">
        <ele>899.450684</ele>
        <time>2011-08-28T09:02:48Z</time>
      </trkpt>
      <trkpt lat="44.28876" lon="6.06214">
        <ele>899.931396</ele>
        <time>2011-08-28T09:02:51Z</time>
      </trkpt>
      <trkpt lat="44.28851" lon="6.06211">
        <ele>899.931396</ele>
        <time>2011-08-28T09:03:03Z</time>
      </trkpt>
      <trkpt lat="44.28847" lon="6.06194">
        <ele>899.931396</ele>
        <time>2011-08-28T09:03:06Z</time>
      </trkpt>
      <trkpt lat="44.28842" lon="6.06177">
        <ele>898.969971</ele>
        <time>2011-08-28T09:03:09Z</time>
      </trkpt>
      <trkpt lat="44.28806" lon="6.06155">
        <ele>896.566895</ele>
        <time>2011-08-28T09:03:16Z</time>
      </trkpt>
      <trkpt lat="44.2878" lon="6.06154">
        <ele>898.489258</ele>
        <time>2011-08-28T09:03:25Z</time>
      </trkpt>
      <trkpt lat="44.28755" lon="6.06121">
        <ele>898.969971</ele>
        <time>2011-08-28T09:03:42Z</time>
      </trkpt>
      <trkpt lat="44.28725" lon="6.06083">
        <ele>900.412109</ele>
        <time>2011-08-28T09:04:01Z</time>
      </trkpt>
      <trkpt lat="44.28696" lon="6.06068">
        <ele>901.373291</ele>
        <time>2011-08-28T09:04:16Z</time>
      </trkpt>
      <trkpt lat="44.28694" lon="6.06067">
        <ele>901.373291</ele>
        <time>2011-08-28T09:04:17Z</time>
      </trkpt>
      <trkpt lat="44.28688" lon="6.06052">
        <ele>901.854004</ele>
        <time>2011-08-28T09:04:21Z</time>
      </trkpt>
      <trkpt lat="44.28683" lon="6.06003">
        <ele>901.854004</ele>
        <time>2011-08-28T09:04:36Z</time>
      </trkpt>
      <trkpt lat="44.28644" lon="6.05967">
        <ele>900.892578</ele>
        <time>2011-08-28T09:04:53Z</time>
      </trkpt>
      <trkpt lat="44.2861" lon="6.05955">
        <ele>902.815186</ele>
        <time>2011-08-28T09:05:10Z</time>
      </trkpt>
      <trkpt lat="44.28584" lon="6.05957">
        <ele>905.218506</ele>
        <time>2011-08-28T09:05:28Z</time>
      </trkpt>
      <trkpt lat="44.28554" lon="6.05943">
        <ele>908.102783</ele>
        <time>2011-08-28T09:05:49Z</time>
      </trkpt>
      <trkpt lat="44.28532" lon="6.05931">
        <ele>910.025146</ele>
        <time>2011-08-28T09:06:06Z</time>
      </trkpt>
      <trkpt lat="44.28518" lon="6.05963">
        <ele>912.90918</ele>
        <time>2011-08-28T09:06:26Z</time>
      </trkpt>
      <trkpt lat="44.2852" lon="6.05998">
        <ele>915.793213</ele>
        <time>2011-08-28T09:06:44Z</time>
      </trkpt>
      <trkpt lat="44.28514" lon="6.06019">
        <ele>917.235107</ele>
        <time>2011-08-28T09:06:55Z</time>
      </trkpt>
      <trkpt lat="44.28508" lon="6.06074">
        <ele>920.118896</ele>
        <time>2011-08-28T09:07:21Z</time>
      </trkpt>
      <trkpt lat="44.28484" lon="6.06116">
        <ele>923.00293</ele>
        <time>2011-08-28T09:07:46Z</time>
      </trkpt>
      <trkpt lat="44.28461" lon="6.06158">
        <ele>924.445068</ele>
        <time>2011-08-28T09:08:07Z</time>
      </trkpt>
      <trkpt lat="44.28433" lon="6.06183">
        <ele>926.367676</ele>
        <time>2011-08-28T09:08:26Z</time>
      </trkpt>
      <trkpt lat="44.28406" lon="6.06198">
        <ele>927.80957</ele>
        <time>2011-08-28T09:08:41Z</time>
      </trkpt>
      <trkpt lat="44.28377" lon="6.06239">
        <ele>929.251465</ele>
        <time>2011-08-28T09:09:02Z</time>
      </trkpt>
      <trkpt lat="44.28356" lon="6.06275">
        <ele>930.693604</ele>
        <time>2011-08-28T09:09:19Z</time>
      </trkpt>
      <trkpt lat="44.28334" lon="6.06304">
        <ele>931.654785</ele>
        <time>2011-08-28T09:09:36Z</time>
      </trkpt>
      <trkpt lat="44.28309" lon="6.06309">
        <ele>931.654785</ele>
        <time>2011-08-28T09:09:47Z</time>
      </trkpt>
      <trkpt lat="44.28306" lon="6.0628">
        <ele>933.09668</ele>
        <time>2011-08-28T09:09:58Z</time>
      </trkpt>
      <trkpt lat="44.28324" lon="6.06241">
        <ele>935.5</ele>
        <time>2011-08-28T09:10:16Z</time>
      </trkpt>
      <trkpt lat="44.2834" lon="6.06214">
        <ele>936.461426</ele>
        <time>2011-08-28T09:10:29Z</time>
      </trkpt>
      <trkpt lat="44.28344" lon="6.0617">
        <ele>938.864746</ele>
        <time>2011-08-28T09:10:49Z</time>
      </trkpt>
      <trkpt lat="44.28344" lon="6.06163">
        <ele>938.864746</ele>
        <time>2011-08-28T09:10:53Z</time>
      </trkpt>
      <trkpt lat="44.28344" lon="6.06157">
        <ele>938.864746</ele>
        <time>2011-08-28T09:10:56Z</time>
      </trkpt>
      <trkpt lat="44.28346" lon="6.06108">
        <ele>941.748779</ele>
        <time>2011-08-28T09:11:18Z</time>
      </trkpt>
      <trkpt lat="44.28346" lon="6.06105">
        <ele>942.229492</ele>
        <time>2011-08-28T09:11:20Z</time>
      </trkpt>
      <trkpt lat="44.28342" lon="6.06095">
        <ele>942.229492</ele>
        <time>2011-08-28T09:11:26Z</time>
      </trkpt>
      <trkpt lat="44.28332" lon="6.06087">
        <ele>943.671387</ele>
        <time>2011-08-28T09:11:33Z</time>
      </trkpt>
      <trkpt lat="44.28297" lon="6.06091">
        <ele>946.074707</ele>
        <time>2011-08-28T09:11:57Z</time>
      </trkpt>
      <trkpt lat="44.28283" lon="6.06083">
        <ele>947.516602</ele>
        <time>2011-08-28T09:12:08Z</time>
      </trkpt>
      <trkpt lat="44.28268" lon="6.06045">
        <ele>949.919922</ele>
        <time>2011-08-28T09:12:29Z</time>
      </trkpt>
      <trkpt lat="44.28263" lon="6.06034">
        <ele>950.881104</ele>
        <time>2011-08-28T09:12:36Z</time>
      </trkpt>
      <trkpt lat="44.28249" lon="6.06029">
        <ele>951.842529</ele>
        <time>2011-08-28T09:12:47Z</time>
      </trkpt>
      <trkpt lat="44.28226" lon="6.06052">
        <ele>955.207031</ele>
        <time>2011-08-28T09:13:09Z</time>
      </trkpt>
      <trkpt lat="44.28221" lon="6.06058">
        <ele>956.168457</ele>
        <time>2011-08-28T09:13:14Z</time>
      </trkpt>
      <trkpt lat="44.28214" lon="6.06064">
        <ele>956.64917</ele>
        <time>2011-08-28T09:13:21Z</time>
      </trkpt>
      <trkpt lat="44.28203" lon="6.06054">
        <ele>957.610596</ele>
        <time>2011-08-28T09:13:28Z</time>
      </trkpt>
      <trkpt lat="44.28204" lon="6.06038">
        <ele>959.05249</ele>
        <time>2011-08-28T09:13:37Z</time>
      </trkpt>
      <trkpt lat="44.28205" lon="6.06029">
        <ele>959.05249</ele>
        <time>2011-08-28T09:13:42Z</time>
      </trkpt>
      <trkpt lat="44.28203" lon="6.06007">
        <ele>962.416992</ele>
        <time>2011-08-28T09:14:03Z</time>
      </trkpt>
      <trkpt lat="44.2818" lon="6.05997">
        <ele>964.3396</ele>
        <time>2011-08-28T09:14:19Z</time>
      </trkpt>
      <trkpt lat="44.28154" lon="6.06006">
        <ele>967.223633</ele>
        <time>2011-08-28T09:14:41Z</time>
      </trkpt>
      <trkpt lat="44.28131" lon="6.06031">
        <ele>970.588135</ele>
        <time>2011-08-28T09:15:04Z</time>
      </trkpt>
      <trkpt lat="44.28119" lon="6.06047">
        <ele>972.030273</ele>
        <time>2011-08-28T09:15:18Z</time>
      </trkpt>
      <trkpt lat="44.28091" lon="6.06083">
        <ele>974.914307</ele>
        <time>2011-08-28T09:15:47Z</time>
      </trkpt>
      <trkpt lat="44.28078" lon="6.06089">
        <ele>976.836914</ele>
        <time>2011-08-28T09:15:58Z</time>
      </trkpt>
      <trkpt lat="44.28058" lon="6.06081">
        <ele>978.278809</ele>
        <time>2011-08-28T09:16:15Z</time>
      </trkpt>
      <trkpt lat="44.28035" lon="6.0607">
        <ele>980.682129</ele>
        <time>2011-08-28T09:16:32Z</time>
      </trkpt>
      <trkpt lat="44.28027" lon="6.06086">
        <ele>982.124023</ele>
        <time>2011-08-28T09:16:45Z</time>
      </trkpt>
      <trkpt lat="44.28037" lon="6.06118">
        <ele>985.488525</ele>
        <time>2011-08-28T09:17:05Z</time>
      </trkpt>
      <trkpt lat="44.28058" lon="6.06142">
        <ele>987.411133</ele>
        <time>2011-08-28T09:17:26Z</time>
      </trkpt>
      <trkpt lat="44.28069" lon="6.06147">
        <ele>988.372803</ele>
        <time>2011-08-28T09:17:36Z</time>
      </trkpt>
      <trkpt lat="44.28085" lon="6.06137">
        <ele>990.29541</ele>
        <time>2011-08-28T09:17:50Z</time>
      </trkpt>
      <trkpt lat="44.28091" lon="6.06132">
        <ele>990.775879</ele>
        <time>2011-08-28T09:17:56Z</time>
      </trkpt>
      <trkpt lat="44.28103" lon="6.06122">
        <ele>992.218018</ele>
        <time>2011-08-28T09:18:07Z</time>
      </trkpt>
      <trkpt lat="44.28121" lon="6.06122">
        <ele>993.659912</ele>
        <time>2011-08-28T09:18:24Z</time>
      </trkpt>
      <trkpt lat="44.28115" lon="6.06137">
        <ele>995.101807</ele>
        <time>2011-08-28T09:18:37Z</time>
      </trkpt>
      <trkpt lat="44.28092" lon="6.06154">
        <ele>997.505127</ele>
        <time>2011-08-28T09:18:58Z</time>
      </trkpt>
      <trkpt lat="44.28075" lon="6.06181">
        <ele>999.908447</ele>
        <time>2011-08-28T09:19:18Z</time>
      </trkpt>
      <trkpt lat="44.28054" lon="6.06202">
        <ele>1002.311523</ele>
        <time>2011-08-28T09:19:38Z</time>
      </trkpt>
      <trkpt lat="44.28032" lon="6.06208">
        <ele>1005.195801</ele>
        <time>2011-08-28T09:19:59Z</time>
      </trkpt>
      <trkpt lat="44.28014" lon="6.0621">
        <ele>1006.637695</ele>
        <time>2011-08-28T09:20:12Z</time>
      </trkpt>
      <trkpt lat="44.27979" lon="6.06211">
        <ele>1009.521729</ele>
        <time>2011-08-28T09:20:38Z</time>
      </trkpt>
      <trkpt lat="44.27971" lon="6.06217">
        <ele>1010.002197</ele>
        <time>2011-08-28T09:20:46Z</time>
      </trkpt>
      <trkpt lat="44.27971" lon="6.06229">
        <ele>1011.444336</ele>
        <time>2011-08-28T09:20:52Z</time>
      </trkpt>
      <trkpt lat="44.27976" lon="6.06233">
        <ele>1011.925049</ele>
        <time>2011-08-28T09:20:56Z</time>
      </trkpt>
      <trkpt lat="44.28005" lon="6.06231">
        <ele>1013.847412</ele>
        <time>2011-08-28T09:21:17Z</time>
      </trkpt>
      <trkpt lat="44.28023" lon="6.0624">
        <ele>1015.770264</ele>
        <time>2011-08-28T09:21:33Z</time>
      </trkpt>
      <trkpt lat="44.28041" lon="6.0625">
        <ele>1017.692627</ele>
        <time>2011-08-28T09:21:52Z</time>
      </trkpt>
      <trkpt lat="44.28041" lon="6.0625">
        <ele>1017.692627</ele>
        <time>2011-08-28T09:21:54Z</time>
      </trkpt>
      <trkpt lat="44.2805" lon="6.06255">
        <ele>1018.17334</ele>
        <time>2011-08-28T09:21:57Z</time>
      </trkpt>
      <trkpt lat="44.28058" lon="6.06262">
        <ele>1019.134766</ele>
        <time>2011-08-28T09:22:04Z</time>
      </trkpt>
      <trkpt lat="44.28059" lon="6.06274">
        <ele>1020.096191</ele>
        <time>2011-08-28T09:22:12Z</time>
      </trkpt>
      <trkpt lat="44.28054" lon="6.06278">
        <ele>1020.576904</ele>
        <time>2011-08-28T09:22:17Z</time>
      </trkpt>
      <trkpt lat="44.28045" lon="6.06274">
        <ele>1022.018799</ele>
        <time>2011-08-28T09:22:24Z</time>
      </trkpt>
      <trkpt lat="44.28018" lon="6.06261">
        <ele>1025.383301</ele>
        <time>2011-08-28T09:22:48Z</time>
      </trkpt>
      <trkpt lat="44.28013" lon="6.06261">
        <ele>1024.902832</ele>
        <time>2011-08-28T09:22:51Z</time>
      </trkpt>
      <trkpt lat="44.27993" lon="6.06267">
        <ele>1027.306152</ele>
        <time>2011-08-28T09:23:07Z</time>
      </trkpt>
      <trkpt lat="44.27973" lon="6.06284">
        <ele>1029.228516</ele>
        <time>2011-08-28T09:23:24Z</time>
      </trkpt>
      <trkpt lat="44.27964" lon="6.06287">
        <ele>1030.189941</ele>
        <time>2011-08-28T09:23:31Z</time>
      </trkpt>
      <trkpt lat="44.27961" lon="6.06287">
        <ele>1031.631836</ele>
        <time>2011-08-28T09:23:33Z</time>
      </trkpt>
      <trkpt lat="44.27939" lon="6.0627">
        <ele>1034.515869</ele>
        <time>2011-08-28T09:23:55Z</time>
      </trkpt>
      <trkpt lat="44.27921" lon="6.06252">
        <ele>1037.399902</ele>
        <time>2011-08-28T09:24:13Z</time>
      </trkpt>
      <trkpt lat="44.27914" lon="6.0625">
        <ele>1038.361328</ele>
        <time>2011-08-28T09:24:18Z</time>
      </trkpt>
      <trkpt lat="44.27908" lon="6.06252">
        <ele>1038.361328</ele>
        <time>2011-08-28T09:24:22Z</time>
      </trkpt>
      <trkpt lat="44.27888" lon="6.06283">
        <ele>1041.245117</ele>
        <time>2011-08-28T09:24:45Z</time>
      </trkpt>
      <trkpt lat="44.27879" lon="6.06296">
        <ele>1041.245117</ele>
        <time>2011-08-28T09:24:55Z</time>
      </trkpt>
      <trkpt lat="44.27863" lon="6.06329">
        <ele>1044.609619</ele>
        <time>2011-08-28T09:25:18Z</time>
      </trkpt>
      <trkpt lat="44.27848" lon="6.0635">
        <ele>1046.051758</ele>
        <time>2011-08-28T09:25:35Z</time>
      </trkpt>
      <trkpt lat="44.27842" lon="6.06365">
        <ele>1047.012939</ele>
        <time>2011-08-28T09:25:45Z</time>
      </trkpt>
      <trkpt lat="44.2783" lon="6.06401">
        <ele>1049.41626</ele>
        <time>2011-08-28T09:26:07Z</time>
      </trkpt>
      <trkpt lat="44.27814" lon="6.06438">
        <ele>1052.300293</ele>
        <time>2011-08-28T09:26:31Z</time>
      </trkpt>
      <trkpt lat="44.27811" lon="6.06444">
        <ele>1052.781006</ele>
        <time>2011-08-28T09:26:35Z</time>
      </trkpt>
      <trkpt lat="44.27794" lon="6.06474">
        <ele>1055.665039</ele>
        <time>2011-08-28T09:27:02Z</time>
      </trkpt>
      <trkpt lat="44.27767" lon="6.06487">
        <ele>1058.548828</ele>
        <time>2011-08-28T09:27:23Z</time>
      </trkpt>
      <trkpt lat="44.27742" lon="6.06485">
        <ele>1061.432861</ele>
        <time>2011-08-28T09:27:44Z</time>
      </trkpt>
      <trkpt lat="44.27706" lon="6.06498">
        <ele>1063.835938</ele>
        <time>2011-08-28T09:28:11Z</time>
      </trkpt>
      <trkpt lat="44.27679" lon="6.0649">
        <ele>1067.200684</ele>
        <time>2011-08-28T09:28:33Z</time>
      </trkpt>
      <trkpt lat="44.27661" lon="6.06482">
        <ele>1068.162109</ele>
        <time>2011-08-28T09:28:48Z</time>
      </trkpt>
      <trkpt lat="44.27629" lon="6.06494">
        <ele>1070.56543</ele>
        <time>2011-08-28T09:29:13Z</time>
      </trkpt>
      <trkpt lat="44.27613" lon="6.0653">
        <ele>1073.449463</ele>
        <time>2011-08-28T09:29:36Z</time>
      </trkpt>
      <trkpt lat="44.27607" lon="6.06547">
        <ele>1074.410645</ele>
        <time>2011-08-28T09:29:46Z</time>
      </trkpt>
      <trkpt lat="44.27601" lon="6.06556">
        <ele>1075.852539</ele>
        <time>2011-08-28T09:29:53Z</time>
      </trkpt>
      <trkpt lat="44.27593" lon="6.0656">
        <ele>1076.813965</ele>
        <time>2011-08-28T09:30:00Z</time>
      </trkpt>
      <trkpt lat="44.27579" lon="6.0657">
        <ele>1078.255859</ele>
        <time>2011-08-28T09:30:12Z</time>
      </trkpt>
      <trkpt lat="44.27565" lon="6.0658">
        <ele>1079.697754</ele>
        <time>2011-08-28T09:30:25Z</time>
      </trkpt>
      <trkpt lat="44.27555" lon="6.06586">
        <ele>1080.178467</ele>
        <time>2011-08-28T09:30:33Z</time>
      </trkpt>
      <trkpt lat="44.2755" lon="6.0659">
        <ele>1081.139893</ele>
        <time>2011-08-28T09:30:37Z</time>
      </trkpt>
      <trkpt lat="44.27545" lon="6.06595">
        <ele>1081.620361</ele>
        <time>2011-08-28T09:30:42Z</time>
      </trkpt>
      <trkpt lat="44.27526" lon="6.06629">
        <ele>1084.504639</ele>
        <time>2011-08-28T09:31:06Z</time>
      </trkpt>
      <trkpt lat="44.27514" lon="6.06666">
        <ele>1086.907715</ele>
        <time>2011-08-28T09:31:29Z</time>
      </trkpt>
      <trkpt lat="44.2751" lon="6.06705">
        <ele>1089.791748</ele>
        <time>2011-08-28T09:31:51Z</time>
      </trkpt>
      <trkpt lat="44.27511" lon="6.06725">
        <ele>1088.830566</ele>
        <time>2011-08-28T09:32:02Z</time>
      </trkpt>
      <trkpt lat="44.27512" lon="6.06728">
        <ele>1092.195068</ele>
        <time>2011-08-28T09:32:04Z</time>
      </trkpt>
      <trkpt lat="44.27512" lon="6.0673">
        <ele>1092.195068</ele>
        <time>2011-08-28T09:32:05Z</time>
      </trkpt>
      <trkpt lat="44.275" lon="6.06767">
        <ele>1094.598145</ele>
        <time>2011-08-28T09:32:29Z</time>
      </trkpt>
      <trkpt lat="44.27498" lon="6.0679">
        <ele>1095.55957</ele>
        <time>2011-08-28T09:32:39Z</time>
      </trkpt>
      <trkpt lat="44.27497" lon="6.06791">
        <ele>1096.040283</ele>
        <time>2011-08-28T09:32:58Z</time>
      </trkpt>
      <trkpt lat="44.27497" lon="6.06791">
        <ele>1092.675781</ele>
        <time>2011-08-28T09:33:45Z</time>
      </trkpt>
      <trkpt lat="44.27497" lon="6.06791">
        <ele>1092.675781</ele>
        <time>2011-08-28T09:33:46Z</time>
      </trkpt>
      <trkpt lat="44.27497" lon="6.06791">
        <ele>1097.962891</ele>
        <time>2011-08-28T09:33:47Z</time>
      </trkpt>
      <trkpt lat="44.27497" lon="6.06791">
        <ele>1097.962891</ele>
        <time>2011-08-28T09:33:48Z</time>
      </trkpt>
      <trkpt lat="44.27497" lon="6.06791">
        <ele>1096.040283</ele>
        <time>2011-08-28T09:33:51Z</time>
      </trkpt>
      <trkpt lat="44.27497" lon="6.06791">
        <ele>1095.55957</ele>
        <time>2011-08-28T09:34:34Z</time>
      </trkpt>
      <trkpt lat="44.27497" lon="6.06791">
        <ele>1095.55957</ele>
        <time>2011-08-28T09:35:49Z</time>
      </trkpt>
      <trkpt lat="44.27497" lon="6.06791">
        <ele>1097.001465</ele>
        <time>2011-08-28T09:36:54Z</time>
      </trkpt>
      <trkpt lat="44.27497" lon="6.06791">
        <ele>1096.520996</ele>
        <time>2011-08-28T09:37:23Z</time>
      </trkpt>
      <trkpt lat="44.27497" lon="6.06791">
        <ele>1096.040283</ele>
        <time>2011-08-28T09:37:48Z</time>
      </trkpt>
      <trkpt lat="44.27491" lon="6.06823">
        <ele>1098.443359</ele>
        <time>2011-08-28T09:38:05Z</time>
      </trkpt>
      <trkpt lat="44.27493" lon="6.06847">
        <ele>1100.846924</ele>
        <time>2011-08-28T09:38:20Z</time>
      </trkpt>
      <trkpt lat="44.27495" lon="6.06865">
        <ele>1102.288818</ele>
        <time>2011-08-28T09:38:33Z</time>
      </trkpt>
      <trkpt lat="44.27503" lon="6.06878">
        <ele>1103.730957</ele>
        <time>2011-08-28T09:38:41Z</time>
      </trkpt>
      <trkpt lat="44.27505" lon="6.06889">
        <ele>1104.21167</ele>
        <time>2011-08-28T09:38:47Z</time>
      </trkpt>
      <trkpt lat="44.27498" lon="6.06926">
        <ele>1106.614746</ele>
        <time>2011-08-28T09:39:08Z</time>
      </trkpt>
      <trkpt lat="44.275" lon="6.06948">
        <ele>1108.056885</ele>
        <time>2011-08-28T09:39:20Z</time>
      </trkpt>
      <trkpt lat="44.27505" lon="6.06982">
        <ele>1111.421387</ele>
        <time>2011-08-28T09:39:40Z</time>
      </trkpt>
      <trkpt lat="44.27511" lon="6.06986">
        <ele>1111.9021</ele>
        <time>2011-08-28T09:39:47Z</time>
      </trkpt>
      <trkpt lat="44.27517" lon="6.06986">
        <ele>1113.343994</ele>
        <time>2011-08-28T09:39:51Z</time>
      </trkpt>
      <trkpt lat="44.27518" lon="6.07006">
        <ele>1113.343994</ele>
        <time>2011-08-28T09:40:00Z</time>
      </trkpt>
      <trkpt lat="44.27498" lon="6.0704">
        <ele>1114.785889</ele>
        <time>2011-08-28T09:40:17Z</time>
      </trkpt>
      <trkpt lat="44.27481" lon="6.07092">
        <ele>1110.459961</ele>
        <time>2011-08-28T09:40:31Z</time>
      </trkpt>
      <trkpt lat="44.2748" lon="6.07097">
        <ele>1110.459961</ele>
        <time>2011-08-28T09:40:32Z</time>
      </trkpt>
      <trkpt lat="44.27471" lon="6.07138">
        <ele>1109.018066</ele>
        <time>2011-08-28T09:40:39Z</time>
      </trkpt>
      <trkpt lat="44.27439" lon="6.07172">
        <ele>1107.576172</ele>
        <time>2011-08-28T09:40:50Z</time>
      </trkpt>
      <trkpt lat="44.27408" lon="6.07188">
        <ele>1105.172852</ele>
        <time>2011-08-28T09:40:59Z</time>
      </trkpt>
      <trkpt lat="44.27398" lon="6.07196">
        <ele>1106.614746</ele>
        <time>2011-08-28T09:41:02Z</time>
      </trkpt>
      <trkpt lat="44.27383" lon="6.07207">
        <ele>1104.692139</ele>
        <time>2011-08-28T09:41:06Z</time>
      </trkpt>
      <trkpt lat="44.27356" lon="6.07236">
        <ele>1100.846924</ele>
        <time>2011-08-28T09:41:14Z</time>
      </trkpt>
      <trkpt lat="44.27341" lon="6.0725">
        <ele>1099.885498</ele>
        <time>2011-08-28T09:41:19Z</time>
      </trkpt>
      <trkpt lat="44.27295" lon="6.07269">
        <ele>1098.924072</ele>
        <time>2011-08-28T09:41:33Z</time>
      </trkpt>
      <trkpt lat="44.27273" lon="6.07297">
        <ele>1097.482178</ele>
        <time>2011-08-28T09:41:44Z</time>
      </trkpt>
      <trkpt lat="44.27257" lon="6.07359">
        <ele>1095.55957</ele>
        <time>2011-08-28T09:41:57Z</time>
      </trkpt>
      <trkpt lat="44.27241" lon="6.07368">
        <ele>1094.598145</ele>
        <time>2011-08-28T09:42:02Z</time>
      </trkpt>
      <trkpt lat="44.27206" lon="6.07415">
        <ele>1091.714355</ele>
        <time>2011-08-28T09:42:14Z</time>
      </trkpt>
      <trkpt lat="44.2719" lon="6.07444">
        <ele>1087.869141</ele>
        <time>2011-08-28T09:42:22Z</time>
      </trkpt>
      <trkpt lat="44.27189" lon="6.07449">
        <ele>1087.869141</ele>
        <time>2011-08-28T09:42:23Z</time>
      </trkpt>
      <trkpt lat="44.27174" lon="6.07488">
        <ele>1086.907715</ele>
        <time>2011-08-28T09:42:34Z</time>
      </trkpt>
      <trkpt lat="44.2715" lon="6.07492">
        <ele>1089.791748</ele>
        <time>2011-08-28T09:42:53Z</time>
      </trkpt>
      <trkpt lat="44.27125" lon="6.07498">
        <ele>1092.675781</ele>
        <time>2011-08-28T09:43:15Z</time>
      </trkpt>
      <trkpt lat="44.2712" lon="6.075">
        <ele>1093.636963</ele>
        <time>2011-08-28T09:43:19Z</time>
      </trkpt>
      <trkpt lat="44.27096" lon="6.07515">
        <ele>1095.078857</ele>
        <time>2011-08-28T09:43:38Z</time>
      </trkpt>
      <trkpt lat="44.27066" lon="6.07564">
        <ele>1094.598145</ele>
        <time>2011-08-28T09:43:57Z</time>
      </trkpt>
      <trkpt lat="44.27058" lon="6.07598">
        <ele>1096.040283</ele>
        <time>2011-08-28T09:44:07Z</time>
      </trkpt>
      <trkpt lat="44.27041" lon="6.07641">
        <ele>1094.117676</ele>
        <time>2011-08-28T09:44:21Z</time>
      </trkpt>
      <trkpt lat="44.27027" lon="6.07681">
        <ele>1091.714355</ele>
        <time>2011-08-28T09:44:30Z</time>
      </trkpt>
      <trkpt lat="44.27027" lon="6.07681">
        <ele>1090.75293</ele>
        <time>2011-08-28T09:44:35Z</time>
      </trkpt>
      <trkpt lat="44.27009" lon="6.07701">
        <ele>1091.714355</ele>
        <time>2011-08-28T09:44:47Z</time>
      </trkpt>
      <trkpt lat="44.26993" lon="6.07728">
        <ele>1094.598145</ele>
        <time>2011-08-28T09:45:09Z</time>
      </trkpt>
      <trkpt lat="44.26986" lon="6.07724">
        <ele>1095.55957</ele>
        <time>2011-08-28T09:45:17Z</time>
      </trkpt>
      <trkpt lat="44.26976" lon="6.07684">
        <ele>1097.482178</ele>
        <time>2011-08-28T09:45:40Z</time>
      </trkpt>
      <trkpt lat="44.26969" lon="6.07668">
        <ele>1099.404785</ele>
        <time>2011-08-28T09:45:49Z</time>
      </trkpt>
      <trkpt lat="44.26962" lon="6.07663">
        <ele>1099.885498</ele>
        <time>2011-08-28T09:45:56Z</time>
      </trkpt>
      <trkpt lat="44.26957" lon="6.07653">
        <ele>1101.327637</ele>
        <time>2011-08-28T09:46:02Z</time>
      </trkpt>
      <trkpt lat="44.26952" lon="6.07612">
        <ele>1104.692139</ele>
        <time>2011-08-28T09:46:25Z</time>
      </trkpt>
      <trkpt lat="44.26938" lon="6.07574">
        <ele>1107.576172</ele>
        <time>2011-08-28T09:46:50Z</time>
      </trkpt>
      <trkpt lat="44.26932" lon="6.07533">
        <ele>1109.979248</ele>
        <time>2011-08-28T09:47:13Z</time>
      </trkpt>
      <trkpt lat="44.26937" lon="6.07497">
        <ele>1112.382568</ele>
        <time>2011-08-28T09:47:33Z</time>
      </trkpt>
      <trkpt lat="44.26937" lon="6.07485">
        <ele>1112.863281</ele>
        <time>2011-08-28T09:47:40Z</time>
      </trkpt>
      <trkpt lat="44.26936" lon="6.0748">
        <ele>1113.343994</ele>
        <time>2011-08-28T09:47:43Z</time>
      </trkpt>
      <trkpt lat="44.26938" lon="6.07443">
        <ele>1117.189453</ele>
        <time>2011-08-28T09:48:04Z</time>
      </trkpt>
      <trkpt lat="44.26939" lon="6.07411">
        <ele>1119.592773</ele>
        <time>2011-08-28T09:48:22Z</time>
      </trkpt>
      <trkpt lat="44.26941" lon="6.0738">
        <ele>1122.957275</ele>
        <time>2011-08-28T09:48:43Z</time>
      </trkpt>
      <trkpt lat="44.26941" lon="6.07371">
        <ele>1123.437988</ele>
        <time>2011-08-28T09:48:47Z</time>
      </trkpt>
      <trkpt lat="44.26943" lon="6.07359">
        <ele>1124.879883</ele>
        <time>2011-08-28T09:48:55Z</time>
      </trkpt>
      <trkpt lat="44.26944" lon="6.07351">
        <ele>1125.360352</ele>
        <time>2011-08-28T09:48:59Z</time>
      </trkpt>
      <trkpt lat="44.2695" lon="6.07333">
        <ele>1126.80249</ele>
        <time>2011-08-28T09:49:11Z</time>
      </trkpt>
      <trkpt lat="44.26946" lon="6.07324">
        <ele>1127.763672</ele>
        <time>2011-08-28T09:49:18Z</time>
      </trkpt>
      <trkpt lat="44.26943" lon="6.07325">
        <ele>1127.763672</ele>
        <time>2011-08-28T09:49:20Z</time>
      </trkpt>
      <trkpt lat="44.26945" lon="6.07349">
        <ele>1128.725098</ele>
        <time>2011-08-28T09:49:31Z</time>
      </trkpt>
      <trkpt lat="44.26917" lon="6.07375">
        <ele>1132.089844</ele>
        <time>2011-08-28T09:49:54Z</time>
      </trkpt>
      <trkpt lat="44.26905" lon="6.07412">
        <ele>1134.012451</ele>
        <time>2011-08-28T09:50:15Z</time>
      </trkpt>
      <trkpt lat="44.26903" lon="6.07421">
        <ele>1134.493164</ele>
        <time>2011-08-28T09:50:20Z</time>
      </trkpt>
      <trkpt lat="44.26899" lon="6.07437">
        <ele>1135.935059</ele>
        <time>2011-08-28T09:50:29Z</time>
      </trkpt>
      <trkpt lat="44.26891" lon="6.07466">
        <ele>1138.338379</ele>
        <time>2011-08-28T09:50:47Z</time>
      </trkpt>
      <trkpt lat="44.26881" lon="6.07491">
        <ele>1140.260986</ele>
        <time>2011-08-28T09:51:05Z</time>
      </trkpt>
      <trkpt lat="44.26867" lon="6.07516">
        <ele>1143.625488</ele>
        <time>2011-08-28T09:51:24Z</time>
      </trkpt>
      <trkpt lat="44.26862" lon="6.07561">
        <ele>1146.509521</ele>
        <time>2011-08-28T09:51:50Z</time>
      </trkpt>
      <trkpt lat="44.26861" lon="6.07575">
        <ele>1149.874268</ele>
        <time>2011-08-28T09:52:08Z</time>
      </trkpt>
      <trkpt lat="44.26854" lon="6.07614">
        <ele>1152.758057</ele>
        <time>2011-08-28T09:52:28Z</time>
      </trkpt>
      <trkpt lat="44.26854" lon="6.07614">
        <ele>1153.23877</ele>
        <time>2011-08-28T09:52:34Z</time>
      </trkpt>
      <trkpt lat="44.26854" lon="6.07614">
        <ele>1154.200195</ele>
        <time>2011-08-28T09:52:39Z</time>
      </trkpt>
      <trkpt lat="44.26843" lon="6.0763">
        <ele>1154.200195</ele>
        <time>2011-08-28T09:52:43Z</time>
      </trkpt>
      <trkpt lat="44.2684" lon="6.07626">
        <ele>1155.161377</ele>
        <time>2011-08-28T09:52:46Z</time>
      </trkpt>
      <trkpt lat="44.2684" lon="6.07617">
        <ele>1155.64209</ele>
        <time>2011-08-28T09:52:52Z</time>
      </trkpt>
      <trkpt lat="44.2684" lon="6.07595">
        <ele>1156.603271</ele>
        <time>2011-08-28T09:53:05Z</time>
      </trkpt>
      <trkpt lat="44.26833" lon="6.07556">
        <ele>1159.487305</ele>
        <time>2011-08-28T09:53:31Z</time>
      </trkpt>
      <trkpt lat="44.26825" lon="6.07536">
        <ele>1161.409912</ele>
        <time>2011-08-28T09:53:50Z</time>
      </trkpt>
      <trkpt lat="44.26826" lon="6.07514">
        <ele>1162.851807</ele>
        <time>2011-08-28T09:54:02Z</time>
      </trkpt>
      <trkpt lat="44.26826" lon="6.07503">
        <ele>1163.33252</ele>
        <time>2011-08-28T09:54:08Z</time>
      </trkpt>
      <trkpt lat="44.26818" lon="6.07506">
        <ele>1164.293945</ele>
        <time>2011-08-28T09:54:16Z</time>
      </trkpt>
      <trkpt lat="44.26815" lon="6.07519">
        <ele>1164.774658</ele>
        <time>2011-08-28T09:54:23Z</time>
      </trkpt>
      <trkpt lat="44.26811" lon="6.07551">
        <ele>1166.216553</ele>
        <time>2011-08-28T09:54:41Z</time>
      </trkpt>
      <trkpt lat="44.26807" lon="6.07575">
        <ele>1169.581299</ele>
        <time>2011-08-28T09:55:03Z</time>
      </trkpt>
      <trkpt lat="44.26806" lon="6.07603">
        <ele>1171.023193</ele>
        <time>2011-08-28T09:55:16Z</time>
      </trkpt>
      <trkpt lat="44.26804" lon="6.07614">
        <ele>1171.984375</ele>
        <time>2011-08-28T09:55:20Z</time>
      </trkpt>
      <trkpt lat="44.26793" lon="6.07654">
        <ele>1175.348877</ele>
        <time>2011-08-28T09:55:45Z</time>
      </trkpt>
      <trkpt lat="44.26777" lon="6.07683">
        <ele>1178.23291</ele>
        <time>2011-08-28T09:56:06Z</time>
      </trkpt>
      <trkpt lat="44.26763" lon="6.07713">
        <ele>1180.155762</ele>
        <time>2011-08-28T09:56:26Z</time>
      </trkpt>
      <trkpt lat="44.2675" lon="6.07735">
        <ele>1182.559082</ele>
        <time>2011-08-28T09:56:43Z</time>
      </trkpt>
      <trkpt lat="44.26743" lon="6.07755">
        <ele>1184.000977</ele>
        <time>2011-08-28T09:56:55Z</time>
      </trkpt>
      <trkpt lat="44.26743" lon="6.07755">
        <ele>1184.962402</ele>
        <time>2011-08-28T09:57:01Z</time>
      </trkpt>
      <trkpt lat="44.26718" lon="6.07776">
        <ele>1187.365479</ele>
        <time>2011-08-28T09:57:22Z</time>
      </trkpt>
      <trkpt lat="44.26716" lon="6.07776">
        <ele>1185.923584</ele>
        <time>2011-08-28T09:57:26Z</time>
      </trkpt>
      <trkpt lat="44.26716" lon="6.07776">
        <ele>1186.884766</ele>
        <time>2011-08-28T09:57:27Z</time>
      </trkpt>
      <trkpt lat="44.26712" lon="6.07777">
        <ele>1188.326904</ele>
        <time>2011-08-28T09:57:30Z</time>
      </trkpt>
      <trkpt lat="44.26712" lon="6.07777">
        <ele>1188.326904</ele>
        <time>2011-08-28T09:57:32Z</time>
      </trkpt>
      <trkpt lat="44.26698" lon="6.07781">
        <ele>1189.288086</ele>
        <time>2011-08-28T09:57:41Z</time>
      </trkpt>
      <trkpt lat="44.26692" lon="6.07787">
        <ele>1191.210693</ele>
        <time>2011-08-28T09:57:46Z</time>
      </trkpt>
      <trkpt lat="44.26683" lon="6.07797">
        <ele>1193.614014</ele>
        <time>2011-08-28T09:57:54Z</time>
      </trkpt>
      <trkpt lat="44.2666" lon="6.0782">
        <ele>1195.055908</ele>
        <time>2011-08-28T09:58:16Z</time>
      </trkpt>
      <trkpt lat="44.26643" lon="6.07848">
        <ele>1195.536621</ele>
        <time>2011-08-28T09:58:29Z</time>
      </trkpt>
      <trkpt lat="44.26625" lon="6.07902">
        <ele>1195.536621</ele>
        <time>2011-08-28T09:58:43Z</time>
      </trkpt>
      <trkpt lat="44.26607" lon="6.07968">
        <ele>1197.940186</ele>
        <time>2011-08-28T09:59:06Z</time>
      </trkpt>
      <trkpt lat="44.26602" lon="6.07986">
        <ele>1198.420654</ele>
        <time>2011-08-28T09:59:13Z</time>
      </trkpt>
      <trkpt lat="44.26587" lon="6.08036">
        <ele>1198.420654</ele>
        <time>2011-08-28T09:59:27Z</time>
      </trkpt>
      <trkpt lat="44.2656" lon="6.08071">
        <ele>1197.940186</ele>
        <time>2011-08-28T09:59:38Z</time>
      </trkpt>
      <trkpt lat="44.2655" lon="6.08089">
        <ele>1201.304688</ele>
        <time>2011-08-28T09:59:55Z</time>
      </trkpt>
      <trkpt lat="44.26546" lon="6.08111">
        <ele>1202.265869</ele>
        <time>2011-08-28T10:00:05Z</time>
      </trkpt>
      <trkpt lat="44.26533" lon="6.08137">
        <ele>1205.630615</ele>
        <time>2011-08-28T10:00:25Z</time>
      </trkpt>
      <trkpt lat="44.26527" lon="6.08149">
        <ele>1206.591797</ele>
        <time>2011-08-28T10:00:34Z</time>
      </trkpt>
      <trkpt lat="44.26514" lon="6.08169">
        <ele>1209.47583</ele>
        <time>2011-08-28T10:00:56Z</time>
      </trkpt>
      <trkpt lat="44.26491" lon="6.08192">
        <ele>1211.398438</ele>
        <time>2011-08-28T10:01:17Z</time>
      </trkpt>
      <trkpt lat="44.26466" lon="6.08219">
        <ele>1212.359863</ele>
        <time>2011-08-28T10:01:33Z</time>
      </trkpt>
      <trkpt lat="44.26462" lon="6.08221">
        <ele>1212.359863</ele>
        <time>2011-08-28T10:01:36Z</time>
      </trkpt>
      <trkpt lat="44.26442" lon="6.08238">
        <ele>1213.801758</ele>
        <time>2011-08-28T10:01:51Z</time>
      </trkpt>
      <trkpt lat="44.26413" lon="6.08243">
        <ele>1217.166504</ele>
        <time>2011-08-28T10:02:14Z</time>
      </trkpt>
      <trkpt lat="44.26402" lon="6.08242">
        <ele>1217.646973</ele>
        <time>2011-08-28T10:02:24Z</time>
      </trkpt>
      <trkpt lat="44.26399" lon="6.08241">
        <ele>1218.127686</ele>
        <time>2011-08-28T10:02:28Z</time>
      </trkpt>
      <trkpt lat="44.26381" lon="6.08242">
        <ele>1220.050293</ele>
        <time>2011-08-28T10:02:42Z</time>
      </trkpt>
      <trkpt lat="44.26379" lon="6.08243">
        <ele>1220.050293</ele>
        <time>2011-08-28T10:02:43Z</time>
      </trkpt>
      <trkpt lat="44.26374" lon="6.08243">
        <ele>1221.492188</ele>
        <time>2011-08-28T10:02:47Z</time>
      </trkpt>
      <trkpt lat="44.26346" lon="6.08261">
        <ele>1224.376221</ele>
        <time>2011-08-28T10:03:10Z</time>
      </trkpt>
      <trkpt lat="44.26332" lon="6.08279">
        <ele>1227.260254</ele>
        <time>2011-08-28T10:03:27Z</time>
      </trkpt>
      <trkpt lat="44.26305" lon="6.08308">
        <ele>1229.663574</ele>
        <time>2011-08-28T10:03:52Z</time>
      </trkpt>
      <trkpt lat="44.26285" lon="6.08333">
        <ele>1232.547607</ele>
        <time>2011-08-28T10:04:12Z</time>
      </trkpt>
      <trkpt lat="44.26279" lon="6.08342">
        <ele>1233.028076</ele>
        <time>2011-08-28T10:04:18Z</time>
      </trkpt>
      <trkpt lat="44.26259" lon="6.08376">
        <ele>1233.989502</ele>
        <time>2011-08-28T10:04:39Z</time>
      </trkpt>
      <trkpt lat="44.26243" lon="6.08412">
        <ele>1235.431396</ele>
        <time>2011-08-28T10:05:01Z</time>
      </trkpt>
      <trkpt lat="44.26232" lon="6.08417">
        <ele>1237.834717</ele>
        <time>2011-08-28T10:05:11Z</time>
      </trkpt>
      <trkpt lat="44.26212" lon="6.08444">
        <ele>1241.679932</ele>
        <time>2011-08-28T10:05:31Z</time>
      </trkpt>
      <trkpt lat="44.26194" lon="6.08478">
        <ele>1243.602539</ele>
        <time>2011-08-28T10:05:54Z</time>
      </trkpt>
      <trkpt lat="44.26177" lon="6.08507">
        <ele>1245.525391</ele>
        <time>2011-08-28T10:06:14Z</time>
      </trkpt>
      <trkpt lat="44.26151" lon="6.08558">
        <ele>1245.044678</ele>
        <time>2011-08-28T10:06:35Z</time>
      </trkpt>
      <trkpt lat="44.26147" lon="6.08568">
        <ele>1245.044678</ele>
        <time>2011-08-28T10:06:37Z</time>
      </trkpt>
      <trkpt lat="44.26137" lon="6.0859">
        <ele>1243.602539</ele>
        <time>2011-08-28T10:06:41Z</time>
      </trkpt>
      <trkpt lat="44.2613" lon="6.08609">
        <ele>1242.641357</ele>
        <time>2011-08-28T10:06:44Z</time>
      </trkpt>
      <trkpt lat="44.26119" lon="6.0863">
        <ele>1242.641357</ele>
        <time>2011-08-28T10:06:48Z</time>
      </trkpt>
      <trkpt lat="44.26095" lon="6.08647">
        <ele>1241.679932</ele>
        <time>2011-08-28T10:06:54Z</time>
      </trkpt>
      <trkpt lat="44.26081" lon="6.08647">
        <ele>1241.199219</ele>
        <time>2011-08-28T10:06:57Z</time>
      </trkpt>
      <trkpt lat="44.26042" lon="6.08668">
        <ele>1241.679932</ele>
        <time>2011-08-28T10:07:10Z</time>
      </trkpt>
      <trkpt lat="44.26031" lon="6.08707">
        <ele>1243.121826</ele>
        <time>2011-08-28T10:07:26Z</time>
      </trkpt>
      <trkpt lat="44.26019" lon="6.08752">
        <ele>1245.525391</ele>
        <time>2011-08-28T10:07:50Z</time>
      </trkpt>
      <trkpt lat="44.25999" lon="6.08758">
        <ele>1247.447998</ele>
        <time>2011-08-28T10:08:08Z</time>
      </trkpt>
      <trkpt lat="44.25977" lon="6.08774">
        <ele>1250.332031</ele>
        <time>2011-08-28T10:08:29Z</time>
      </trkpt>
      <trkpt lat="44.25972" lon="6.08778">
        <ele>1251.773926</ele>
        <time>2011-08-28T10:08:38Z</time>
      </trkpt>
      <trkpt lat="44.25946" lon="6.08801">
        <ele>1255.138428</ele>
        <time>2011-08-28T10:09:02Z</time>
      </trkpt>
      <trkpt lat="44.25946" lon="6.08801">
        <ele>1255.619141</ele>
        <time>2011-08-28T10:09:12Z</time>
      </trkpt>
      <trkpt lat="44.25931" lon="6.08834">
        <ele>1258.022461</ele>
        <time>2011-08-28T10:09:28Z</time>
      </trkpt>
      <trkpt lat="44.25966" lon="6.08833">
        <ele>1258.50293</ele>
        <time>2011-08-28T10:09:48Z</time>
      </trkpt>
      <trkpt lat="44.25983" lon="6.08858">
        <ele>1259.944824</ele>
        <time>2011-08-28T10:10:05Z</time>
      </trkpt>
      <trkpt lat="44.25984" lon="6.08872">
        <ele>1260.906494</ele>
        <time>2011-08-28T10:10:14Z</time>
      </trkpt>
      <trkpt lat="44.25963" lon="6.08901">
        <ele>1263.790283</ele>
        <time>2011-08-28T10:10:36Z</time>
      </trkpt>
      <trkpt lat="44.25936" lon="6.08911">
        <ele>1266.674316</ele>
        <time>2011-08-28T10:10:57Z</time>
      </trkpt>
      <trkpt lat="44.25913" lon="6.08906">
        <ele>1268.596924</ele>
        <time>2011-08-28T10:11:14Z</time>
      </trkpt>
      <trkpt lat="44.25878" lon="6.08903">
        <ele>1270.519531</ele>
        <time>2011-08-28T10:11:37Z</time>
      </trkpt>
      <trkpt lat="44.25848" lon="6.08936">
        <ele>1271.961426</ele>
        <time>2011-08-28T10:12:00Z</time>
      </trkpt>
      <trkpt lat="44.25827" lon="6.08969">
        <ele>1274.364746</ele>
        <time>2011-08-28T10:12:20Z</time>
      </trkpt>
      <trkpt lat="44.25805" lon="6.09012">
        <ele>1276.768311</ele>
        <time>2011-08-28T10:12:44Z</time>
      </trkpt>
      <trkpt lat="44.25802" lon="6.09016">
        <ele>1276.768311</ele>
        <time>2011-08-28T10:12:47Z</time>
      </trkpt>
      <trkpt lat="44.25785" lon="6.09065">
        <ele>1279.6521</ele>
        <time>2011-08-28T10:13:12Z</time>
      </trkpt>
      <trkpt lat="44.25783" lon="6.09108">
        <ele>1282.536133</ele>
        <time>2011-08-28T10:13:33Z</time>
      </trkpt>
      <trkpt lat="44.25791" lon="6.09142">
        <ele>1283.978027</ele>
        <time>2011-08-28T10:13:52Z</time>
      </trkpt>
      <trkpt lat="44.25795" lon="6.09182">
        <ele>1285.900635</ele>
        <time>2011-08-28T10:14:12Z</time>
      </trkpt>
      <trkpt lat="44.25804" lon="6.09181">
        <ele>1286.861816</ele>
        <time>2011-08-28T10:14:22Z</time>
      </trkpt>
      <trkpt lat="44.25809" lon="6.09132">
        <ele>1288.784668</ele>
        <time>2011-08-28T10:14:45Z</time>
      </trkpt>
      <trkpt lat="44.25833" lon="6.09107">
        <ele>1290.707031</ele>
        <time>2011-08-28T10:15:06Z</time>
      </trkpt>
      <trkpt lat="44.25851" lon="6.0912">
        <ele>1291.187744</ele>
        <time>2011-08-28T10:15:21Z</time>
      </trkpt>
      <trkpt lat="44.25862" lon="6.09155">
        <ele>1294.072021</ele>
        <time>2011-08-28T10:15:40Z</time>
      </trkpt>
      <trkpt lat="44.25855" lon="6.092">
        <ele>1295.513916</ele>
        <time>2011-08-28T10:16:03Z</time>
      </trkpt>
      <trkpt lat="44.25854" lon="6.09207">
        <ele>1295.513916</ele>
        <time>2011-08-28T10:16:06Z</time>
      </trkpt>
      <trkpt lat="44.25853" lon="6.09214">
        <ele>1295.994629</ele>
        <time>2011-08-28T10:16:09Z</time>
      </trkpt>
      <trkpt lat="44.25834" lon="6.0927">
        <ele>1297.436523</ele>
        <time>2011-08-28T10:16:32Z</time>
      </trkpt>
      <trkpt lat="44.2583" lon="6.09286">
        <ele>1296.475342</ele>
        <time>2011-08-28T10:16:39Z</time>
      </trkpt>
      <trkpt lat="44.25825" lon="6.09324">
        <ele>1299.839844</ele>
        <time>2011-08-28T10:16:54Z</time>
      </trkpt>
      <trkpt lat="44.25828" lon="6.09369">
        <ele>1301.762451</ele>
        <time>2011-08-28T10:17:13Z</time>
      </trkpt>
      <trkpt lat="44.25847" lon="6.09413">
        <ele>1304.64624</ele>
        <time>2011-08-28T10:17:35Z</time>
      </trkpt>
      <trkpt lat="44.25847" lon="6.09463">
        <ele>1306.088135</ele>
        <time>2011-08-28T10:17:57Z</time>
      </trkpt>
      <trkpt lat="44.25833" lon="6.09499">
        <ele>1308.01123</ele>
        <time>2011-08-28T10:18:15Z</time>
      </trkpt>
      <trkpt lat="44.25791" lon="6.09516">
        <ele>1310.414307</ele>
        <time>2011-08-28T10:18:40Z</time>
      </trkpt>
      <trkpt lat="44.25757" lon="6.09552">
        <ele>1313.778809</ele>
        <time>2011-08-28T10:19:06Z</time>
      </trkpt>
      <trkpt lat="44.2575" lon="6.09558">
        <ele>1313.29834</ele>
        <time>2011-08-28T10:19:23Z</time>
      </trkpt>
      <trkpt lat="44.2575" lon="6.09558">
        <ele>1313.29834</ele>
        <time>2011-08-28T10:19:44Z</time>
      </trkpt>
      <trkpt lat="44.2575" lon="6.09558">
        <ele>1314.740234</ele>
        <time>2011-08-28T10:19:46Z</time>
      </trkpt>
      <trkpt lat="44.2575" lon="6.09558">
        <ele>1315.220947</ele>
        <time>2011-08-28T10:20:00Z</time>
      </trkpt>
      <trkpt lat="44.2575" lon="6.09558">
        <ele>1310.89502</ele>
        <time>2011-08-28T10:20:02Z</time>
      </trkpt>
      <trkpt lat="44.2575" lon="6.09558">
        <ele>1310.89502</ele>
        <time>2011-08-28T10:20:03Z</time>
      </trkpt>
      <trkpt lat="44.2575" lon="6.09558">
        <ele>1319.066162</ele>
        <time>2011-08-28T10:20:04Z</time>
      </trkpt>
      <trkpt lat="44.2575" lon="6.09558">
        <ele>1319.066162</ele>
        <time>2011-08-28T10:20:05Z</time>
      </trkpt>
      <trkpt lat="44.2575" lon="6.09558">
        <ele>1315.70166</ele>
        <time>2011-08-28T10:20:06Z</time>
      </trkpt>
      <trkpt lat="44.2575" lon="6.09558">
        <ele>1315.70166</ele>
        <time>2011-08-28T10:20:07Z</time>
      </trkpt>
      <trkpt lat="44.25747" lon="6.09563">
        <ele>1314.740234</ele>
        <time>2011-08-28T10:20:14Z</time>
      </trkpt>
      <trkpt lat="44.25741" lon="6.09594">
        <ele>1313.29834</ele>
        <time>2011-08-28T10:20:22Z</time>
      </trkpt>
      <trkpt lat="44.2573" lon="6.09605">
        <ele>1311.856445</ele>
        <time>2011-08-28T10:20:28Z</time>
      </trkpt>
      <trkpt lat="44.25707" lon="6.096">
        <ele>1313.29834</ele>
        <time>2011-08-28T10:20:35Z</time>
      </trkpt>
      <trkpt lat="44.257" lon="6.096">
        <ele>1310.89502</ele>
        <time>2011-08-28T10:20:37Z</time>
      </trkpt>
      <trkpt lat="44.25694" lon="6.096">
        <ele>1312.336914</ele>
        <time>2011-08-28T10:20:39Z</time>
      </trkpt>
      <trkpt lat="44.2568" lon="6.09601">
        <ele>1310.89502</ele>
        <time>2011-08-28T10:20:44Z</time>
      </trkpt>
      <trkpt lat="44.25675" lon="6.09602">
        <ele>1312.817627</ele>
        <time>2011-08-28T10:20:46Z</time>
      </trkpt>
      <trkpt lat="44.25625" lon="6.09609">
        <ele>1308.972412</ele>
        <time>2011-08-28T10:21:02Z</time>
      </trkpt>
      <trkpt lat="44.25622" lon="6.09609">
        <ele>1308.972412</ele>
        <time>2011-08-28T10:21:03Z</time>
      </trkpt>
      <trkpt lat="44.25616" lon="6.0961">
        <ele>1310.414307</ele>
        <time>2011-08-28T10:21:05Z</time>
      </trkpt>
      <trkpt lat="44.2561" lon="6.0961">
        <ele>1308.972412</ele>
        <time>2011-08-28T10:21:07Z</time>
      </trkpt>
      <trkpt lat="44.25577" lon="6.09613">
        <ele>1305.607666</ele>
        <time>2011-08-28T10:21:18Z</time>
      </trkpt>
      <trkpt lat="44.25575" lon="6.09614">
        <ele>1305.607666</ele>
        <time>2011-08-28T10:21:19Z</time>
      </trkpt>
      <trkpt lat="44.25542" lon="6.09617">
        <ele>1302.723633</ele>
        <time>2011-08-28T10:21:31Z</time>
      </trkpt>
      <trkpt lat="44.25514" lon="6.09622">
        <ele>1302.24292</ele>
        <time>2011-08-28T10:21:40Z</time>
      </trkpt>
      <trkpt lat="44.25461" lon="6.09633">
        <ele>1299.839844</ele>
        <time>2011-08-28T10:21:55Z</time>
      </trkpt>
      <trkpt lat="44.25441" lon="6.09682">
        <ele>1300.801025</ele>
        <time>2011-08-28T10:22:07Z</time>
      </trkpt>
      <trkpt lat="44.25423" lon="6.09745">
        <ele>1302.723633</ele>
        <time>2011-08-28T10:22:28Z</time>
      </trkpt>
      <trkpt lat="44.2542" lon="6.09763">
        <ele>1302.723633</ele>
        <time>2011-08-28T10:22:36Z</time>
      </trkpt>
      <trkpt lat="44.2543" lon="6.09804">
        <ele>1300.320557</ele>
        <time>2011-08-28T10:22:50Z</time>
      </trkpt>
      <trkpt lat="44.25428" lon="6.09844">
        <ele>1295.994629</ele>
        <time>2011-08-28T10:22:58Z</time>
      </trkpt>
      <trkpt lat="44.25427" lon="6.09848">
        <ele>1295.994629</ele>
        <time>2011-08-28T10:22:59Z</time>
      </trkpt>
      <trkpt lat="44.25422" lon="6.09879">
        <ele>1292.630127</ele>
        <time>2011-08-28T10:23:07Z</time>
      </trkpt>
      <trkpt lat="44.25422" lon="6.09882">
        <ele>1292.630127</ele>
        <time>2011-08-28T10:23:08Z</time>
      </trkpt>
      <trkpt lat="44.25417" lon="6.09909">
        <ele>1289.265137</ele>
        <time>2011-08-28T10:23:16Z</time>
      </trkpt>
      <trkpt lat="44.25412" lon="6.09936">
        <ele>1285.900635</ele>
        <time>2011-08-28T10:23:23Z</time>
      </trkpt>
      <trkpt lat="44.25402" lon="6.09957">
        <ele>1283.497314</ele>
        <time>2011-08-28T10:23:29Z</time>
      </trkpt>
      <trkpt lat="44.25389" lon="6.09975">
        <ele>1279.6521</ele>
        <time>2011-08-28T10:23:35Z</time>
      </trkpt>
      <trkpt lat="44.25387" lon="6.0998">
        <ele>1279.6521</ele>
        <time>2011-08-28T10:23:36Z</time>
      </trkpt>
      <trkpt lat="44.25369" lon="6.10002">
        <ele>1278.690918</ele>
        <time>2011-08-28T10:23:46Z</time>
      </trkpt>
      <trkpt lat="44.25361" lon="6.10006">
        <ele>1277.249023</ele>
        <time>2011-08-28T10:23:51Z</time>
      </trkpt>
      <trkpt lat="44.2536" lon="6.10006">
        <ele>1277.249023</ele>
        <time>2011-08-28T10:24:01Z</time>
      </trkpt>
      <trkpt lat="44.25358" lon="6.10007">
        <ele>1276.287598</ele>
        <time>2011-08-28T10:26:25Z</time>
      </trkpt>
      <trkpt lat="44.25324" lon="6.10024">
        <ele>1275.325928</ele>
        <time>2011-08-28T10:26:36Z</time>
      </trkpt>
      <trkpt lat="44.25275" lon="6.10027">
        <ele>1274.845459</ele>
        <time>2011-08-28T10:26:49Z</time>
      </trkpt>
      <trkpt lat="44.25229" lon="6.1003">
        <ele>1272.922852</ele>
        <time>2011-08-28T10:27:02Z</time>
      </trkpt>
      <trkpt lat="44.25214" lon="6.10027">
        <ele>1271.000244</ele>
        <time>2011-08-28T10:27:06Z</time>
      </trkpt>
      <trkpt lat="44.25202" lon="6.10027">
        <ele>1269.55835</ele>
        <time>2011-08-28T10:27:09Z</time>
      </trkpt>
      <trkpt lat="44.25166" lon="6.10051">
        <ele>1267.155029</ele>
        <time>2011-08-28T10:27:20Z</time>
      </trkpt>
      <trkpt lat="44.25162" lon="6.10053">
        <ele>1266.674316</ele>
        <time>2011-08-28T10:27:21Z</time>
      </trkpt>
      <trkpt lat="44.25144" lon="6.10062">
        <ele>1264.751709</ele>
        <time>2011-08-28T10:27:25Z</time>
      </trkpt>
      <trkpt lat="44.25136" lon="6.10067">
        <ele>1263.790283</ele>
        <time>2011-08-28T10:27:27Z</time>
      </trkpt>
      <trkpt lat="44.25116" lon="6.10079">
        <ele>1261.387207</ele>
        <time>2011-08-28T10:27:32Z</time>
      </trkpt>
      <trkpt lat="44.25087" lon="6.10106">
        <ele>1258.50293</ele>
        <time>2011-08-28T10:27:39Z</time>
      </trkpt>
      <trkpt lat="44.2507" lon="6.10125">
        <ele>1256.580322</ele>
        <time>2011-08-28T10:27:43Z</time>
      </trkpt>
      <trkpt lat="44.25045" lon="6.10175">
        <ele>1252.254395</ele>
        <time>2011-08-28T10:27:51Z</time>
      </trkpt>
      <trkpt lat="44.25041" lon="6.10181">
        <ele>1251.293213</ele>
        <time>2011-08-28T10:27:52Z</time>
      </trkpt>
      <trkpt lat="44.25032" lon="6.10196">
        <ele>1250.332031</ele>
        <time>2011-08-28T10:27:55Z</time>
      </trkpt>
      <trkpt lat="44.2501" lon="6.10202">
        <ele>1247.928711</ele>
        <time>2011-08-28T10:28:00Z</time>
      </trkpt>
      <trkpt lat="44.2498" lon="6.10209">
        <ele>1244.083496</ele>
        <time>2011-08-28T10:28:10Z</time>
      </trkpt>
      <trkpt lat="44.2498" lon="6.10209">
        <ele>1243.602539</ele>
        <time>2011-08-28T10:28:29Z</time>
      </trkpt>
      <trkpt lat="44.2498" lon="6.10209">
        <ele>1244.083496</ele>
        <time>2011-08-28T10:28:33Z</time>
      </trkpt>
      <trkpt lat="44.24958" lon="6.10202">
        <ele>1243.121826</ele>
        <time>2011-08-28T10:28:41Z</time>
      </trkpt>
      <trkpt lat="44.24945" lon="6.10196">
        <ele>1241.679932</ele>
        <time>2011-08-28T10:28:44Z</time>
      </trkpt>
      <trkpt lat="44.2491" lon="6.10177">
        <ele>1238.796143</ele>
        <time>2011-08-28T10:28:53Z</time>
      </trkpt>
      <trkpt lat="44.24886" lon="6.10167">
        <ele>1237.354004</ele>
        <time>2011-08-28T10:29:00Z</time>
      </trkpt>
      <trkpt lat="44.24852" lon="6.10167">
        <ele>1233.989502</ele>
        <time>2011-08-28T10:29:07Z</time>
      </trkpt>
      <trkpt lat="44.24822" lon="6.10168">
        <ele>1230.625</ele>
        <time>2011-08-28T10:29:12Z</time>
      </trkpt>
      <trkpt lat="44.24815" lon="6.10169">
        <ele>1229.663574</ele>
        <time>2011-08-28T10:29:14Z</time>
      </trkpt>
      <trkpt lat="44.24765" lon="6.10171">
        <ele>1226.298828</ele>
        <time>2011-08-28T10:29:24Z</time>
      </trkpt>
      <trkpt lat="44.24736" lon="6.10172">
        <ele>1223.895508</ele>
        <time>2011-08-28T10:29:28Z</time>
      </trkpt>
      <trkpt lat="44.24694" lon="6.10173">
        <ele>1221.9729</ele>
        <time>2011-08-28T10:29:35Z</time>
      </trkpt>
      <trkpt lat="44.24665" lon="6.10175">
        <ele>1223.895508</ele>
        <time>2011-08-28T10:29:41Z</time>
      </trkpt>
      <trkpt lat="44.24662" lon="6.10175">
        <ele>1224.376221</ele>
        <time>2011-08-28T10:29:42Z</time>
      </trkpt>
      <trkpt lat="44.24654" lon="6.10156">
        <ele>1222.934326</ele>
        <time>2011-08-28T10:29:47Z</time>
      </trkpt>
      <trkpt lat="44.24656" lon="6.10146">
        <ele>1221.011719</ele>
        <time>2011-08-28T10:29:50Z</time>
      </trkpt>
      <trkpt lat="44.24657" lon="6.10142">
        <ele>1221.011719</ele>
        <time>2011-08-28T10:29:51Z</time>
      </trkpt>
      <trkpt lat="44.24658" lon="6.10128">
        <ele>1222.453613</ele>
        <time>2011-08-28T10:29:55Z</time>
      </trkpt>
      <trkpt lat="44.24659" lon="6.10117">
        <ele>1221.9729</ele>
        <time>2011-08-28T10:29:58Z</time>
      </trkpt>
      <trkpt lat="44.24665" lon="6.10053">
        <ele>1222.453613</ele>
        <time>2011-08-28T10:30:13Z</time>
      </trkpt>
      <trkpt lat="44.2467" lon="6.10036">
        <ele>1221.011719</ele>
        <time>2011-08-28T10:30:16Z</time>
      </trkpt>
      <trkpt lat="44.24672" lon="6.1003">
        <ele>1221.492188</ele>
        <time>2011-08-28T10:30:17Z</time>
      </trkpt>
      <trkpt lat="44.24677" lon="6.1002">
        <ele>1220.531006</ele>
        <time>2011-08-28T10:30:19Z</time>
      </trkpt>
      <trkpt lat="44.24707" lon="6.09963">
        <ele>1221.011719</ele>
        <time>2011-08-28T10:30:34Z</time>
      </trkpt>
      <trkpt lat="44.24709" lon="6.09953">
        <ele>1222.453613</ele>
        <time>2011-08-28T10:30:37Z</time>
      </trkpt>
      <trkpt lat="44.24692" lon="6.09898">
        <ele>1222.934326</ele>
        <time>2011-08-28T10:30:54Z</time>
      </trkpt>
      <trkpt lat="44.24682" lon="6.09847">
        <ele>1224.376221</ele>
        <time>2011-08-28T10:31:14Z</time>
      </trkpt>
      <trkpt lat="44.24682" lon="6.09842">
        <ele>1224.376221</ele>
        <time>2011-08-28T10:31:16Z</time>
      </trkpt>
      <trkpt lat="44.24681" lon="6.09833">
        <ele>1226.779541</ele>
        <time>2011-08-28T10:31:19Z</time>
      </trkpt>
      <trkpt lat="44.24678" lon="6.09775">
        <ele>1229.182861</ele>
        <time>2011-08-28T10:31:41Z</time>
      </trkpt>
      <trkpt lat="44.24674" lon="6.09718">
        <ele>1231.586182</ele>
        <time>2011-08-28T10:32:04Z</time>
      </trkpt>
      <trkpt lat="44.24665" lon="6.09669">
        <ele>1232.547607</ele>
        <time>2011-08-28T10:32:21Z</time>
      </trkpt>
      <trkpt lat="44.24659" lon="6.09643">
        <ele>1233.989502</ele>
        <time>2011-08-28T10:32:39Z</time>
      </trkpt>
      <trkpt lat="44.24659" lon="6.09643">
        <ele>1234.470215</ele>
        <time>2011-08-28T10:33:25Z</time>
      </trkpt>
      <trkpt lat="44.24659" lon="6.09643">
        <ele>1234.470215</ele>
        <time>2011-08-28T10:33:36Z</time>
      </trkpt>
      <trkpt lat="44.24659" lon="6.09643">
        <ele>1231.586182</ele>
        <time>2011-08-28T10:33:53Z</time>
      </trkpt>
      <trkpt lat="44.24659" lon="6.09643">
        <ele>1230.625</ele>
        <time>2011-08-28T10:34:14Z</time>
      </trkpt>
      <trkpt lat="44.24659" lon="6.09643">
        <ele>1230.625</ele>
        <time>2011-08-28T10:36:12Z</time>
      </trkpt>
      <trkpt lat="44.24659" lon="6.09643">
        <ele>1233.989502</ele>
        <time>2011-08-28T10:36:30Z</time>
      </trkpt>
      <trkpt lat="44.24659" lon="6.09643">
        <ele>1234.470215</ele>
        <time>2011-08-28T10:36:48Z</time>
      </trkpt>
      <trkpt lat="44.24659" lon="6.09643">
        <ele>1234.470215</ele>
        <time>2011-08-28T10:37:18Z</time>
      </trkpt>
      <trkpt lat="44.24659" lon="6.09643">
        <ele>1234.470215</ele>
        <time>2011-08-28T10:37:24Z</time>
      </trkpt>
      <trkpt lat="44.24666" lon="6.09595">
        <ele>1235.912109</ele>
        <time>2011-08-28T10:37:40Z</time>
      </trkpt>
      <trkpt lat="44.24684" lon="6.09539">
        <ele>1236.873291</ele>
        <time>2011-08-28T10:37:59Z</time>
      </trkpt>
      <trkpt lat="44.24671" lon="6.09498">
        <ele>1237.834717</ele>
        <time>2011-08-28T10:38:13Z</time>
      </trkpt>
      <trkpt lat="44.24639" lon="6.09454">
        <ele>1239.276611</ele>
        <time>2011-08-28T10:38:31Z</time>
      </trkpt>
      <trkpt lat="44.24602" lon="6.09406">
        <ele>1239.276611</ele>
        <time>2011-08-28T10:38:48Z</time>
      </trkpt>
      <trkpt lat="44.24586" lon="6.09384">
        <ele>1238.796143</ele>
        <time>2011-08-28T10:38:54Z</time>
      </trkpt>
      <trkpt lat="44.24527" lon="6.09296">
        <ele>1235.912109</ele>
        <time>2011-08-28T10:39:12Z</time>
      </trkpt>
      <trkpt lat="44.24462" lon="6.09182">
        <ele>1233.989502</ele>
        <time>2011-08-28T10:39:30Z</time>
      </trkpt>
      <trkpt lat="44.24405" lon="6.09098">
        <ele>1230.625</ele>
        <time>2011-08-28T10:39:45Z</time>
      </trkpt>
      <trkpt lat="44.24403" lon="6.09042">
        <ele>1229.663574</ele>
        <time>2011-08-28T10:39:54Z</time>
      </trkpt>
      <trkpt lat="44.24405" lon="6.09036">
        <ele>1229.663574</ele>
        <time>2011-08-28T10:39:55Z</time>
      </trkpt>
      <trkpt lat="44.24411" lon="6.09023">
        <ele>1229.182861</ele>
        <time>2011-08-28T10:39:57Z</time>
      </trkpt>
      <trkpt lat="44.24419" lon="6.08998">
        <ele>1227.260254</ele>
        <time>2011-08-28T10:40:02Z</time>
      </trkpt>
      <trkpt lat="44.24421" lon="6.08993">
        <ele>1226.298828</ele>
        <time>2011-08-28T10:40:03Z</time>
      </trkpt>
      <trkpt lat="44.24422" lon="6.08974">
        <ele>1226.298828</ele>
        <time>2011-08-28T10:40:06Z</time>
      </trkpt>
      <trkpt lat="44.24422" lon="6.08947">
        <ele>1223.415039</ele>
        <time>2011-08-28T10:40:09Z</time>
      </trkpt>
      <trkpt lat="44.24422" lon="6.08939">
        <ele>1223.415039</ele>
        <time>2011-08-28T10:40:10Z</time>
      </trkpt>
      <trkpt lat="44.24432" lon="6.08878">
        <ele>1221.492188</ele>
        <time>2011-08-28T10:40:17Z</time>
      </trkpt>
      <trkpt lat="44.24443" lon="6.08854">
        <ele>1220.531006</ele>
        <time>2011-08-28T10:40:20Z</time>
      </trkpt>
      <trkpt lat="44.24456" lon="6.08832">
        <ele>1220.050293</ele>
        <time>2011-08-28T10:40:23Z</time>
      </trkpt>
      <trkpt lat="44.24459" lon="6.08763">
        <ele>1219.089111</ele>
        <time>2011-08-28T10:40:31Z</time>
      </trkpt>
      <trkpt lat="44.24443" lon="6.08727">
        <ele>1215.724609</ele>
        <time>2011-08-28T10:40:35Z</time>
      </trkpt>
      <trkpt lat="44.24438" lon="6.08707">
        <ele>1214.763184</ele>
        <time>2011-08-28T10:40:37Z</time>
      </trkpt>
      <trkpt lat="44.24414" lon="6.08609">
        <ele>1212.359863</ele>
        <time>2011-08-28T10:40:46Z</time>
      </trkpt>
      <trkpt lat="44.24408" lon="6.08587">
        <ele>1209.47583</ele>
        <time>2011-08-28T10:40:48Z</time>
      </trkpt>
      <trkpt lat="44.24412" lon="6.08522">
        <ele>1209.47583</ele>
        <time>2011-08-28T10:40:54Z</time>
      </trkpt>
      <trkpt lat="44.24418" lon="6.08502">
        <ele>1209.47583</ele>
        <time>2011-08-28T10:40:56Z</time>
      </trkpt>
      <trkpt lat="44.2442" lon="6.08482">
        <ele>1208.033936</ele>
        <time>2011-08-28T10:40:58Z</time>
      </trkpt>
      <trkpt lat="44.24413" lon="6.0843">
        <ele>1209.956299</ele>
        <time>2011-08-28T10:41:05Z</time>
      </trkpt>
      <trkpt lat="44.24393" lon="6.08375">
        <ele>1209.956299</ele>
        <time>2011-08-28T10:41:19Z</time>
      </trkpt>
      <trkpt lat="44.24359" lon="6.08355">
        <ele>1211.398438</ele>
        <time>2011-08-28T10:41:32Z</time>
      </trkpt>
      <trkpt lat="44.24328" lon="6.08313">
        <ele>1210.437012</ele>
        <time>2011-08-28T10:41:46Z</time>
      </trkpt>
      <trkpt lat="44.24291" lon="6.08282">
        <ele>1213.321289</ele>
        <time>2011-08-28T10:42:04Z</time>
      </trkpt>
      <trkpt lat="44.24264" lon="6.08246">
        <ele>1213.801758</ele>
        <time>2011-08-28T10:42:18Z</time>
      </trkpt>
      <trkpt lat="44.24247" lon="6.08183">
        <ele>1213.801758</ele>
        <time>2011-08-28T10:42:33Z</time>
      </trkpt>
      <trkpt lat="44.24216" lon="6.08145">
        <ele>1213.801758</ele>
        <time>2011-08-28T10:42:44Z</time>
      </trkpt>
      <trkpt lat="44.24196" lon="6.08147">
        <ele>1210.437012</ele>
        <time>2011-08-28T10:42:54Z</time>
      </trkpt>
      <trkpt lat="44.24196" lon="6.08146">
        <ele>1211.398438</ele>
        <time>2011-08-28T10:42:55Z</time>
      </trkpt>
      <trkpt lat="44.24194" lon="6.08145">
        <ele>1211.398438</ele>
        <time>2011-08-28T10:42:56Z</time>
      </trkpt>
      <trkpt lat="44.24176" lon="6.08168">
        <ele>1213.321289</ele>
        <time>2011-08-28T10:43:05Z</time>
      </trkpt>
      <trkpt lat="44.24176" lon="6.08168">
        <ele>1212.840576</ele>
        <time>2011-08-28T10:43:33Z</time>
      </trkpt>
      <trkpt lat="44.24195" lon="6.08133">
        <ele>1212.359863</ele>
        <time>2011-08-28T10:43:44Z</time>
      </trkpt>
      <trkpt lat="44.242" lon="6.08115">
        <ele>1211.398438</ele>
        <time>2011-08-28T10:43:47Z</time>
      </trkpt>
      <trkpt lat="44.24201" lon="6.0811">
        <ele>1210.917725</ele>
        <time>2011-08-28T10:43:49Z</time>
      </trkpt>
      <trkpt lat="44.24205" lon="6.08104">
        <ele>1209.956299</ele>
        <time>2011-08-28T10:43:51Z</time>
      </trkpt>
      <trkpt lat="44.24209" lon="6.08093">
        <ele>1208.514404</ele>
        <time>2011-08-28T10:43:53Z</time>
      </trkpt>
      <trkpt lat="44.24233" lon="6.08077">
        <ele>1205.630615</ele>
        <time>2011-08-28T10:44:00Z</time>
      </trkpt>
      <trkpt lat="44.24241" lon="6.08074">
        <ele>1205.630615</ele>
        <time>2011-08-28T10:44:01Z</time>
      </trkpt>
      <trkpt lat="44.24203" lon="6.07947">
        <ele>1206.111084</ele>
        <time>2011-08-28T10:44:14Z</time>
      </trkpt>
      <trkpt lat="44.24176" lon="6.07932">
        <ele>1197.940186</ele>
        <time>2011-08-28T10:44:19Z</time>
      </trkpt>
      <trkpt lat="44.24168" lon="6.07927">
        <ele>1197.940186</ele>
        <time>2011-08-28T10:44:21Z</time>
      </trkpt>
      <trkpt lat="44.24157" lon="6.07915">
        <ele>1195.536621</ele>
        <time>2011-08-28T10:44:24Z</time>
      </trkpt>
      <trkpt lat="44.24156" lon="6.07887">
        <ele>1194.094727</ele>
        <time>2011-08-28T10:44:28Z</time>
      </trkpt>
      <trkpt lat="44.2416" lon="6.07875">
        <ele>1194.094727</ele>
        <time>2011-08-28T10:44:30Z</time>
      </trkpt>
      <trkpt lat="44.24176" lon="6.07832">
        <ele>1192.172119</ele>
        <time>2011-08-28T10:44:37Z</time>
      </trkpt>
      <trkpt lat="44.24186" lon="6.07772">
        <ele>1188.326904</ele>
        <time>2011-08-28T10:44:45Z</time>
      </trkpt>
      <trkpt lat="44.24186" lon="6.07763">
        <ele>1187.365479</ele>
        <time>2011-08-28T10:44:47Z</time>
      </trkpt>
      <trkpt lat="44.24186" lon="6.07756">
        <ele>1186.884766</ele>
        <time>2011-08-28T10:44:58Z</time>
      </trkpt>
      <trkpt lat="44.24186" lon="6.07756">
        <ele>1186.884766</ele>
        <time>2011-08-28T10:45:02Z</time>
      </trkpt>
      <trkpt lat="44.24187" lon="6.07709">
        <ele>1184.962402</ele>
        <time>2011-08-28T10:45:12Z</time>
      </trkpt>
      <trkpt lat="44.24199" lon="6.07607">
        <ele>1181.597656</ele>
        <time>2011-08-28T10:45:22Z</time>
      </trkpt>
      <trkpt lat="44.24205" lon="6.0757">
        <ele>1179.674805</ele>
        <time>2011-08-28T10:45:25Z</time>
      </trkpt>
      <trkpt lat="44.24205" lon="6.07557">
        <ele>1179.674805</ele>
        <time>2011-08-28T10:45:26Z</time>
      </trkpt>
      <trkpt lat="44.24205" lon="6.07486">
        <ele>1176.791016</ele>
        <time>2011-08-28T10:45:31Z</time>
      </trkpt>
      <trkpt lat="44.24206" lon="6.07456">
        <ele>1174.868408</ele>
        <time>2011-08-28T10:45:33Z</time>
      </trkpt>
      <trkpt lat="44.2421" lon="6.07395">
        <ele>1171.984375</ele>
        <time>2011-08-28T10:45:37Z</time>
      </trkpt>
      <trkpt lat="44.24212" lon="6.07324">
        <ele>1166.216553</ele>
        <time>2011-08-28T10:45:42Z</time>
      </trkpt>
      <trkpt lat="44.24213" lon="6.07311">
        <ele>1166.697266</ele>
        <time>2011-08-28T10:45:43Z</time>
      </trkpt>
      <trkpt lat="44.24213" lon="6.07274">
        <ele>1166.697266</ele>
        <time>2011-08-28T10:45:46Z</time>
      </trkpt>
      <trkpt lat="44.24199" lon="6.07214">
        <ele>1162.371094</ele>
        <time>2011-08-28T10:45:52Z</time>
      </trkpt>
      <trkpt lat="44.24192" lon="6.07197">
        <ele>1161.890625</ele>
        <time>2011-08-28T10:45:54Z</time>
      </trkpt>
      <trkpt lat="44.24169" lon="6.07114">
        <ele>1160.929199</ele>
        <time>2011-08-28T10:46:03Z</time>
      </trkpt>
      <trkpt lat="44.24169" lon="6.07094">
        <ele>1159.967773</ele>
        <time>2011-08-28T10:46:05Z</time>
      </trkpt>
      <trkpt lat="44.24176" lon="6.07049">
        <ele>1159.006592</ele>
        <time>2011-08-28T10:46:10Z</time>
      </trkpt>
      <trkpt lat="44.24207" lon="6.06903">
        <ele>1157.564697</ele>
        <time>2011-08-28T10:46:29Z</time>
      </trkpt>
      <trkpt lat="44.24243" lon="6.0684">
        <ele>1156.603271</ele>
        <time>2011-08-28T10:46:42Z</time>
      </trkpt>
      <trkpt lat="44.24262" lon="6.06815">
        <ele>1156.122559</ele>
        <time>2011-08-28T10:46:48Z</time>
      </trkpt>
      <trkpt lat="44.24269" lon="6.06796">
        <ele>1158.04541</ele>
        <time>2011-08-28T10:46:52Z</time>
      </trkpt>
      <trkpt lat="44.24278" lon="6.06734">
        <ele>1158.04541</ele>
        <time>2011-08-28T10:47:08Z</time>
      </trkpt>
      <trkpt lat="44.24287" lon="6.0669">
        <ele>1160.448486</ele>
        <time>2011-08-28T10:47:25Z</time>
      </trkpt>
      <trkpt lat="44.24278" lon="6.06722">
        <ele>1161.890625</ele>
        <time>2011-08-28T10:47:36Z</time>
      </trkpt>
      <trkpt lat="44.24291" lon="6.0666">
        <ele>1162.851807</ele>
        <time>2011-08-28T10:47:40Z</time>
      </trkpt>
      <trkpt lat="44.24302" lon="6.06659">
        <ele>1161.890625</ele>
        <time>2011-08-28T10:47:44Z</time>
      </trkpt>
      <trkpt lat="44.24324" lon="6.06659">
        <ele>1165.736084</ele>
        <time>2011-08-28T10:48:03Z</time>
      </trkpt>
      <trkpt lat="44.24334" lon="6.06658">
        <ele>1168.13916</ele>
        <time>2011-08-28T10:48:22Z</time>
      </trkpt>
      <trkpt lat="44.24334" lon="6.06658">
        <ele>1169.100586</ele>
        <time>2011-08-28T10:48:24Z</time>
      </trkpt>
      <trkpt lat="44.24334" lon="6.06658">
        <ele>1171.984375</ele>
        <time>2011-08-28T10:48:46Z</time>
      </trkpt>
      <trkpt lat="44.24334" lon="6.06658">
        <ele>1175.348877</ele>
        <time>2011-08-28T10:49:05Z</time>
      </trkpt>
      <trkpt lat="44.24397" lon="6.06653">
        <ele>1178.23291</ele>
        <time>2011-08-28T10:49:23Z</time>
      </trkpt>
      <trkpt lat="44.24397" lon="6.06653">
        <ele>1181.597656</ele>
        <time>2011-08-28T10:49:39Z</time>
      </trkpt>
      <trkpt lat="44.24397" lon="6.06653">
        <ele>1184.000977</ele>
        <time>2011-08-28T10:49:54Z</time>
      </trkpt>
      <trkpt lat="44.24397" lon="6.06653">
        <ele>1184.481689</ele>
        <time>2011-08-28T10:50:01Z</time>
      </trkpt>
      <trkpt lat="44.24448" lon="6.06617">
        <ele>1187.365479</ele>
        <time>2011-08-28T10:50:20Z</time>
      </trkpt>
      <trkpt lat="44.24458" lon="6.0658">
        <ele>1189.288086</ele>
        <time>2011-08-28T10:50:41Z</time>
      </trkpt>
      <trkpt lat="44.24461" lon="6.06577">
        <ele>1189.288086</ele>
        <time>2011-08-28T10:50:43Z</time>
      </trkpt>
      <trkpt lat="44.24474" lon="6.0656">
        <ele>1192.652832</ele>
        <time>2011-08-28T10:51:07Z</time>
      </trkpt>
      <trkpt lat="44.24488" lon="6.06551">
        <ele>1193.614014</ele>
        <time>2011-08-28T10:51:20Z</time>
      </trkpt>
      <trkpt lat="44.24503" lon="6.06544">
        <ele>1194.575195</ele>
        <time>2011-08-28T10:51:25Z</time>
      </trkpt>
      <trkpt lat="44.24514" lon="6.06541">
        <ele>1197.459473</ele>
        <time>2011-08-28T10:51:46Z</time>
      </trkpt>
      <trkpt lat="44.24555" lon="6.06525">
        <ele>1200.823975</ele>
        <time>2011-08-28T10:52:12Z</time>
      </trkpt>
      <trkpt lat="44.24567" lon="6.06515">
        <ele>1202.265869</ele>
        <time>2011-08-28T10:52:24Z</time>
      </trkpt>
      <trkpt lat="44.24569" lon="6.06512">
        <ele>1202.746582</ele>
        <time>2011-08-28T10:52:29Z</time>
      </trkpt>
      <trkpt lat="44.24572" lon="6.06505">
        <ele>1203.708008</ele>
        <time>2011-08-28T10:52:34Z</time>
      </trkpt>
      <trkpt lat="44.24575" lon="6.06494">
        <ele>1203.708008</ele>
        <time>2011-08-28T10:52:37Z</time>
      </trkpt>
      <trkpt lat="44.24576" lon="6.06494">
        <ele>1203.708008</ele>
        <time>2011-08-28T10:52:41Z</time>
      </trkpt>
      <trkpt lat="44.24584" lon="6.06493">
        <ele>1204.669189</ele>
        <time>2011-08-28T10:52:45Z</time>
      </trkpt>
      <trkpt lat="44.24585" lon="6.06506">
        <ele>1205.149902</ele>
        <time>2011-08-28T10:52:53Z</time>
      </trkpt>
      <trkpt lat="44.24572" lon="6.06546">
        <ele>1206.591797</ele>
        <time>2011-08-28T10:53:16Z</time>
      </trkpt>
      <trkpt lat="44.24573" lon="6.06552">
        <ele>1207.07251</ele>
        <time>2011-08-28T10:53:19Z</time>
      </trkpt>
      <trkpt lat="44.24568" lon="6.06594">
        <ele>1209.956299</ele>
        <time>2011-08-28T10:53:44Z</time>
      </trkpt>
      <trkpt lat="44.24547" lon="6.0661">
        <ele>1212.840576</ele>
        <time>2011-08-28T10:54:04Z</time>
      </trkpt>
      <trkpt lat="44.24542" lon="6.06618">
        <ele>1213.321289</ele>
        <time>2011-08-28T10:54:10Z</time>
      </trkpt>
      <trkpt lat="44.24543" lon="6.06627">
        <ele>1213.321289</ele>
        <time>2011-08-28T10:54:14Z</time>
      </trkpt>
      <trkpt lat="44.24545" lon="6.0663">
        <ele>1213.801758</ele>
        <time>2011-08-28T10:54:16Z</time>
      </trkpt>
      <trkpt lat="44.2457" lon="6.06621">
        <ele>1215.724609</ele>
        <time>2011-08-28T10:54:35Z</time>
      </trkpt>
      <trkpt lat="44.24591" lon="6.06609">
        <ele>1216.685791</ele>
        <time>2011-08-28T10:54:51Z</time>
      </trkpt>
      <trkpt lat="44.24594" lon="6.06605">
        <ele>1217.166504</ele>
        <time>2011-08-28T10:54:54Z</time>
      </trkpt>
      <trkpt lat="44.24614" lon="6.06574">
        <ele>1220.050293</ele>
        <time>2011-08-28T10:55:18Z</time>
      </trkpt>
      <trkpt lat="44.24632" lon="6.06563">
        <ele>1222.453613</ele>
        <time>2011-08-28T10:55:36Z</time>
      </trkpt>
      <trkpt lat="44.24632" lon="6.06563">
        <ele>1225.818115</ele>
        <time>2011-08-28T10:55:59Z</time>
      </trkpt>
      <trkpt lat="44.24666" lon="6.0653">
        <ele>1228.702393</ele>
        <time>2011-08-28T10:56:20Z</time>
      </trkpt>
      <trkpt lat="44.24693" lon="6.06509">
        <ele>1232.066895</ele>
        <time>2011-08-28T10:56:43Z</time>
      </trkpt>
      <trkpt lat="44.24715" lon="6.06496">
        <ele>1233.989502</ele>
        <time>2011-08-28T10:57:05Z</time>
      </trkpt>
      <trkpt lat="44.24715" lon="6.06496">
        <ele>1233.989502</ele>
        <time>2011-08-28T10:57:08Z</time>
      </trkpt>
      <trkpt lat="44.24726" lon="6.06488">
        <ele>1234.950928</ele>
        <time>2011-08-28T10:57:11Z</time>
      </trkpt>
      <trkpt lat="44.24736" lon="6.06481">
        <ele>1236.873291</ele>
        <time>2011-08-28T10:57:28Z</time>
      </trkpt>
      <trkpt lat="44.24749" lon="6.06477">
        <ele>1238.31543</ele>
        <time>2011-08-28T10:57:47Z</time>
      </trkpt>
      <trkpt lat="44.2477" lon="6.06461">
        <ele>1239.757324</ele>
        <time>2011-08-28T10:57:52Z</time>
      </trkpt>
      <trkpt lat="44.24781" lon="6.06457">
        <ele>1240.718506</ele>
        <time>2011-08-28T10:58:05Z</time>
      </trkpt>
      <trkpt lat="44.24782" lon="6.06474">
        <ele>1241.199219</ele>
        <time>2011-08-28T10:58:14Z</time>
      </trkpt>
      <trkpt lat="44.24753" lon="6.06499">
        <ele>1242.641357</ele>
        <time>2011-08-28T10:58:39Z</time>
      </trkpt>
      <trkpt lat="44.24749" lon="6.06504">
        <ele>1244.083496</ele>
        <time>2011-08-28T10:58:43Z</time>
      </trkpt>
      <trkpt lat="44.24736" lon="6.06526">
        <ele>1245.525391</ele>
        <time>2011-08-28T10:59:02Z</time>
      </trkpt>
      <trkpt lat="44.24726" lon="6.06549">
        <ele>1248.889893</ele>
        <time>2011-08-28T10:59:23Z</time>
      </trkpt>
      <trkpt lat="44.24715" lon="6.0658">
        <ele>1250.332031</ele>
        <time>2011-08-28T10:59:37Z</time>
      </trkpt>
      <trkpt lat="44.24714" lon="6.06618">
        <ele>1253.21582</ele>
        <time>2011-08-28T10:59:59Z</time>
      </trkpt>
      <trkpt lat="44.24708" lon="6.06658">
        <ele>1256.099609</ele>
        <time>2011-08-28T11:00:24Z</time>
      </trkpt>
      <trkpt lat="44.24699" lon="6.06691">
        <ele>1258.022461</ele>
        <time>2011-08-28T11:00:45Z</time>
      </trkpt>
      <trkpt lat="44.24688" lon="6.06724">
        <ele>1259.944824</ele>
        <time>2011-08-28T11:01:07Z</time>
      </trkpt>
      <trkpt lat="44.24686" lon="6.06728">
        <ele>1260.425781</ele>
        <time>2011-08-28T11:01:10Z</time>
      </trkpt>
      <trkpt lat="44.24664" lon="6.06751">
        <ele>1263.309814</ele>
        <time>2011-08-28T11:01:32Z</time>
      </trkpt>
      <trkpt lat="44.24648" lon="6.06777">
        <ele>1266.193604</ele>
        <time>2011-08-28T11:01:52Z</time>
      </trkpt>
      <trkpt lat="44.24648" lon="6.06777">
        <ele>1266.193604</ele>
        <time>2011-08-28T11:01:57Z</time>
      </trkpt>
      <trkpt lat="44.2463" lon="6.06808">
        <ele>1269.077637</ele>
        <time>2011-08-28T11:02:16Z</time>
      </trkpt>
      <trkpt lat="44.24611" lon="6.0684">
        <ele>1272.442139</ele>
        <time>2011-08-28T11:02:40Z</time>
      </trkpt>
      <trkpt lat="44.24596" lon="6.06864">
        <ele>1274.364746</ele>
        <time>2011-08-28T11:03:04Z</time>
      </trkpt>
      <trkpt lat="44.24573" lon="6.06882">
        <ele>1276.768311</ele>
        <time>2011-08-28T11:03:22Z</time>
      </trkpt>
      <trkpt lat="44.24572" lon="6.06888">
        <ele>1276.768311</ele>
        <time>2011-08-28T11:03:27Z</time>
      </trkpt>
      <trkpt lat="44.24576" lon="6.06913">
        <ele>1278.690918</ele>
        <time>2011-08-28T11:03:41Z</time>
      </trkpt>
      <trkpt lat="44.24576" lon="6.06913">
        <ele>1279.171387</ele>
        <time>2011-08-28T11:03:43Z</time>
      </trkpt>
      <trkpt lat="44.24585" lon="6.06929">
        <ele>1280.132813</ele>
        <time>2011-08-28T11:03:52Z</time>
      </trkpt>
      <trkpt lat="44.24593" lon="6.06934">
        <ele>1280.613525</ele>
        <time>2011-08-28T11:03:58Z</time>
      </trkpt>
      <trkpt lat="44.24619" lon="6.06928">
        <ele>1283.016602</ele>
        <time>2011-08-28T11:04:20Z</time>
      </trkpt>
      <trkpt lat="44.24639" lon="6.06916">
        <ele>1284.939453</ele>
        <time>2011-08-28T11:04:40Z</time>
      </trkpt>
      <trkpt lat="44.24652" lon="6.06887">
        <ele>1287.342529</ele>
        <time>2011-08-28T11:04:59Z</time>
      </trkpt>
      <trkpt lat="44.24671" lon="6.06856">
        <ele>1289.74585</ele>
        <time>2011-08-28T11:05:25Z</time>
      </trkpt>
      <trkpt lat="44.24674" lon="6.06855">
        <ele>1290.226563</ele>
        <time>2011-08-28T11:05:27Z</time>
      </trkpt>
      <trkpt lat="44.24679" lon="6.06851">
        <ele>1290.707031</ele>
        <time>2011-08-28T11:05:33Z</time>
      </trkpt>
      <trkpt lat="44.24688" lon="6.06843">
        <ele>1291.668457</ele>
        <time>2011-08-28T11:05:40Z</time>
      </trkpt>
      <trkpt lat="44.24699" lon="6.06841">
        <ele>1292.630127</ele>
        <time>2011-08-28T11:05:52Z</time>
      </trkpt>
      <trkpt lat="44.24701" lon="6.06847">
        <ele>1292.630127</ele>
        <time>2011-08-28T11:05:57Z</time>
      </trkpt>
      <trkpt lat="44.24688" lon="6.06864">
        <ele>1294.072021</ele>
        <time>2011-08-28T11:06:13Z</time>
      </trkpt>
      <trkpt lat="44.24685" lon="6.06865">
        <ele>1294.072021</ele>
        <time>2011-08-28T11:06:15Z</time>
      </trkpt>
      <trkpt lat="44.24673" lon="6.06902">
        <ele>1295.033203</ele>
        <time>2011-08-28T11:06:37Z</time>
      </trkpt>
      <trkpt lat="44.24664" lon="6.06933">
        <ele>1295.994629</ele>
        <time>2011-08-28T11:06:55Z</time>
      </trkpt>
      <trkpt lat="44.24659" lon="6.06941">
        <ele>1295.994629</ele>
        <time>2011-08-28T11:07:00Z</time>
      </trkpt>
      <trkpt lat="44.24654" lon="6.06947">
        <ele>1296.475342</ele>
        <time>2011-08-28T11:07:05Z</time>
      </trkpt>
      <trkpt lat="44.24631" lon="6.06986">
        <ele>1299.839844</ele>
        <time>2011-08-28T11:07:32Z</time>
      </trkpt>
      <trkpt lat="44.24638" lon="6.07019">
        <ele>1301.281738</ele>
        <time>2011-08-28T11:07:53Z</time>
      </trkpt>
      <trkpt lat="44.2464" lon="6.07047">
        <ele>1303.204346</ele>
        <time>2011-08-28T11:08:11Z</time>
      </trkpt>
      <trkpt lat="44.2463" lon="6.07087">
        <ele>1305.607666</ele>
        <time>2011-08-28T11:08:34Z</time>
      </trkpt>
      <trkpt lat="44.2462" lon="6.07129">
        <ele>1308.01123</ele>
        <time>2011-08-28T11:08:56Z</time>
      </trkpt>
      <trkpt lat="44.24602" lon="6.07164">
        <ele>1310.414307</ele>
        <time>2011-08-28T11:09:17Z</time>
      </trkpt>
      <trkpt lat="44.24601" lon="6.07183">
        <ele>1311.375732</ele>
        <time>2011-08-28T11:09:27Z</time>
      </trkpt>
      <trkpt lat="44.24628" lon="6.07233">
        <ele>1313.778809</ele>
        <time>2011-08-28T11:09:57Z</time>
      </trkpt>
      <trkpt lat="44.24636" lon="6.07255">
        <ele>1314.740234</ele>
        <time>2011-08-28T11:10:11Z</time>
      </trkpt>
      <trkpt lat="44.24633" lon="6.07258">
        <ele>1315.220947</ele>
        <time>2011-08-28T11:10:29Z</time>
      </trkpt>
      <trkpt lat="44.24633" lon="6.07259">
        <ele>1315.220947</ele>
        <time>2011-08-28T11:10:58Z</time>
      </trkpt>
      <trkpt lat="44.24633" lon="6.07259">
        <ele>1311.856445</ele>
        <time>2011-08-28T11:11:00Z</time>
      </trkpt>
      <trkpt lat="44.24633" lon="6.07259">
        <ele>1311.856445</ele>
        <time>2011-08-28T11:11:01Z</time>
      </trkpt>
      <trkpt lat="44.24633" lon="6.07259">
        <ele>1319.066162</ele>
        <time>2011-08-28T11:11:02Z</time>
      </trkpt>
      <trkpt lat="44.24633" lon="6.07259">
        <ele>1315.70166</ele>
        <time>2011-08-28T11:11:03Z</time>
      </trkpt>
      <trkpt lat="44.24633" lon="6.07261">
        <ele>1315.220947</ele>
        <time>2011-08-28T11:11:26Z</time>
      </trkpt>
      <trkpt lat="44.24635" lon="6.07265">
        <ele>1314.259521</ele>
        <time>2011-08-28T11:11:29Z</time>
      </trkpt>
      <trkpt lat="44.24647" lon="6.07262">
        <ele>1314.740234</ele>
        <time>2011-08-28T11:11:37Z</time>
      </trkpt>
      <trkpt lat="44.2465" lon="6.07254">
        <ele>1315.70166</ele>
        <time>2011-08-28T11:11:41Z</time>
      </trkpt>
      <trkpt lat="44.24639" lon="6.07219">
        <ele>1317.624023</ele>
        <time>2011-08-28T11:12:00Z</time>
      </trkpt>
      <trkpt lat="44.24632" lon="6.07186">
        <ele>1317.624023</ele>
        <time>2011-08-28T11:12:17Z</time>
      </trkpt>
      <trkpt lat="44.24633" lon="6.0718">
        <ele>1316.182129</ele>
        <time>2011-08-28T11:12:20Z</time>
      </trkpt>
      <trkpt lat="44.24646" lon="6.07135">
        <ele>1317.624023</ele>
        <time>2011-08-28T11:12:44Z</time>
      </trkpt>
      <trkpt lat="44.24663" lon="6.0712">
        <ele>1320.027344</ele>
        <time>2011-08-28T11:12:59Z</time>
      </trkpt>
      <trkpt lat="44.24692" lon="6.07133">
        <ele>1320.508057</ele>
        <time>2011-08-28T11:13:20Z</time>
      </trkpt>
      <trkpt lat="44.2471" lon="6.07157">
        <ele>1322.430664</ele>
        <time>2011-08-28T11:13:36Z</time>
      </trkpt>
      <trkpt lat="44.24744" lon="6.07163">
        <ele>1323.39209</ele>
        <time>2011-08-28T11:13:58Z</time>
      </trkpt>
      <trkpt lat="44.24776" lon="6.07147">
        <ele>1325.79541</ele>
        <time>2011-08-28T11:14:20Z</time>
      </trkpt>
      <trkpt lat="44.24798" lon="6.07112">
        <ele>1328.679443</ele>
        <time>2011-08-28T11:14:43Z</time>
      </trkpt>
      <trkpt lat="44.24799" lon="6.0707">
        <ele>1330.602051</ele>
        <time>2011-08-28T11:15:03Z</time>
      </trkpt>
      <trkpt lat="44.24798" lon="6.07025">
        <ele>1333.966553</ele>
        <time>2011-08-28T11:15:27Z</time>
      </trkpt>
      <trkpt lat="44.248" lon="6.06977">
        <ele>1336.850342</ele>
        <time>2011-08-28T11:15:49Z</time>
      </trkpt>
      <trkpt lat="44.24822" lon="6.06947">
        <ele>1338.773193</ele>
        <time>2011-08-28T11:16:10Z</time>
      </trkpt>
      <trkpt lat="44.24832" lon="6.06917">
        <ele>1340.215332</ele>
        <time>2011-08-28T11:16:26Z</time>
      </trkpt>
      <trkpt lat="44.24847" lon="6.06878">
        <ele>1342.618652</ele>
        <time>2011-08-28T11:16:50Z</time>
      </trkpt>
      <trkpt lat="44.24868" lon="6.0685">
        <ele>1345.983154</ele>
        <time>2011-08-28T11:17:13Z</time>
      </trkpt>
      <trkpt lat="44.24883" lon="6.0682">
        <ele>1347.905762</ele>
        <time>2011-08-28T11:17:34Z</time>
      </trkpt>
      <trkpt lat="44.24894" lon="6.06784">
        <ele>1350.309082</ele>
        <time>2011-08-28T11:17:56Z</time>
      </trkpt>
      <trkpt lat="44.24901" lon="6.06762">
        <ele>1352.231445</ele>
        <time>2011-08-28T11:18:09Z</time>
      </trkpt>
      <trkpt lat="44.24903" lon="6.06757">
        <ele>1352.712158</ele>
        <time>2011-08-28T11:18:12Z</time>
      </trkpt>
      <trkpt lat="44.24913" lon="6.0672">
        <ele>1353.673584</ele>
        <time>2011-08-28T11:18:35Z</time>
      </trkpt>
      <trkpt lat="44.24913" lon="6.06719">
        <ele>1354.154297</ele>
        <time>2011-08-28T11:18:58Z</time>
      </trkpt>
      <trkpt lat="44.24912" lon="6.06718">
        <ele>1354.154297</ele>
        <time>2011-08-28T11:19:21Z</time>
      </trkpt>
      <trkpt lat="44.24914" lon="6.06717">
        <ele>1354.634766</ele>
        <time>2011-08-28T11:20:27Z</time>
      </trkpt>
      <trkpt lat="44.24917" lon="6.06701">
        <ele>1355.115479</ele>
        <time>2011-08-28T11:20:50Z</time>
      </trkpt>
      <trkpt lat="44.24917" lon="6.06701">
        <ele>1358.480225</ele>
        <time>2011-08-28T11:21:14Z</time>
      </trkpt>
      <trkpt lat="44.24917" lon="6.06701">
        <ele>1358.480225</ele>
        <time>2011-08-28T11:21:15Z</time>
      </trkpt>
      <trkpt lat="44.24917" lon="6.06701">
        <ele>1356.557617</ele>
        <time>2011-08-28T11:21:17Z</time>
      </trkpt>
      <trkpt lat="44.24919" lon="6.06696">
        <ele>1356.557617</ele>
        <time>2011-08-28T11:21:31Z</time>
      </trkpt>
      <trkpt lat="44.24919" lon="6.06695">
        <ele>1355.115479</ele>
        <time>2011-08-28T11:22:03Z</time>
      </trkpt>
      <trkpt lat="44.24919" lon="6.06695">
        <ele>1354.634766</ele>
        <time>2011-08-28T11:22:50Z</time>
      </trkpt>
      <trkpt lat="44.24918" lon="6.06694">
        <ele>1354.634766</ele>
        <time>2011-08-28T11:23:38Z</time>
      </trkpt>
      <trkpt lat="44.2492" lon="6.06693">
        <ele>1354.634766</ele>
        <time>2011-08-28T11:24:18Z</time>
      </trkpt>
      <trkpt lat="44.24922" lon="6.06693">
        <ele>1354.154297</ele>
        <time>2011-08-28T11:24:33Z</time>
      </trkpt>
      <trkpt lat="44.2494" lon="6.06666">
        <ele>1356.076904</ele>
        <time>2011-08-28T11:24:51Z</time>
      </trkpt>
      <trkpt lat="44.24973" lon="6.06648">
        <ele>1357.999756</ele>
        <time>2011-08-28T11:25:18Z</time>
      </trkpt>
      <trkpt lat="44.24995" lon="6.06617">
        <ele>1358.480225</ele>
        <time>2011-08-28T11:25:35Z</time>
      </trkpt>
      <trkpt lat="44.25024" lon="6.06568">
        <ele>1357.999756</ele>
        <time>2011-08-28T11:25:54Z</time>
      </trkpt>
      <trkpt lat="44.25033" lon="6.06564">
        <ele>1357.999756</ele>
        <time>2011-08-28T11:25:58Z</time>
      </trkpt>
      <trkpt lat="44.25043" lon="6.06526">
        <ele>1357.519043</ele>
        <time>2011-08-28T11:26:10Z</time>
      </trkpt>
      <trkpt lat="44.25052" lon="6.0645">
        <ele>1355.596191</ele>
        <time>2011-08-28T11:26:26Z</time>
      </trkpt>
      <trkpt lat="44.25055" lon="6.06438">
        <ele>1353.673584</ele>
        <time>2011-08-28T11:26:29Z</time>
      </trkpt>
      <trkpt lat="44.25061" lon="6.06422">
        <ele>1352.231445</ele>
        <time>2011-08-28T11:26:34Z</time>
      </trkpt>
      <trkpt lat="44.25066" lon="6.06418">
        <ele>1353.673584</ele>
        <time>2011-08-28T11:26:46Z</time>
      </trkpt>
      <trkpt lat="44.25066" lon="6.06418">
        <ele>1352.231445</ele>
        <time>2011-08-28T11:26:50Z</time>
      </trkpt>
      <trkpt lat="44.25066" lon="6.06418">
        <ele>1353.673584</ele>
        <time>2011-08-28T11:26:53Z</time>
      </trkpt>
      <trkpt lat="44.25068" lon="6.06417">
        <ele>1354.154297</ele>
        <time>2011-08-28T11:27:39Z</time>
      </trkpt>
      <trkpt lat="44.25069" lon="6.06416">
        <ele>1353.192871</ele>
        <time>2011-08-28T11:27:49Z</time>
      </trkpt>
      <trkpt lat="44.25087" lon="6.06406">
        <ele>1350.789551</ele>
        <time>2011-08-28T11:27:59Z</time>
      </trkpt>
      <trkpt lat="44.251" lon="6.06399">
        <ele>1349.347656</ele>
        <time>2011-08-28T11:28:05Z</time>
      </trkpt>
      <trkpt lat="44.25111" lon="6.0639">
        <ele>1347.425049</ele>
        <time>2011-08-28T11:28:09Z</time>
      </trkpt>
      <trkpt lat="44.25116" lon="6.06378">
        <ele>1346.944336</ele>
        <time>2011-08-28T11:28:14Z</time>
      </trkpt>
      <trkpt lat="44.2512" lon="6.06364">
        <ele>1344.060547</ele>
        <time>2011-08-28T11:28:18Z</time>
      </trkpt>
      <trkpt lat="44.25134" lon="6.06336">
        <ele>1342.618652</ele>
        <time>2011-08-28T11:28:30Z</time>
      </trkpt>
      <trkpt lat="44.25155" lon="6.06321">
        <ele>1340.695801</ele>
        <time>2011-08-28T11:28:37Z</time>
      </trkpt>
      <trkpt lat="44.25191" lon="6.06304">
        <ele>1337.331055</ele>
        <time>2011-08-28T11:28:48Z</time>
      </trkpt>
      <trkpt lat="44.25194" lon="6.06303">
        <ele>1337.331055</ele>
        <time>2011-08-28T11:28:49Z</time>
      </trkpt>
      <trkpt lat="44.2521" lon="6.06296">
        <ele>1335.88916</ele>
        <time>2011-08-28T11:28:55Z</time>
      </trkpt>
      <trkpt lat="44.25197" lon="6.06289">
        <ele>1335.88916</ele>
        <time>2011-08-28T11:29:07Z</time>
      </trkpt>
      <trkpt lat="44.25198" lon="6.06287">
        <ele>1334.927979</ele>
        <time>2011-08-28T11:29:19Z</time>
      </trkpt>
      <trkpt lat="44.25202" lon="6.06284">
        <ele>1335.408447</ele>
        <time>2011-08-28T11:29:23Z</time>
      </trkpt>
      <trkpt lat="44.25214" lon="6.06271">
        <ele>1333.005127</ele>
        <time>2011-08-28T11:29:28Z</time>
      </trkpt>
      <trkpt lat="44.25246" lon="6.06262">
        <ele>1329.640625</ele>
        <time>2011-08-28T11:29:38Z</time>
      </trkpt>
      <trkpt lat="44.2525" lon="6.06261">
        <ele>1329.159912</ele>
        <time>2011-08-28T11:29:40Z</time>
      </trkpt>
      <trkpt lat="44.25275" lon="6.06258">
        <ele>1325.79541</ele>
        <time>2011-08-28T11:29:45Z</time>
      </trkpt>
      <trkpt lat="44.2529" lon="6.06255">
        <ele>1326.276123</ele>
        <time>2011-08-28T11:29:49Z</time>
      </trkpt>
      <trkpt lat="44.25296" lon="6.0625">
        <ele>1328.19873</ele>
        <time>2011-08-28T11:29:51Z</time>
      </trkpt>
      <trkpt lat="44.25307" lon="6.06246">
        <ele>1322.911377</ele>
        <time>2011-08-28T11:29:55Z</time>
      </trkpt>
      <trkpt lat="44.25311" lon="6.06246">
        <ele>1322.911377</ele>
        <time>2011-08-28T11:29:56Z</time>
      </trkpt>
      <trkpt lat="44.25318" lon="6.06244">
        <ele>1325.79541</ele>
        <time>2011-08-28T11:29:58Z</time>
      </trkpt>
      <trkpt lat="44.25327" lon="6.0624">
        <ele>1322.911377</ele>
        <time>2011-08-28T11:30:00Z</time>
      </trkpt>
      <trkpt lat="44.25342" lon="6.06237">
        <ele>1320.027344</ele>
        <time>2011-08-28T11:30:04Z</time>
      </trkpt>
      <trkpt lat="44.25345" lon="6.06235">
        <ele>1320.027344</ele>
        <time>2011-08-28T11:30:05Z</time>
      </trkpt>
      <trkpt lat="44.25385" lon="6.06206">
        <ele>1318.104736</ele>
        <time>2011-08-28T11:30:18Z</time>
      </trkpt>
      <trkpt lat="44.25398" lon="6.06198">
        <ele>1316.662842</ele>
        <time>2011-08-28T11:30:21Z</time>
      </trkpt>
      <trkpt lat="44.25412" lon="6.06191">
        <ele>1315.220947</ele>
        <time>2011-08-28T11:30:25Z</time>
      </trkpt>
      <trkpt lat="44.25421" lon="6.06181">
        <ele>1313.778809</ele>
        <time>2011-08-28T11:30:28Z</time>
      </trkpt>
      <trkpt lat="44.25424" lon="6.06161">
        <ele>1312.336914</ele>
        <time>2011-08-28T11:30:31Z</time>
      </trkpt>
      <trkpt lat="44.25452" lon="6.06113">
        <ele>1309.453125</ele>
        <time>2011-08-28T11:30:43Z</time>
      </trkpt>
      <trkpt lat="44.25467" lon="6.06102">
        <ele>1307.530273</ele>
        <time>2011-08-28T11:30:50Z</time>
      </trkpt>
      <trkpt lat="44.25479" lon="6.061">
        <ele>1306.088135</ele>
        <time>2011-08-28T11:30:54Z</time>
      </trkpt>
      <trkpt lat="44.2551" lon="6.06102">
        <ele>1303.685059</ele>
        <time>2011-08-28T11:31:05Z</time>
      </trkpt>
      <trkpt lat="44.25516" lon="6.06095">
        <ele>1303.204346</ele>
        <time>2011-08-28T11:31:07Z</time>
      </trkpt>
      <trkpt lat="44.25514" lon="6.06085">
        <ele>1302.723633</ele>
        <time>2011-08-28T11:31:11Z</time>
      </trkpt>
      <trkpt lat="44.25487" lon="6.06079">
        <ele>1300.801025</ele>
        <time>2011-08-28T11:31:21Z</time>
      </trkpt>
      <trkpt lat="44.25457" lon="6.06079">
        <ele>1297.436523</ele>
        <time>2011-08-28T11:31:32Z</time>
      </trkpt>
      <trkpt lat="44.25436" lon="6.06089">
        <ele>1295.513916</ele>
        <time>2011-08-28T11:31:38Z</time>
      </trkpt>
      <trkpt lat="44.25416" lon="6.06105">
        <ele>1293.110596</ele>
        <time>2011-08-28T11:31:45Z</time>
      </trkpt>
      <trkpt lat="44.25401" lon="6.06113">
        <ele>1291.668457</ele>
        <time>2011-08-28T11:31:48Z</time>
      </trkpt>
      <trkpt lat="44.25384" lon="6.06108">
        <ele>1290.226563</ele>
        <time>2011-08-28T11:31:53Z</time>
      </trkpt>
      <trkpt lat="44.25355" lon="6.06073">
        <ele>1286.861816</ele>
        <time>2011-08-28T11:32:05Z</time>
      </trkpt>
      <trkpt lat="44.25353" lon="6.06073">
        <ele>1286.861816</ele>
        <time>2011-08-28T11:32:06Z</time>
      </trkpt>
      <trkpt lat="44.25344" lon="6.06071">
        <ele>1285.419922</ele>
        <time>2011-08-28T11:32:15Z</time>
      </trkpt>
      <trkpt lat="44.25313" lon="6.06052">
        <ele>1283.497314</ele>
        <time>2011-08-28T11:32:25Z</time>
      </trkpt>
      <trkpt lat="44.25299" lon="6.06048">
        <ele>1282.05542</ele>
        <time>2011-08-28T11:32:29Z</time>
      </trkpt>
      <trkpt lat="44.25274" lon="6.06058">
        <ele>1280.613525</ele>
        <time>2011-08-28T11:32:36Z</time>
      </trkpt>
      <trkpt lat="44.25269" lon="6.06035">
        <ele>1278.690918</ele>
        <time>2011-08-28T11:32:44Z</time>
      </trkpt>
      <trkpt lat="44.25297" lon="6.06001">
        <ele>1274.845459</ele>
        <time>2011-08-28T11:32:53Z</time>
      </trkpt>
      <trkpt lat="44.253" lon="6.05998">
        <ele>1274.845459</ele>
        <time>2011-08-28T11:32:54Z</time>
      </trkpt>
      <trkpt lat="44.25316" lon="6.05979">
        <ele>1271.480713</ele>
        <time>2011-08-28T11:33:00Z</time>
      </trkpt>
      <trkpt lat="44.25319" lon="6.05977">
        <ele>1271.480713</ele>
        <time>2011-08-28T11:33:01Z</time>
      </trkpt>
      <trkpt lat="44.25323" lon="6.05973">
        <ele>1271.000244</ele>
        <time>2011-08-28T11:33:02Z</time>
      </trkpt>
      <trkpt lat="44.25361" lon="6.05949">
        <ele>1267.155029</ele>
        <time>2011-08-28T11:33:14Z</time>
      </trkpt>
      <trkpt lat="44.25378" lon="6.05935">
        <ele>1265.713135</ele>
        <time>2011-08-28T11:33:20Z</time>
      </trkpt>
      <trkpt lat="44.25407" lon="6.05904">
        <ele>1261.86792</ele>
        <time>2011-08-28T11:33:30Z</time>
      </trkpt>
      <trkpt lat="44.25425" lon="6.059">
        <ele>1260.425781</ele>
        <time>2011-08-28T11:33:36Z</time>
      </trkpt>
      <trkpt lat="44.25457" lon="6.05926">
        <ele>1257.061035</ele>
        <time>2011-08-28T11:33:48Z</time>
      </trkpt>
      <trkpt lat="44.25463" lon="6.05926">
        <ele>1256.099609</ele>
        <time>2011-08-28T11:33:50Z</time>
      </trkpt>
      <trkpt lat="44.25485" lon="6.05917">
        <ele>1252.735107</ele>
        <time>2011-08-28T11:33:58Z</time>
      </trkpt>
      <trkpt lat="44.255" lon="6.05896">
        <ele>1250.332031</ele>
        <time>2011-08-28T11:34:04Z</time>
      </trkpt>
      <trkpt lat="44.25512" lon="6.05872">
        <ele>1248.40918</ele>
        <time>2011-08-28T11:34:11Z</time>
      </trkpt>
      <trkpt lat="44.25532" lon="6.05844">
        <ele>1244.563965</ele>
        <time>2011-08-28T11:34:19Z</time>
      </trkpt>
      <trkpt lat="44.25535" lon="6.05841">
        <ele>1244.563965</ele>
        <time>2011-08-28T11:34:20Z</time>
      </trkpt>
      <trkpt lat="44.25542" lon="6.05835">
        <ele>1244.563965</ele>
        <time>2011-08-28T11:34:22Z</time>
      </trkpt>
      <trkpt lat="44.25582" lon="6.05841">
        <ele>1239.757324</ele>
        <time>2011-08-28T11:34:33Z</time>
      </trkpt>
      <trkpt lat="44.25585" lon="6.05841">
        <ele>1239.757324</ele>
        <time>2011-08-28T11:34:34Z</time>
      </trkpt>
      <trkpt lat="44.25612" lon="6.05849">
        <ele>1236.873291</ele>
        <time>2011-08-28T11:34:44Z</time>
      </trkpt>
      <trkpt lat="44.25658" lon="6.05847">
        <ele>1235.431396</ele>
        <time>2011-08-28T11:34:56Z</time>
      </trkpt>
      <trkpt lat="44.25699" lon="6.05849">
        <ele>1233.508789</ele>
        <time>2011-08-28T11:35:11Z</time>
      </trkpt>
      <trkpt lat="44.2573" lon="6.05857">
        <ele>1230.625</ele>
        <time>2011-08-28T11:35:23Z</time>
      </trkpt>
      <trkpt lat="44.25733" lon="6.05853">
        <ele>1229.663574</ele>
        <time>2011-08-28T11:35:26Z</time>
      </trkpt>
      <trkpt lat="44.25731" lon="6.05845">
        <ele>1229.663574</ele>
        <time>2011-08-28T11:35:31Z</time>
      </trkpt>
      <trkpt lat="44.25697" lon="6.05835">
        <ele>1227.740723</ele>
        <time>2011-08-28T11:35:44Z</time>
      </trkpt>
      <trkpt lat="44.25686" lon="6.05831">
        <ele>1226.298828</ele>
        <time>2011-08-28T11:35:48Z</time>
      </trkpt>
      <trkpt lat="44.25657" lon="6.05819">
        <ele>1222.934326</ele>
        <time>2011-08-28T11:35:58Z</time>
      </trkpt>
      <trkpt lat="44.25643" lon="6.05811">
        <ele>1221.492188</ele>
        <time>2011-08-28T11:36:02Z</time>
      </trkpt>
      <trkpt lat="44.2563" lon="6.058">
        <ele>1219.569824</ele>
        <time>2011-08-28T11:36:07Z</time>
      </trkpt>
      <trkpt lat="44.25617" lon="6.05798">
        <ele>1218.127686</ele>
        <time>2011-08-28T11:36:13Z</time>
      </trkpt>
      <trkpt lat="44.25601" lon="6.0578">
        <ele>1214.763184</ele>
        <time>2011-08-28T11:36:21Z</time>
      </trkpt>
      <trkpt lat="44.25597" lon="6.05773">
        <ele>1213.801758</ele>
        <time>2011-08-28T11:36:23Z</time>
      </trkpt>
      <trkpt lat="44.25581" lon="6.05737">
        <ele>1211.87915</ele>
        <time>2011-08-28T11:36:31Z</time>
      </trkpt>
      <trkpt lat="44.25571" lon="6.05725">
        <ele>1210.437012</ele>
        <time>2011-08-28T11:36:34Z</time>
      </trkpt>
      <trkpt lat="44.25566" lon="6.05725">
        <ele>1210.437012</ele>
        <time>2011-08-28T11:36:35Z</time>
      </trkpt>
      <trkpt lat="44.25552" lon="6.05727">
        <ele>1208.033936</ele>
        <time>2011-08-28T11:36:39Z</time>
      </trkpt>
      <trkpt lat="44.25538" lon="6.05729">
        <ele>1207.07251</ele>
        <time>2011-08-28T11:36:43Z</time>
      </trkpt>
      <trkpt lat="44.25521" lon="6.05733">
        <ele>1205.630615</ele>
        <time>2011-08-28T11:36:49Z</time>
      </trkpt>
      <trkpt lat="44.25504" lon="6.05722">
        <ele>1203.708008</ele>
        <time>2011-08-28T11:36:55Z</time>
      </trkpt>
      <trkpt lat="44.25501" lon="6.05701">
        <ele>1201.7854</ele>
        <time>2011-08-28T11:37:00Z</time>
      </trkpt>
      <trkpt lat="44.2549" lon="6.05681">
        <ele>1199.38208</ele>
        <time>2011-08-28T11:37:06Z</time>
      </trkpt>
      <trkpt lat="44.25461" lon="6.05686">
        <ele>1196.017578</ele>
        <time>2011-08-28T11:37:15Z</time>
      </trkpt>
      <trkpt lat="44.25457" lon="6.05686">
        <ele>1196.017578</ele>
        <time>2011-08-28T11:37:16Z</time>
      </trkpt>
      <trkpt lat="44.25443" lon="6.05688">
        <ele>1193.614014</ele>
        <time>2011-08-28T11:37:20Z</time>
      </trkpt>
      <trkpt lat="44.25437" lon="6.05688">
        <ele>1193.133301</ele>
        <time>2011-08-28T11:37:21Z</time>
      </trkpt>
      <trkpt lat="44.25428" lon="6.05688">
        <ele>1192.172119</ele>
        <time>2011-08-28T11:37:23Z</time>
      </trkpt>
      <trkpt lat="44.25394" lon="6.05678">
        <ele>1189.288086</ele>
        <time>2011-08-28T11:37:30Z</time>
      </trkpt>
      <trkpt lat="44.2539" lon="6.05677">
        <ele>1188.326904</ele>
        <time>2011-08-28T11:37:31Z</time>
      </trkpt>
      <trkpt lat="44.25377" lon="6.05669">
        <ele>1187.365479</ele>
        <time>2011-08-28T11:37:35Z</time>
      </trkpt>
      <trkpt lat="44.25369" lon="6.05663">
        <ele>1186.404297</ele>
        <time>2011-08-28T11:37:37Z</time>
      </trkpt>
      <trkpt lat="44.25349" lon="6.05648">
        <ele>1184.481689</ele>
        <time>2011-08-28T11:37:45Z</time>
      </trkpt>
      <trkpt lat="44.25348" lon="6.05646">
        <ele>1184.000977</ele>
        <time>2011-08-28T11:37:51Z</time>
      </trkpt>
      <trkpt lat="44.25374" lon="6.05656">
        <ele>1180.636475</ele>
        <time>2011-08-28T11:38:04Z</time>
      </trkpt>
      <trkpt lat="44.25378" lon="6.05659">
        <ele>1179.674805</ele>
        <time>2011-08-28T11:38:06Z</time>
      </trkpt>
      <trkpt lat="44.25391" lon="6.05666">
        <ele>1177.752197</ele>
        <time>2011-08-28T11:38:11Z</time>
      </trkpt>
      <trkpt lat="44.25409" lon="6.05672">
        <ele>1176.310303</ele>
        <time>2011-08-28T11:38:14Z</time>
      </trkpt>
      <trkpt lat="44.25443" lon="6.05661">
        <ele>1172.945801</ele>
        <time>2011-08-28T11:38:24Z</time>
      </trkpt>
      <trkpt lat="44.25475" lon="6.05629">
        <ele>1169.581299</ele>
        <time>2011-08-28T11:38:35Z</time>
      </trkpt>
      <trkpt lat="44.25498" lon="6.05608">
        <ele>1167.177979</ele>
        <time>2011-08-28T11:38:43Z</time>
      </trkpt>
      <trkpt lat="44.25519" lon="6.05603">
        <ele>1164.293945</ele>
        <time>2011-08-28T11:38:51Z</time>
      </trkpt>
      <trkpt lat="44.25538" lon="6.05601">
        <ele>1160.929199</ele>
        <time>2011-08-28T11:38:59Z</time>
      </trkpt>
      <trkpt lat="44.25559" lon="6.05596">
        <ele>1158.525879</ele>
        <time>2011-08-28T11:39:05Z</time>
      </trkpt>
      <trkpt lat="44.25584" lon="6.05589">
        <ele>1155.64209</ele>
        <time>2011-08-28T11:39:11Z</time>
      </trkpt>
      <trkpt lat="44.25585" lon="6.05586">
        <ele>1155.64209</ele>
        <time>2011-08-28T11:39:12Z</time>
      </trkpt>
      <trkpt lat="44.25584" lon="6.05563">
        <ele>1154.200195</ele>
        <time>2011-08-28T11:39:19Z</time>
      </trkpt>
      <trkpt lat="44.25549" lon="6.05573">
        <ele>1152.758057</ele>
        <time>2011-08-28T11:39:32Z</time>
      </trkpt>
      <trkpt lat="44.25517" lon="6.05562">
        <ele>1149.393555</ele>
        <time>2011-08-28T11:39:41Z</time>
      </trkpt>
      <trkpt lat="44.25514" lon="6.0556">
        <ele>1149.393555</ele>
        <time>2011-08-28T11:39:42Z</time>
      </trkpt>
      <trkpt lat="44.25494" lon="6.05543">
        <ele>1146.509521</ele>
        <time>2011-08-28T11:39:48Z</time>
      </trkpt>
      <trkpt lat="44.25491" lon="6.05539">
        <ele>1146.028809</ele>
        <time>2011-08-28T11:39:49Z</time>
      </trkpt>
      <trkpt lat="44.25489" lon="6.05536">
        <ele>1145.548096</ele>
        <time>2011-08-28T11:39:50Z</time>
      </trkpt>
      <trkpt lat="44.25482" lon="6.05527">
        <ele>1144.58667</ele>
        <time>2011-08-28T11:39:52Z</time>
      </trkpt>
      <trkpt lat="44.25468" lon="6.05544">
        <ele>1142.664307</ele>
        <time>2011-08-28T11:40:00Z</time>
      </trkpt>
      <trkpt lat="44.25452" lon="6.05536">
        <ele>1141.222168</ele>
        <time>2011-08-28T11:40:05Z</time>
      </trkpt>
      <trkpt lat="44.2544" lon="6.05506">
        <ele>1138.819092</ele>
        <time>2011-08-28T11:40:12Z</time>
      </trkpt>
      <trkpt lat="44.25428" lon="6.05506">
        <ele>1137.857666</ele>
        <time>2011-08-28T11:40:18Z</time>
      </trkpt>
      <trkpt lat="44.25415" lon="6.05518">
        <ele>1135.935059</ele>
        <time>2011-08-28T11:40:24Z</time>
      </trkpt>
      <trkpt lat="44.25392" lon="6.05526">
        <ele>1132.570557</ele>
        <time>2011-08-28T11:40:33Z</time>
      </trkpt>
      <trkpt lat="44.25392" lon="6.05526">
        <ele>1133.051025</ele>
        <time>2011-08-28T11:40:47Z</time>
      </trkpt>
      <trkpt lat="44.25392" lon="6.05526">
        <ele>1131.608887</ele>
        <time>2011-08-28T11:41:49Z</time>
      </trkpt>
      <trkpt lat="44.25393" lon="6.05526">
        <ele>1131.128418</ele>
        <time>2011-08-28T11:41:54Z</time>
      </trkpt>
      <trkpt lat="44.25429" lon="6.05505">
        <ele>1130.647705</ele>
        <time>2011-08-28T11:42:05Z</time>
      </trkpt>
      <trkpt lat="44.25435" lon="6.05454">
        <ele>1132.089844</ele>
        <time>2011-08-28T11:42:12Z</time>
      </trkpt>
      <trkpt lat="44.25443" lon="6.05454">
        <ele>1130.166992</ele>
        <time>2011-08-28T11:42:14Z</time>
      </trkpt>
      <trkpt lat="44.25463" lon="6.05462">
        <ele>1129.686279</ele>
        <time>2011-08-28T11:42:21Z</time>
      </trkpt>
      <trkpt lat="44.25463" lon="6.05462">
        <ele>1130.647705</ele>
        <time>2011-08-28T11:42:34Z</time>
      </trkpt>
      <trkpt lat="44.25463" lon="6.05462">
        <ele>1128.244385</ele>
        <time>2011-08-28T11:42:50Z</time>
      </trkpt>
      <trkpt lat="44.25481" lon="6.05468">
        <ele>1126.321777</ele>
        <time>2011-08-28T11:42:56Z</time>
      </trkpt>
      <trkpt lat="44.25483" lon="6.05468">
        <ele>1125.841064</ele>
        <time>2011-08-28T11:42:58Z</time>
      </trkpt>
      <trkpt lat="44.25539" lon="6.05443">
        <ele>1125.360352</ele>
        <time>2011-08-28T11:43:11Z</time>
      </trkpt>
      <trkpt lat="44.25557" lon="6.0544">
        <ele>1125.360352</ele>
        <time>2011-08-28T11:43:21Z</time>
      </trkpt>
      <trkpt lat="44.25558" lon="6.0544">
        <ele>1123.437988</ele>
        <time>2011-08-28T11:43:31Z</time>
      </trkpt>
      <trkpt lat="44.25557" lon="6.0544">
        <ele>1124.879883</ele>
        <time>2011-08-28T11:43:50Z</time>
      </trkpt>
      <trkpt lat="44.25556" lon="6.05441">
        <ele>1124.39917</ele>
        <time>2011-08-28T11:45:22Z</time>
      </trkpt>
      <trkpt lat="44.2554" lon="6.05461">
        <ele>1122.957275</ele>
        <time>2011-08-28T11:45:33Z</time>
      </trkpt>
      <trkpt lat="44.25537" lon="6.05469">
        <ele>1122.957275</ele>
        <time>2011-08-28T11:45:37Z</time>
      </trkpt>
      <trkpt lat="44.25503" lon="6.05475">
        <ele>1123.918457</ele>
        <time>2011-08-28T11:45:48Z</time>
      </trkpt>
      <trkpt lat="44.25488" lon="6.05475">
        <ele>1124.879883</ele>
        <time>2011-08-28T11:45:58Z</time>
      </trkpt>
      <trkpt lat="44.25461" lon="6.05461">
        <ele>1126.80249</ele>
        <time>2011-08-28T11:46:10Z</time>
      </trkpt>
      <trkpt lat="44.25435" lon="6.05457">
        <ele>1127.763672</ele>
        <time>2011-08-28T11:46:23Z</time>
      </trkpt>
      <trkpt lat="44.25418" lon="6.05485">
        <ele>1128.244385</ele>
        <time>2011-08-28T11:46:35Z</time>
      </trkpt>
      <trkpt lat="44.25416" lon="6.05491">
        <ele>1128.244385</ele>
        <time>2011-08-28T11:46:37Z</time>
      </trkpt>
      <trkpt lat="44.25412" lon="6.05507">
        <ele>1128.244385</ele>
        <time>2011-08-28T11:46:42Z</time>
      </trkpt>
      <trkpt lat="44.25402" lon="6.05517">
        <ele>1128.725098</ele>
        <time>2011-08-28T11:46:46Z</time>
      </trkpt>
      <trkpt lat="44.25375" lon="6.05531">
        <ele>1128.244385</ele>
        <time>2011-08-28T11:46:55Z</time>
      </trkpt>
      <trkpt lat="44.25368" lon="6.05531">
        <ele>1128.244385</ele>
        <time>2011-08-28T11:46:59Z</time>
      </trkpt>
      <trkpt lat="44.25366" lon="6.05524">
        <ele>1127.763672</ele>
        <time>2011-08-28T11:47:09Z</time>
      </trkpt>
      <trkpt lat="44.25382" lon="6.05505">
        <ele>1124.879883</ele>
        <time>2011-08-28T11:47:17Z</time>
      </trkpt>
      <trkpt lat="44.25389" lon="6.05463">
        <ele>1121.99585</ele>
        <time>2011-08-28T11:47:27Z</time>
      </trkpt>
      <trkpt lat="44.2539" lon="6.05433">
        <ele>1118.631348</ele>
        <time>2011-08-28T11:47:33Z</time>
      </trkpt>
      <trkpt lat="44.25396" lon="6.05408">
        <ele>1116.228027</ele>
        <time>2011-08-28T11:47:39Z</time>
      </trkpt>
      <trkpt lat="44.2541" lon="6.05386">
        <ele>1112.863281</ele>
        <time>2011-08-28T11:47:45Z</time>
      </trkpt>
      <trkpt lat="44.25413" lon="6.05383">
        <ele>1112.863281</ele>
        <time>2011-08-28T11:47:46Z</time>
      </trkpt>
      <trkpt lat="44.25429" lon="6.05373">
        <ele>1109.498779</ele>
        <time>2011-08-28T11:47:52Z</time>
      </trkpt>
      <trkpt lat="44.25432" lon="6.05373">
        <ele>1109.498779</ele>
        <time>2011-08-28T11:47:53Z</time>
      </trkpt>
      <trkpt lat="44.25443" lon="6.05375">
        <ele>1108.056885</ele>
        <time>2011-08-28T11:47:57Z</time>
      </trkpt>
      <trkpt lat="44.25455" lon="6.05375">
        <ele>1104.692139</ele>
        <time>2011-08-28T11:48:01Z</time>
      </trkpt>
      <trkpt lat="44.25458" lon="6.05375">
        <ele>1104.692139</ele>
        <time>2011-08-28T11:48:02Z</time>
      </trkpt>
      <trkpt lat="44.25464" lon="6.05375">
        <ele>1103.250244</ele>
        <time>2011-08-28T11:48:04Z</time>
      </trkpt>
      <trkpt lat="44.2548" lon="6.05372">
        <ele>1100.846924</ele>
        <time>2011-08-28T11:48:09Z</time>
      </trkpt>
      <trkpt lat="44.25498" lon="6.05364">
        <ele>1097.962891</ele>
        <time>2011-08-28T11:48:15Z</time>
      </trkpt>
      <trkpt lat="44.25501" lon="6.05363">
        <ele>1097.962891</ele>
        <time>2011-08-28T11:48:16Z</time>
      </trkpt>
      <trkpt lat="44.25521" lon="6.05357">
        <ele>1095.078857</ele>
        <time>2011-08-28T11:48:23Z</time>
      </trkpt>
      <trkpt lat="44.2554" lon="6.05344">
        <ele>1091.714355</ele>
        <time>2011-08-28T11:48:29Z</time>
      </trkpt>
      <trkpt lat="44.25542" lon="6.05342">
        <ele>1091.714355</ele>
        <time>2011-08-28T11:48:30Z</time>
      </trkpt>
      <trkpt lat="44.25552" lon="6.05338">
        <ele>1090.272461</ele>
        <time>2011-08-28T11:48:34Z</time>
      </trkpt>
      <trkpt lat="44.25576" lon="6.05322">
        <ele>1085.946533</ele>
        <time>2011-08-28T11:48:42Z</time>
      </trkpt>
      <trkpt lat="44.25593" lon="6.05317">
        <ele>1084.504639</ele>
        <time>2011-08-28T11:48:46Z</time>
      </trkpt>
      <trkpt lat="44.25601" lon="6.05311">
        <ele>1083.062256</ele>
        <time>2011-08-28T11:48:48Z</time>
      </trkpt>
      <trkpt lat="44.25622" lon="6.05304">
        <ele>1081.139893</ele>
        <time>2011-08-28T11:48:53Z</time>
      </trkpt>
      <trkpt lat="44.25626" lon="6.05298">
        <ele>1080.65918</ele>
        <time>2011-08-28T11:48:55Z</time>
      </trkpt>
      <trkpt lat="44.25621" lon="6.05294">
        <ele>1078.255859</ele>
        <time>2011-08-28T11:49:06Z</time>
      </trkpt>
      <trkpt lat="44.2562" lon="6.05294">
        <ele>1078.255859</ele>
        <time>2011-08-28T11:49:07Z</time>
      </trkpt>
      <trkpt lat="44.25613" lon="6.05299">
        <ele>1077.294678</ele>
        <time>2011-08-28T11:49:10Z</time>
      </trkpt>
      <trkpt lat="44.25581" lon="6.05294">
        <ele>1073.929932</ele>
        <time>2011-08-28T11:49:19Z</time>
      </trkpt>
      <trkpt lat="44.25532" lon="6.05267">
        <ele>1071.046143</ele>
        <time>2011-08-28T11:49:31Z</time>
      </trkpt>
      <trkpt lat="44.25516" lon="6.0524">
        <ele>1067.681152</ele>
        <time>2011-08-28T11:49:38Z</time>
      </trkpt>
      <trkpt lat="44.25492" lon="6.05195">
        <ele>1064.797363</ele>
        <time>2011-08-28T11:49:49Z</time>
      </trkpt>
      <trkpt lat="44.25463" lon="6.05186">
        <ele>1063.835938</ele>
        <time>2011-08-28T11:50:00Z</time>
      </trkpt>
      <trkpt lat="44.25463" lon="6.0517">
        <ele>1061.432861</ele>
        <time>2011-08-28T11:50:08Z</time>
      </trkpt>
      <trkpt lat="44.25483" lon="6.05163">
        <ele>1058.548828</ele>
        <time>2011-08-28T11:50:17Z</time>
      </trkpt>
      <trkpt lat="44.25494" lon="6.05161">
        <ele>1056.626221</ele>
        <time>2011-08-28T11:50:21Z</time>
      </trkpt>
      <trkpt lat="44.25495" lon="6.05161">
        <ele>1056.145508</ele>
        <time>2011-08-28T11:50:22Z</time>
      </trkpt>
      <trkpt lat="44.25495" lon="6.05146">
        <ele>1054.703613</ele>
        <time>2011-08-28T11:50:30Z</time>
      </trkpt>
      <trkpt lat="44.25471" lon="6.05136">
        <ele>1051.338867</ele>
        <time>2011-08-28T11:50:40Z</time>
      </trkpt>
      <trkpt lat="44.25469" lon="6.05134">
        <ele>1050.858154</ele>
        <time>2011-08-28T11:50:41Z</time>
      </trkpt>
      <trkpt lat="44.25476" lon="6.05123">
        <ele>1048.935547</ele>
        <time>2011-08-28T11:50:50Z</time>
      </trkpt>
      <trkpt lat="44.255" lon="6.05125">
        <ele>1046.532471</ele>
        <time>2011-08-28T11:50:58Z</time>
      </trkpt>
      <trkpt lat="44.25526" lon="6.0513">
        <ele>1043.167725</ele>
        <time>2011-08-28T11:51:08Z</time>
      </trkpt>
      <trkpt lat="44.25557" lon="6.05127">
        <ele>1040.283936</ele>
        <time>2011-08-28T11:51:18Z</time>
      </trkpt>
      <trkpt lat="44.25575" lon="6.05142">
        <ele>1036.919189</ele>
        <time>2011-08-28T11:51:25Z</time>
      </trkpt>
      <trkpt lat="44.25578" lon="6.05144">
        <ele>1036.919189</ele>
        <time>2011-08-28T11:51:26Z</time>
      </trkpt>
      <trkpt lat="44.25596" lon="6.05151">
        <ele>1033.554443</ele>
        <time>2011-08-28T11:51:32Z</time>
      </trkpt>
      <trkpt lat="44.25601" lon="6.05152">
        <ele>1033.554443</ele>
        <time>2011-08-28T11:51:33Z</time>
      </trkpt>
      <trkpt lat="44.25622" lon="6.05157">
        <ele>1029.709229</ele>
        <time>2011-08-28T11:51:41Z</time>
      </trkpt>
      <trkpt lat="44.25626" lon="6.05156">
        <ele>1029.709229</ele>
        <time>2011-08-28T11:51:42Z</time>
      </trkpt>
      <trkpt lat="44.25646" lon="6.05157">
        <ele>1026.825439</ele>
        <time>2011-08-28T11:51:48Z</time>
      </trkpt>
      <trkpt lat="44.25649" lon="6.05157">
        <ele>1026.825439</ele>
        <time>2011-08-28T11:51:49Z</time>
      </trkpt>
      <trkpt lat="44.25678" lon="6.05165">
        <ele>1023.941406</ele>
        <time>2011-08-28T11:51:58Z</time>
      </trkpt>
      <trkpt lat="44.25701" lon="6.05155">
        <ele>1021.057617</ele>
        <time>2011-08-28T11:52:06Z</time>
      </trkpt>
      <trkpt lat="44.25728" lon="6.05154">
        <ele>1017.212158</ele>
        <time>2011-08-28T11:52:16Z</time>
      </trkpt>
      <trkpt lat="44.2573" lon="6.05153">
        <ele>1017.212158</ele>
        <time>2011-08-28T11:52:17Z</time>
      </trkpt>
      <trkpt lat="44.25756" lon="6.05147">
        <ele>1013.847412</ele>
        <time>2011-08-28T11:52:25Z</time>
      </trkpt>
      <trkpt lat="44.25777" lon="6.05137">
        <ele>1011.444336</ele>
        <time>2011-08-28T11:52:33Z</time>
      </trkpt>
      <trkpt lat="44.25798" lon="6.05137">
        <ele>1008.079834</ele>
        <time>2011-08-28T11:52:43Z</time>
      </trkpt>
      <trkpt lat="44.25817" lon="6.0514">
        <ele>1006.637695</ele>
        <time>2011-08-28T11:52:49Z</time>
      </trkpt>
      <trkpt lat="44.2583" lon="6.0513">
        <ele>1004.715088</ele>
        <time>2011-08-28T11:52:54Z</time>
      </trkpt>
      <trkpt lat="44.25858" lon="6.05118">
        <ele>1001.350342</ele>
        <time>2011-08-28T11:53:02Z</time>
      </trkpt>
      <trkpt lat="44.25862" lon="6.05116">
        <ele>1001.350342</ele>
        <time>2011-08-28T11:53:03Z</time>
      </trkpt>
      <trkpt lat="44.25882" lon="6.05096">
        <ele>998.466309</ele>
        <time>2011-08-28T11:53:09Z</time>
      </trkpt>
      <trkpt lat="44.25885" lon="6.05093">
        <ele>998.466309</ele>
        <time>2011-08-28T11:53:10Z</time>
      </trkpt>
      <trkpt lat="44.25899" lon="6.05068">
        <ele>995.101807</ele>
        <time>2011-08-28T11:53:16Z</time>
      </trkpt>
      <trkpt lat="44.25925" lon="6.05032">
        <ele>993.179199</ele>
        <time>2011-08-28T11:53:29Z</time>
      </trkpt>
      <trkpt lat="44.25943" lon="6.05026">
        <ele>990.775879</ele>
        <time>2011-08-28T11:53:37Z</time>
      </trkpt>
      <trkpt lat="44.25965" lon="6.05019">
        <ele>987.891846</ele>
        <time>2011-08-28T11:53:53Z</time>
      </trkpt>
      <trkpt lat="44.2598" lon="6.05016">
        <ele>987.411133</ele>
        <time>2011-08-28T11:54:26Z</time>
      </trkpt>
      <trkpt lat="44.25994" lon="6.0502">
        <ele>985.488525</ele>
        <time>2011-08-28T11:54:29Z</time>
      </trkpt>
      <trkpt lat="44.26006" lon="6.05027">
        <ele>984.527344</ele>
        <time>2011-08-28T11:54:33Z</time>
      </trkpt>
      <trkpt lat="44.26009" lon="6.05034">
        <ele>982.604736</ele>
        <time>2011-08-28T11:54:35Z</time>
      </trkpt>
      <trkpt lat="44.26019" lon="6.05053">
        <ele>980.682129</ele>
        <time>2011-08-28T11:54:40Z</time>
      </trkpt>
      <trkpt lat="44.26024" lon="6.05063">
        <ele>980.201416</ele>
        <time>2011-08-28T11:54:42Z</time>
      </trkpt>
      <trkpt lat="44.26033" lon="6.0507">
        <ele>977.798096</ele>
        <time>2011-08-28T11:54:45Z</time>
      </trkpt>
      <trkpt lat="44.26038" lon="6.05065">
        <ele>976.836914</ele>
        <time>2011-08-28T11:54:50Z</time>
      </trkpt>
      <trkpt lat="44.26038" lon="6.05061">
        <ele>976.836914</ele>
        <time>2011-08-28T11:54:52Z</time>
      </trkpt>
      <trkpt lat="44.26034" lon="6.05053">
        <ele>976.836914</ele>
        <time>2011-08-28T11:54:57Z</time>
      </trkpt>
      <trkpt lat="44.26007" lon="6.04977">
        <ele>973.472412</ele>
        <time>2011-08-28T11:55:12Z</time>
      </trkpt>
      <trkpt lat="44.26004" lon="6.04967">
        <ele>972.030273</ele>
        <time>2011-08-28T11:55:14Z</time>
      </trkpt>
      <trkpt lat="44.26002" lon="6.04949">
        <ele>971.068848</ele>
        <time>2011-08-28T11:55:19Z</time>
      </trkpt>
      <trkpt lat="44.2601" lon="6.04947">
        <ele>970.588135</ele>
        <time>2011-08-28T11:55:26Z</time>
      </trkpt>
      <trkpt lat="44.26011" lon="6.04954">
        <ele>971.068848</ele>
        <time>2011-08-28T11:55:28Z</time>
      </trkpt>
      <trkpt lat="44.2602" lon="6.0498">
        <ele>969.14624</ele>
        <time>2011-08-28T11:55:35Z</time>
      </trkpt>
      <trkpt lat="44.2606" lon="6.05023">
        <ele>966.262207</ele>
        <time>2011-08-28T11:55:48Z</time>
      </trkpt>
      <trkpt lat="44.26069" lon="6.05028">
        <ele>965.781738</ele>
        <time>2011-08-28T11:55:50Z</time>
      </trkpt>
      <trkpt lat="44.26076" lon="6.05034">
        <ele>965.301025</ele>
        <time>2011-08-28T11:55:52Z</time>
      </trkpt>
      <trkpt lat="44.26087" lon="6.05036">
        <ele>964.3396</ele>
        <time>2011-08-28T11:55:57Z</time>
      </trkpt>
      <trkpt lat="44.26082" lon="6.05025">
        <ele>963.378418</ele>
        <time>2011-08-28T11:56:02Z</time>
      </trkpt>
      <trkpt lat="44.26062" lon="6.05008">
        <ele>961.455811</ele>
        <time>2011-08-28T11:56:09Z</time>
      </trkpt>
      <trkpt lat="44.26048" lon="6.04979">
        <ele>960.494385</ele>
        <time>2011-08-28T11:56:15Z</time>
      </trkpt>
      <trkpt lat="44.26046" lon="6.04958">
        <ele>959.533203</ele>
        <time>2011-08-28T11:56:18Z</time>
      </trkpt>
      <trkpt lat="44.26054" lon="6.04884">
        <ele>957.610596</ele>
        <time>2011-08-28T11:56:30Z</time>
      </trkpt>
      <trkpt lat="44.26061" lon="6.04868">
        <ele>957.129883</ele>
        <time>2011-08-28T11:56:38Z</time>
      </trkpt>
      <trkpt lat="44.26065" lon="6.04873">
        <ele>956.168457</ele>
        <time>2011-08-28T11:56:42Z</time>
      </trkpt>
      <trkpt lat="44.26065" lon="6.04906">
        <ele>954.24585</ele>
        <time>2011-08-28T11:56:49Z</time>
      </trkpt>
      <trkpt lat="44.26069" lon="6.04949">
        <ele>951.361816</ele>
        <time>2011-08-28T11:56:56Z</time>
      </trkpt>
      <trkpt lat="44.26074" lon="6.04958">
        <ele>951.361816</ele>
        <time>2011-08-28T11:56:57Z</time>
      </trkpt>
      <trkpt lat="44.2608" lon="6.04964">
        <ele>950.400635</ele>
        <time>2011-08-28T11:56:59Z</time>
      </trkpt>
      <trkpt lat="44.26108" lon="6.04982">
        <ele>947.035889</ele>
        <time>2011-08-28T11:57:10Z</time>
      </trkpt>
      <trkpt lat="44.26126" lon="6.04977">
        <ele>944.632568</ele>
        <time>2011-08-28T11:57:20Z</time>
      </trkpt>
      <trkpt lat="44.2614" lon="6.0497">
        <ele>942.229492</ele>
        <time>2011-08-28T11:57:24Z</time>
      </trkpt>
      <trkpt lat="44.26148" lon="6.04966">
        <ele>940.306885</ele>
        <time>2011-08-28T11:57:27Z</time>
      </trkpt>
      <trkpt lat="44.26164" lon="6.04957">
        <ele>937.422607</ele>
        <time>2011-08-28T11:57:32Z</time>
      </trkpt>
      <trkpt lat="44.26167" lon="6.04955">
        <ele>936.461426</ele>
        <time>2011-08-28T11:57:33Z</time>
      </trkpt>
      <trkpt lat="44.26188" lon="6.04942">
        <ele>934.538818</ele>
        <time>2011-08-28T11:57:39Z</time>
      </trkpt>
      <trkpt lat="44.26195" lon="6.04937">
        <ele>933.09668</ele>
        <time>2011-08-28T11:57:41Z</time>
      </trkpt>
      <trkpt lat="44.26206" lon="6.04927">
        <ele>931.654785</ele>
        <time>2011-08-28T11:57:45Z</time>
      </trkpt>
      <trkpt lat="44.26212" lon="6.04917">
        <ele>930.212891</ele>
        <time>2011-08-28T11:57:48Z</time>
      </trkpt>
      <trkpt lat="44.26216" lon="6.04899">
        <ele>927.329102</ele>
        <time>2011-08-28T11:57:55Z</time>
      </trkpt>
      <trkpt lat="44.26208" lon="6.04878">
        <ele>923.483643</ele>
        <time>2011-08-28T11:58:01Z</time>
      </trkpt>
      <trkpt lat="44.26221" lon="6.04849">
        <ele>921.080322</ele>
        <time>2011-08-28T11:58:11Z</time>
      </trkpt>
      <trkpt lat="44.26223" lon="6.04849">
        <ele>920.599609</ele>
        <time>2011-08-28T11:58:12Z</time>
      </trkpt>
      <trkpt lat="44.26234" lon="6.04847">
        <ele>918.196289</ele>
        <time>2011-08-28T11:58:15Z</time>
      </trkpt>
      <trkpt lat="44.26257" lon="6.04847">
        <ele>915.793213</ele>
        <time>2011-08-28T11:58:22Z</time>
      </trkpt>
      <trkpt lat="44.26268" lon="6.04845">
        <ele>914.351074</ele>
        <time>2011-08-28T11:58:25Z</time>
      </trkpt>
      <trkpt lat="44.26289" lon="6.04832">
        <ele>910.986572</ele>
        <time>2011-08-28T11:58:30Z</time>
      </trkpt>
      <trkpt lat="44.26297" lon="6.04827">
        <ele>910.025146</ele>
        <time>2011-08-28T11:58:32Z</time>
      </trkpt>
      <trkpt lat="44.26316" lon="6.04819">
        <ele>906.6604</ele>
        <time>2011-08-28T11:58:38Z</time>
      </trkpt>
      <trkpt lat="44.26317" lon="6.04819">
        <ele>906.6604</ele>
        <time>2011-08-28T11:58:39Z</time>
      </trkpt>
      <trkpt lat="44.26319" lon="6.0482">
        <ele>905.699219</ele>
        <time>2011-08-28T11:58:40Z</time>
      </trkpt>
      <trkpt lat="44.26323" lon="6.04825">
        <ele>904.737793</ele>
        <time>2011-08-28T11:58:44Z</time>
      </trkpt>
      <trkpt lat="44.26322" lon="6.0484">
        <ele>904.257324</ele>
        <time>2011-08-28T11:58:48Z</time>
      </trkpt>
      <trkpt lat="44.26319" lon="6.04855">
        <ele>902.815186</ele>
        <time>2011-08-28T11:58:52Z</time>
      </trkpt>
      <trkpt lat="44.2633" lon="6.04869">
        <ele>901.373291</ele>
        <time>2011-08-28T11:58:55Z</time>
      </trkpt>
      <trkpt lat="44.26328" lon="6.04874">
        <ele>900.892578</ele>
        <time>2011-08-28T11:58:56Z</time>
      </trkpt>
      <trkpt lat="44.26327" lon="6.0489">
        <ele>899.931396</ele>
        <time>2011-08-28T11:59:00Z</time>
      </trkpt>
      <trkpt lat="44.26351" lon="6.04875">
        <ele>898.489258</ele>
        <time>2011-08-28T11:59:14Z</time>
      </trkpt>
      <trkpt lat="44.26391" lon="6.04845">
        <ele>894.644043</ele>
        <time>2011-08-28T11:59:26Z</time>
      </trkpt>
      <trkpt lat="44.26399" lon="6.04837">
        <ele>893.202148</ele>
        <time>2011-08-28T11:59:30Z</time>
      </trkpt>
      <trkpt lat="44.26422" lon="6.04834">
        <ele>889.837402</ele>
        <time>2011-08-28T11:59:37Z</time>
      </trkpt>
      <trkpt lat="44.26429" lon="6.04834">
        <ele>889.356689</ele>
        <time>2011-08-28T11:59:39Z</time>
      </trkpt>
      <trkpt lat="44.26446" lon="6.04836">
        <ele>886.953369</ele>
        <time>2011-08-28T11:59:44Z</time>
      </trkpt>
      <trkpt lat="44.26445" lon="6.04817">
        <ele>883.588867</ele>
        <time>2011-08-28T11:59:54Z</time>
      </trkpt>
      <trkpt lat="44.26438" lon="6.04815">
        <ele>882.146973</ele>
        <time>2011-08-28T11:59:56Z</time>
      </trkpt>
      <trkpt lat="44.26393" lon="6.04807">
        <ele>881.185791</ele>
        <time>2011-08-28T12:00:09Z</time>
      </trkpt>
      <trkpt lat="44.26388" lon="6.04803">
        <ele>880.705078</ele>
        <time>2011-08-28T12:00:11Z</time>
      </trkpt>
      <trkpt lat="44.26397" lon="6.0478">
        <ele>877.821045</ele>
        <time>2011-08-28T12:00:19Z</time>
      </trkpt>
      <trkpt lat="44.264" lon="6.0478">
        <ele>877.821045</ele>
        <time>2011-08-28T12:00:20Z</time>
      </trkpt>
      <trkpt lat="44.26409" lon="6.04782">
        <ele>876.859863</ele>
        <time>2011-08-28T12:00:23Z</time>
      </trkpt>
      <trkpt lat="44.26425" lon="6.04786">
        <ele>873.975586</ele>
        <time>2011-08-28T12:00:30Z</time>
      </trkpt>
      <trkpt lat="44.26445" lon="6.04766">
        <ele>870.611084</ele>
        <time>2011-08-28T12:00:40Z</time>
      </trkpt>
      <trkpt lat="44.26465" lon="6.04728">
        <ele>867.727051</ele>
        <time>2011-08-28T12:00:52Z</time>
      </trkpt>
      <trkpt lat="44.26469" lon="6.04727">
        <ele>867.246582</ele>
        <time>2011-08-28T12:00:54Z</time>
      </trkpt>
      <trkpt lat="44.26497" lon="6.04719">
        <ele>863.881836</ele>
        <time>2011-08-28T12:01:03Z</time>
      </trkpt>
      <trkpt lat="44.26512" lon="6.04714">
        <ele>862.439941</ele>
        <time>2011-08-28T12:01:07Z</time>
      </trkpt>
      <trkpt lat="44.26519" lon="6.04711">
        <ele>860.998047</ele>
        <time>2011-08-28T12:01:09Z</time>
      </trkpt>
      <trkpt lat="44.26525" lon="6.04708">
        <ele>860.036621</ele>
        <time>2011-08-28T12:01:11Z</time>
      </trkpt>
      <trkpt lat="44.26538" lon="6.047">
        <ele>858.594482</ele>
        <time>2011-08-28T12:01:14Z</time>
      </trkpt>
      <trkpt lat="44.26544" lon="6.04697">
        <ele>857.152588</ele>
        <time>2011-08-28T12:01:16Z</time>
      </trkpt>
      <trkpt lat="44.26559" lon="6.0469">
        <ele>854.749268</ele>
        <time>2011-08-28T12:01:21Z</time>
      </trkpt>
      <trkpt lat="44.26561" lon="6.04688">
        <ele>854.268799</ele>
        <time>2011-08-28T12:01:22Z</time>
      </trkpt>
      <trkpt lat="44.26584" lon="6.04665">
        <ele>850.423584</ele>
        <time>2011-08-28T12:01:29Z</time>
      </trkpt>
      <trkpt lat="44.26595" lon="6.04649">
        <ele>847.539551</ele>
        <time>2011-08-28T12:01:34Z</time>
      </trkpt>
      <trkpt lat="44.26613" lon="6.04631">
        <ele>844.655518</ele>
        <time>2011-08-28T12:01:42Z</time>
      </trkpt>
      <trkpt lat="44.26619" lon="6.04626">
        <ele>843.694092</ele>
        <time>2011-08-28T12:01:44Z</time>
      </trkpt>
      <trkpt lat="44.26631" lon="6.04616">
        <ele>841.290771</ele>
        <time>2011-08-28T12:01:48Z</time>
      </trkpt>
      <trkpt lat="44.26637" lon="6.04609">
        <ele>839.848877</ele>
        <time>2011-08-28T12:01:51Z</time>
      </trkpt>
      <trkpt lat="44.2666" lon="6.04586">
        <ele>836.003662</ele>
        <time>2011-08-28T12:01:59Z</time>
      </trkpt>
      <trkpt lat="44.26672" lon="6.04575">
        <ele>835.04248</ele>
        <time>2011-08-28T12:02:03Z</time>
      </trkpt>
      <trkpt lat="44.26701" lon="6.04532">
        <ele>831.197266</ele>
        <time>2011-08-28T12:02:17Z</time>
      </trkpt>
      <trkpt lat="44.2671" lon="6.04521">
        <ele>829.755127</ele>
        <time>2011-08-28T12:02:20Z</time>
      </trkpt>
      <trkpt lat="44.26737" lon="6.04498">
        <ele>825.428955</ele>
        <time>2011-08-28T12:02:27Z</time>
      </trkpt>
      <trkpt lat="44.2674" lon="6.04496">
        <ele>825.428955</ele>
        <time>2011-08-28T12:02:28Z</time>
      </trkpt>
      <trkpt lat="44.26747" lon="6.04492">
        <ele>824.948486</ele>
        <time>2011-08-28T12:02:30Z</time>
      </trkpt>
      <trkpt lat="44.26766" lon="6.04481">
        <ele>821.58374</ele>
        <time>2011-08-28T12:02:35Z</time>
      </trkpt>
      <trkpt lat="44.26772" lon="6.04477">
        <ele>820.141846</ele>
        <time>2011-08-28T12:02:37Z</time>
      </trkpt>
      <trkpt lat="44.26784" lon="6.04463">
        <ele>817.738525</ele>
        <time>2011-08-28T12:02:42Z</time>
      </trkpt>
      <trkpt lat="44.26794" lon="6.04436">
        <ele>814.374023</ele>
        <time>2011-08-28T12:02:50Z</time>
      </trkpt>
      <trkpt lat="44.26812" lon="6.04399">
        <ele>811.970703</ele>
        <time>2011-08-28T12:03:00Z</time>
      </trkpt>
      <trkpt lat="44.26818" lon="6.04381">
        <ele>811.009277</ele>
        <time>2011-08-28T12:03:05Z</time>
      </trkpt>
      <trkpt lat="44.26827" lon="6.04358">
        <ele>808.125488</ele>
        <time>2011-08-28T12:03:12Z</time>
      </trkpt>
      <trkpt lat="44.2684" lon="6.04341">
        <ele>805.241455</ele>
        <time>2011-08-28T12:03:20Z</time>
      </trkpt>
      <trkpt lat="44.26854" lon="6.04324">
        <ele>802.357422</ele>
        <time>2011-08-28T12:03:34Z</time>
      </trkpt>
      <trkpt lat="44.26853" lon="6.04305">
        <ele>801.876953</ele>
        <time>2011-08-28T12:03:47Z</time>
      </trkpt>
      <trkpt lat="44.26841" lon="6.04261">
        <ele>798.031738</ele>
        <time>2011-08-28T12:03:59Z</time>
      </trkpt>
      <trkpt lat="44.26837" lon="6.04242">
        <ele>795.147461</ele>
        <time>2011-08-28T12:04:06Z</time>
      </trkpt>
      <trkpt lat="44.26837" lon="6.04242">
        <ele>795.147461</ele>
        <time>2011-08-28T12:04:17Z</time>
      </trkpt>
      <trkpt lat="44.26838" lon="6.04186">
        <ele>791.782959</ele>
        <time>2011-08-28T12:04:28Z</time>
      </trkpt>
      <trkpt lat="44.2684" lon="6.04171">
        <ele>789.860352</ele>
        <time>2011-08-28T12:04:31Z</time>
      </trkpt>
      <trkpt lat="44.26844" lon="6.04121">
        <ele>788.418457</ele>
        <time>2011-08-28T12:04:42Z</time>
      </trkpt>
      <trkpt lat="44.26846" lon="6.04112">
        <ele>787.937744</ele>
        <time>2011-08-28T12:04:54Z</time>
      </trkpt>
      <trkpt lat="44.26846" lon="6.04112">
        <ele>787.937744</ele>
        <time>2011-08-28T12:05:01Z</time>
      </trkpt>
      <trkpt lat="44.26851" lon="6.04093">
        <ele>786.49585</ele>
        <time>2011-08-28T12:05:09Z</time>
      </trkpt>
      <trkpt lat="44.26855" lon="6.0405">
        <ele>785.053955</ele>
        <time>2011-08-28T12:05:21Z</time>
      </trkpt>
      <trkpt lat="44.26853" lon="6.04043">
        <ele>784.092529</ele>
        <time>2011-08-28T12:05:23Z</time>
      </trkpt>
      <trkpt lat="44.26833" lon="6.04004">
        <ele>779.766357</ele>
        <time>2011-08-28T12:05:32Z</time>
      </trkpt>
      <trkpt lat="44.26831" lon="6.04001">
        <ele>779.766357</ele>
        <time>2011-08-28T12:05:33Z</time>
      </trkpt>
      <trkpt lat="44.26827" lon="6.03993">
        <ele>777.84375</ele>
        <time>2011-08-28T12:05:35Z</time>
      </trkpt>
      <trkpt lat="44.26816" lon="6.03973">
        <ele>775.921143</ele>
        <time>2011-08-28T12:05:41Z</time>
      </trkpt>
      <trkpt lat="44.26805" lon="6.0395">
        <ele>774.479248</ele>
        <time>2011-08-28T12:05:48Z</time>
      </trkpt>
      <trkpt lat="44.26788" lon="6.03895">
        <ele>772.556641</ele>
        <time>2011-08-28T12:05:56Z</time>
      </trkpt>
      <trkpt lat="44.26787" lon="6.03868">
        <ele>770.634033</ele>
        <time>2011-08-28T12:06:00Z</time>
      </trkpt>
      <trkpt lat="44.26779" lon="6.03816">
        <ele>769.192139</ele>
        <time>2011-08-28T12:06:08Z</time>
      </trkpt>
      <trkpt lat="44.26775" lon="6.0377">
        <ele>766.788818</ele>
        <time>2011-08-28T12:06:15Z</time>
      </trkpt>
      <trkpt lat="44.268" lon="6.03716">
        <ele>763.424072</ele>
        <time>2011-08-28T12:06:23Z</time>
      </trkpt>
      <trkpt lat="44.2681" lon="6.03693">
        <ele>762.462646</ele>
        <time>2011-08-28T12:06:27Z</time>
      </trkpt>
      <trkpt lat="44.26843" lon="6.0364">
        <ele>760.540039</ele>
        <time>2011-08-28T12:06:40Z</time>
      </trkpt>
      <trkpt lat="44.26849" lon="6.03594">
        <ele>762.462646</ele>
        <time>2011-08-28T12:06:53Z</time>
      </trkpt>
      <trkpt lat="44.26849" lon="6.03581">
        <ele>762.943359</ele>
        <time>2011-08-28T12:06:57Z</time>
      </trkpt>
      <trkpt lat="44.26847" lon="6.03552">
        <ele>764.866211</ele>
        <time>2011-08-28T12:07:09Z</time>
      </trkpt>
      <trkpt lat="44.26846" lon="6.03549">
        <ele>764.866211</ele>
        <time>2011-08-28T12:07:12Z</time>
      </trkpt>
      <trkpt lat="44.26846" lon="6.03547">
        <ele>764.385498</ele>
        <time>2011-08-28T12:07:26Z</time>
      </trkpt>
      <trkpt lat="44.26842" lon="6.03511">
        <ele>762.462646</ele>
        <time>2011-08-28T12:07:33Z</time>
      </trkpt>
      <trkpt lat="44.26852" lon="6.03418">
        <ele>760.540039</ele>
        <time>2011-08-28T12:07:48Z</time>
      </trkpt>
      <trkpt lat="44.26855" lon="6.03395">
        <ele>759.578857</ele>
        <time>2011-08-28T12:07:52Z</time>
      </trkpt>
      <trkpt lat="44.26854" lon="6.03378">
        <ele>758.617432</ele>
        <time>2011-08-28T12:07:55Z</time>
      </trkpt>
      <trkpt lat="44.26853" lon="6.03366">
        <ele>757.65625</ele>
        <time>2011-08-28T12:07:57Z</time>
      </trkpt>
      <trkpt lat="44.26844" lon="6.03338">
        <ele>757.175537</ele>
        <time>2011-08-28T12:08:04Z</time>
      </trkpt>
      <trkpt lat="44.26816" lon="6.03309">
        <ele>758.136963</ele>
        <time>2011-08-28T12:08:19Z</time>
      </trkpt>
      <trkpt lat="44.26783" lon="6.03292">
        <ele>757.175537</ele>
        <time>2011-08-28T12:08:31Z</time>
      </trkpt>
      <trkpt lat="44.26769" lon="6.03287">
        <ele>755.733643</ele>
        <time>2011-08-28T12:08:40Z</time>
      </trkpt>
      <trkpt lat="44.26761" lon="6.03282">
        <ele>755.733643</ele>
        <time>2011-08-28T12:08:42Z</time>
      </trkpt>
      <trkpt lat="44.26743" lon="6.03244">
        <ele>756.214111</ele>
        <time>2011-08-28T12:08:57Z</time>
      </trkpt>
      <trkpt lat="44.26728" lon="6.03211">
        <ele>757.175537</ele>
        <time>2011-08-28T12:09:09Z</time>
      </trkpt>
      <trkpt lat="44.2672" lon="6.03174">
        <ele>757.65625</ele>
        <time>2011-08-28T12:09:21Z</time>
      </trkpt>
      <trkpt lat="44.2672" lon="6.03164">
        <ele>758.617432</ele>
        <time>2011-08-28T12:09:25Z</time>
      </trkpt>
      <trkpt lat="44.26718" lon="6.03156">
        <ele>759.098145</ele>
        <time>2011-08-28T12:09:29Z</time>
      </trkpt>
      <trkpt lat="44.2671" lon="6.03147">
        <ele>759.578857</ele>
        <time>2011-08-28T12:09:33Z</time>
      </trkpt>
      <trkpt lat="44.26696" lon="6.03134">
        <ele>760.059326</ele>
        <time>2011-08-28T12:09:44Z</time>
      </trkpt>
      <trkpt lat="44.26684" lon="6.03097">
        <ele>760.540039</ele>
        <time>2011-08-28T12:09:56Z</time>
      </trkpt>
      <trkpt lat="44.26693" lon="6.03047">
        <ele>762.943359</ele>
        <time>2011-08-28T12:10:12Z</time>
      </trkpt>
      <trkpt lat="44.26694" lon="6.03042">
        <ele>764.385498</ele>
        <time>2011-08-28T12:10:14Z</time>
      </trkpt>
      <trkpt lat="44.26698" lon="6.03004">
        <ele>763.904541</ele>
        <time>2011-08-28T12:10:30Z</time>
      </trkpt>
      <trkpt lat="44.26696" lon="6.02984">
        <ele>764.385498</ele>
        <time>2011-08-28T12:10:43Z</time>
      </trkpt>
      <trkpt lat="44.26696" lon="6.02984">
        <ele>763.424072</ele>
        <time>2011-08-28T12:10:58Z</time>
      </trkpt>
      <trkpt lat="44.26696" lon="6.02984">
        <ele>763.424072</ele>
        <time>2011-08-28T12:11:44Z</time>
      </trkpt>
      <trkpt lat="44.26696" lon="6.02984">
        <ele>761.020752</ele>
        <time>2011-08-28T12:11:46Z</time>
      </trkpt>
      <trkpt lat="44.26696" lon="6.02984">
        <ele>761.020752</ele>
        <time>2011-08-28T12:11:53Z</time>
      </trkpt>
      <trkpt lat="44.2669" lon="6.02972">
        <ele>761.501465</ele>
        <time>2011-08-28T12:11:55Z</time>
      </trkpt>
      <trkpt lat="44.2668" lon="6.02961">
        <ele>760.059326</ele>
        <time>2011-08-28T12:12:01Z</time>
      </trkpt>
      <trkpt lat="44.26657" lon="6.0294">
        <ele>758.617432</ele>
        <time>2011-08-28T12:12:06Z</time>
      </trkpt>
      <trkpt lat="44.26622" lon="6.02884">
        <ele>756.214111</ele>
        <time>2011-08-28T12:12:16Z</time>
      </trkpt>
      <trkpt lat="44.26593" lon="6.02841">
        <ele>754.772217</ele>
        <time>2011-08-28T12:12:25Z</time>
      </trkpt>
      <trkpt lat="44.26588" lon="6.02827">
        <ele>752.849609</ele>
        <time>2011-08-28T12:12:28Z</time>
      </trkpt>
      <trkpt lat="44.26589" lon="6.02771">
        <ele>751.407715</ele>
        <time>2011-08-28T12:12:36Z</time>
      </trkpt>
      <trkpt lat="44.26567" lon="6.02748">
        <ele>751.888428</ele>
        <time>2011-08-28T12:12:42Z</time>
      </trkpt>
      <trkpt lat="44.26569" lon="6.02718">
        <ele>751.888428</ele>
        <time>2011-08-28T12:12:47Z</time>
      </trkpt>
      <trkpt lat="44.26579" lon="6.02709">
        <ele>752.368896</ele>
        <time>2011-08-28T12:12:50Z</time>
      </trkpt>
      <trkpt lat="44.26611" lon="6.02684">
        <ele>747.562256</ele>
        <time>2011-08-28T12:12:57Z</time>
      </trkpt>
      <trkpt lat="44.2663" lon="6.02682">
        <ele>745.639648</ele>
        <time>2011-08-28T12:13:00Z</time>
      </trkpt>
      <trkpt lat="44.26638" lon="6.02682">
        <ele>744.197754</ele>
        <time>2011-08-28T12:13:01Z</time>
      </trkpt>
      <trkpt lat="44.26664" lon="6.02684">
        <ele>742.755859</ele>
        <time>2011-08-28T12:13:05Z</time>
      </trkpt>
      <trkpt lat="44.26674" lon="6.02687">
        <ele>741.313721</ele>
        <time>2011-08-28T12:13:07Z</time>
      </trkpt>
      <trkpt lat="44.26683" lon="6.0269">
        <ele>740.352539</ele>
        <time>2011-08-28T12:13:09Z</time>
      </trkpt>
      <trkpt lat="44.26705" lon="6.02685">
        <ele>736.987793</ele>
        <time>2011-08-28T12:13:13Z</time>
      </trkpt>
      <trkpt lat="44.2675" lon="6.02668">
        <ele>734.584717</ele>
        <time>2011-08-28T12:13:24Z</time>
      </trkpt>
      <trkpt lat="44.26766" lon="6.02653">
        <ele>732.181396</ele>
        <time>2011-08-28T12:13:30Z</time>
      </trkpt>
      <trkpt lat="44.26773" lon="6.02648">
        <ele>731.700439</ele>
        <time>2011-08-28T12:13:33Z</time>
      </trkpt>
      <trkpt lat="44.2678" lon="6.02644">
        <ele>729.777832</ele>
        <time>2011-08-28T12:13:35Z</time>
      </trkpt>
      <trkpt lat="44.26794" lon="6.02638">
        <ele>728.81665</ele>
        <time>2011-08-28T12:13:38Z</time>
      </trkpt>
      <trkpt lat="44.26808" lon="6.02631">
        <ele>724.971436</ele>
        <time>2011-08-28T12:13:41Z</time>
      </trkpt>
      <trkpt lat="44.26815" lon="6.02629">
        <ele>724.971436</ele>
        <time>2011-08-28T12:13:42Z</time>
      </trkpt>
      <trkpt lat="44.26846" lon="6.02617">
        <ele>722.568115</ele>
        <time>2011-08-28T12:13:47Z</time>
      </trkpt>
      <trkpt lat="44.26859" lon="6.02609">
        <ele>720.645508</ele>
        <time>2011-08-28T12:13:49Z</time>
      </trkpt>
      <trkpt lat="44.26872" lon="6.02601">
        <ele>719.203613</ele>
        <time>2011-08-28T12:13:51Z</time>
      </trkpt>
      <trkpt lat="44.26884" lon="6.02591">
        <ele>717.761475</ele>
        <time>2011-08-28T12:13:53Z</time>
      </trkpt>
      <trkpt lat="44.26889" lon="6.02587">
        <ele>716.800293</ele>
        <time>2011-08-28T12:13:54Z</time>
      </trkpt>
      <trkpt lat="44.26908" lon="6.0258">
        <ele>713.435547</ele>
        <time>2011-08-28T12:13:57Z</time>
      </trkpt>
      <trkpt lat="44.26915" lon="6.02579">
        <ele>713.435547</ele>
        <time>2011-08-28T12:13:58Z</time>
      </trkpt>
      <trkpt lat="44.26934" lon="6.02573">
        <ele>711.032227</ele>
        <time>2011-08-28T12:14:00Z</time>
      </trkpt>
      <trkpt lat="44.26937" lon="6.02572">
        <ele>710.070801</ele>
        <time>2011-08-28T12:14:01Z</time>
      </trkpt>
      <trkpt lat="44.26958" lon="6.02558">
        <ele>705.264404</ele>
        <time>2011-08-28T12:14:04Z</time>
      </trkpt>
      <trkpt lat="44.26964" lon="6.02554">
        <ele>705.264404</ele>
        <time>2011-08-28T12:14:05Z</time>
      </trkpt>
      <trkpt lat="44.2699" lon="6.02536">
        <ele>703.341797</ele>
        <time>2011-08-28T12:14:11Z</time>
      </trkpt>
      <trkpt lat="44.2698" lon="6.02523">
        <ele>702.861084</ele>
        <time>2011-08-28T12:14:16Z</time>
      </trkpt>
      <trkpt lat="44.2697" lon="6.02521">
        <ele>701.899902</ele>
        <time>2011-08-28T12:14:18Z</time>
      </trkpt>
      <trkpt lat="44.26966" lon="6.02482">
        <ele>699.977051</ele>
        <time>2011-08-28T12:14:23Z</time>
      </trkpt>
      <trkpt lat="44.26969" lon="6.02475">
        <ele>699.496338</ele>
        <time>2011-08-28T12:14:24Z</time>
      </trkpt>
      <trkpt lat="44.26979" lon="6.02449">
        <ele>698.054443</ele>
        <time>2011-08-28T12:14:29Z</time>
      </trkpt>
      <trkpt lat="44.26989" lon="6.02448">
        <ele>696.131836</ele>
        <time>2011-08-28T12:14:33Z</time>
      </trkpt>
      <trkpt lat="44.26992" lon="6.02453">
        <ele>695.17041</ele>
        <time>2011-08-28T12:14:35Z</time>
      </trkpt>
      <trkpt lat="44.26999" lon="6.02492">
        <ele>690.364014</ele>
        <time>2011-08-28T12:14:41Z</time>
      </trkpt>
      <trkpt lat="44.27007" lon="6.02497">
        <ele>690.844482</ele>
        <time>2011-08-28T12:14:43Z</time>
      </trkpt>
      <trkpt lat="44.27018" lon="6.02509">
        <ele>689.883301</ele>
        <time>2011-08-28T12:14:46Z</time>
      </trkpt>
      <trkpt lat="44.27025" lon="6.02508">
        <ele>686.999268</ele>
        <time>2011-08-28T12:14:49Z</time>
      </trkpt>
      <trkpt lat="44.27025" lon="6.02503">
        <ele>686.038086</ele>
        <time>2011-08-28T12:14:50Z</time>
      </trkpt>
      <trkpt lat="44.27029" lon="6.02467">
        <ele>683.634521</ele>
        <time>2011-08-28T12:14:54Z</time>
      </trkpt>
      <trkpt lat="44.27034" lon="6.02448">
        <ele>682.192627</ele>
        <time>2011-08-28T12:14:56Z</time>
      </trkpt>
      <trkpt lat="44.27042" lon="6.02427">
        <ele>679.789307</ele>
        <time>2011-08-28T12:14:59Z</time>
      </trkpt>
      <trkpt lat="44.27045" lon="6.02399">
        <ele>676.905518</ele>
        <time>2011-08-28T12:15:02Z</time>
      </trkpt>
      <trkpt lat="44.27058" lon="6.02372">
        <ele>675.944092</ele>
        <time>2011-08-28T12:15:06Z</time>
      </trkpt>
      <trkpt lat="44.27061" lon="6.02348">
        <ele>672.098877</ele>
        <time>2011-08-28T12:15:09Z</time>
      </trkpt>
      <trkpt lat="44.27059" lon="6.02343">
        <ele>672.098877</ele>
        <time>2011-08-28T12:15:10Z</time>
      </trkpt>
      <trkpt lat="44.27057" lon="6.02337">
        <ele>671.618164</ele>
        <time>2011-08-28T12:15:11Z</time>
      </trkpt>
      <trkpt lat="44.2707" lon="6.02343">
        <ele>669.695801</ele>
        <time>2011-08-28T12:15:17Z</time>
      </trkpt>
      <trkpt lat="44.27071" lon="6.0236">
        <ele>668.734375</ele>
        <time>2011-08-28T12:15:19Z</time>
      </trkpt>
      <trkpt lat="44.27073" lon="6.02381">
        <ele>666.811523</ele>
        <time>2011-08-28T12:15:21Z</time>
      </trkpt>
      <trkpt lat="44.27076" lon="6.024">
        <ele>664.408203</ele>
        <time>2011-08-28T12:15:23Z</time>
      </trkpt>
      <trkpt lat="44.27077" lon="6.02408">
        <ele>664.408203</ele>
        <time>2011-08-28T12:15:24Z</time>
      </trkpt>
      <trkpt lat="44.27078" lon="6.02425">
        <ele>662.485596</ele>
        <time>2011-08-28T12:15:26Z</time>
      </trkpt>
      <trkpt lat="44.27077" lon="6.02438">
        <ele>661.043701</ele>
        <time>2011-08-28T12:15:28Z</time>
      </trkpt>
      <trkpt lat="44.27076" lon="6.02447">
        <ele>660.562988</ele>
        <time>2011-08-28T12:15:30Z</time>
      </trkpt>
      <trkpt lat="44.27091" lon="6.02431">
        <ele>658.159912</ele>
        <time>2011-08-28T12:15:37Z</time>
      </trkpt>
      <trkpt lat="44.27095" lon="6.02423">
        <ele>654.314697</ele>
        <time>2011-08-28T12:15:38Z</time>
      </trkpt>
      <trkpt lat="44.27117" lon="6.02402">
        <ele>651.911133</ele>
        <time>2011-08-28T12:15:42Z</time>
      </trkpt>
      <trkpt lat="44.2713" lon="6.02401">
        <ele>650.469238</ele>
        <time>2011-08-28T12:15:44Z</time>
      </trkpt>
      <trkpt lat="44.27154" lon="6.02376">
        <ele>649.988525</ele>
        <time>2011-08-28T12:15:51Z</time>
      </trkpt>
      <trkpt lat="44.27156" lon="6.02364">
        <ele>651.43042</ele>
        <time>2011-08-28T12:15:54Z</time>
      </trkpt>
      <trkpt lat="44.27173" lon="6.02324">
        <ele>652.391846</ele>
        <time>2011-08-28T12:16:08Z</time>
      </trkpt>
      <trkpt lat="44.27183" lon="6.02317">
        <ele>652.872559</ele>
        <time>2011-08-28T12:16:13Z</time>
      </trkpt>
      <trkpt lat="44.27206" lon="6.02315">
        <ele>654.795166</ele>
        <time>2011-08-28T12:16:24Z</time>
      </trkpt>
      <trkpt lat="44.27239" lon="6.02302">
        <ele>653.833984</ele>
        <time>2011-08-28T12:16:35Z</time>
      </trkpt>
      <trkpt lat="44.27252" lon="6.02265">
        <ele>652.872559</ele>
        <time>2011-08-28T12:16:43Z</time>
      </trkpt>
      <trkpt lat="44.27272" lon="6.02243">
        <ele>650.469238</ele>
        <time>2011-08-28T12:16:47Z</time>
      </trkpt>
      <trkpt lat="44.27277" lon="6.02238">
        <ele>649.507813</ele>
        <time>2011-08-28T12:16:48Z</time>
      </trkpt>
      <trkpt lat="44.27293" lon="6.02224">
        <ele>647.585205</ele>
        <time>2011-08-28T12:16:51Z</time>
      </trkpt>
      <trkpt lat="44.27298" lon="6.02219">
        <ele>647.585205</ele>
        <time>2011-08-28T12:16:52Z</time>
      </trkpt>
      <trkpt lat="44.27332" lon="6.02186">
        <ele>649.507813</ele>
        <time>2011-08-28T12:17:02Z</time>
      </trkpt>
      <trkpt lat="44.27365" lon="6.02172">
        <ele>649.0271</ele>
        <time>2011-08-28T12:17:13Z</time>
      </trkpt>
      <trkpt lat="44.27372" lon="6.02168">
        <ele>648.546387</ele>
        <time>2011-08-28T12:17:15Z</time>
      </trkpt>
      <trkpt lat="44.27387" lon="6.02159">
        <ele>647.585205</ele>
        <time>2011-08-28T12:17:19Z</time>
      </trkpt>
      <trkpt lat="44.274" lon="6.0215">
        <ele>647.585205</ele>
        <time>2011-08-28T12:17:23Z</time>
      </trkpt>
      <trkpt lat="44.27407" lon="6.02118">
        <ele>649.988525</ele>
        <time>2011-08-28T12:17:34Z</time>
      </trkpt>
      <trkpt lat="44.27405" lon="6.02092">
        <ele>652.391846</ele>
        <time>2011-08-28T12:17:46Z</time>
      </trkpt>
      <trkpt lat="44.27405" lon="6.02087">
        <ele>652.872559</ele>
        <time>2011-08-28T12:17:48Z</time>
      </trkpt>
      <trkpt lat="44.27413" lon="6.0205">
        <ele>653.833984</ele>
        <time>2011-08-28T12:18:02Z</time>
      </trkpt>
      <trkpt lat="44.27426" lon="6.02033">
        <ele>655.275879</ele>
        <time>2011-08-28T12:18:10Z</time>
      </trkpt>
      <trkpt lat="44.27453" lon="6.02004">
        <ele>655.756592</ele>
        <time>2011-08-28T12:18:25Z</time>
      </trkpt>
      <trkpt lat="44.27473" lon="6.01977">
        <ele>656.237061</ele>
        <time>2011-08-28T12:18:38Z</time>
      </trkpt>
      <trkpt lat="44.27476" lon="6.01973">
        <ele>656.717773</ele>
        <time>2011-08-28T12:18:40Z</time>
      </trkpt>
      <trkpt lat="44.2748" lon="6.01969">
        <ele>657.679199</ele>
        <time>2011-08-28T12:18:43Z</time>
      </trkpt>
      <trkpt lat="44.27489" lon="6.01935">
        <ele>658.159912</ele>
        <time>2011-08-28T12:18:57Z</time>
      </trkpt>
      <trkpt lat="44.2749" lon="6.01924">
        <ele>657.679199</ele>
        <time>2011-08-28T12:18:59Z</time>
      </trkpt>
      <trkpt lat="44.27481" lon="6.01884">
        <ele>656.237061</ele>
        <time>2011-08-28T12:19:09Z</time>
      </trkpt>
      <trkpt lat="44.27453" lon="6.01814">
        <ele>654.795166</ele>
        <time>2011-08-28T12:19:25Z</time>
      </trkpt>
      <trkpt lat="44.27464" lon="6.01749">
        <ele>654.795166</ele>
        <time>2011-08-28T12:19:34Z</time>
      </trkpt>
      <trkpt lat="44.27484" lon="6.01733">
        <ele>653.833984</ele>
        <time>2011-08-28T12:19:43Z</time>
      </trkpt>
      <trkpt lat="44.27485" lon="6.01729">
        <ele>653.353271</ele>
        <time>2011-08-28T12:19:44Z</time>
      </trkpt>
      <trkpt lat="44.2749" lon="6.0171">
        <ele>652.872559</ele>
        <time>2011-08-28T12:19:47Z</time>
      </trkpt>
      <trkpt lat="44.27489" lon="6.01692">
        <ele>650.469238</ele>
        <time>2011-08-28T12:19:50Z</time>
      </trkpt>
      <trkpt lat="44.27486" lon="6.01677">
        <ele>649.0271</ele>
        <time>2011-08-28T12:19:52Z</time>
      </trkpt>
      <trkpt lat="44.27484" lon="6.01671">
        <ele>647.104492</ele>
        <time>2011-08-28T12:19:53Z</time>
      </trkpt>
      <trkpt lat="44.27477" lon="6.01647">
        <ele>644.701172</ele>
        <time>2011-08-28T12:19:57Z</time>
      </trkpt>
      <trkpt lat="44.27474" lon="6.01637">
        <ele>642.778809</ele>
        <time>2011-08-28T12:19:58Z</time>
      </trkpt>
      <trkpt lat="44.27465" lon="6.01621">
        <ele>640.375488</ele>
        <time>2011-08-28T12:20:00Z</time>
      </trkpt>
      <trkpt lat="44.27453" lon="6.01592">
        <ele>634.607422</ele>
        <time>2011-08-28T12:20:03Z</time>
      </trkpt>
      <trkpt lat="44.27451" lon="6.01579">
        <ele>634.607422</ele>
        <time>2011-08-28T12:20:04Z</time>
      </trkpt>
      <trkpt lat="44.27449" lon="6.01567">
        <ele>632.684814</ele>
        <time>2011-08-28T12:20:05Z</time>
      </trkpt>
      <trkpt lat="44.27448" lon="6.01532">
        <ele>630.762207</ele>
        <time>2011-08-28T12:20:08Z</time>
      </trkpt>
      <trkpt lat="44.27445" lon="6.01498">
        <ele>627.878174</ele>
        <time>2011-08-28T12:20:11Z</time>
      </trkpt>
      <trkpt lat="44.27443" lon="6.01456">
        <ele>624.994385</ele>
        <time>2011-08-28T12:20:15Z</time>
      </trkpt>
      <trkpt lat="44.2744" lon="6.01441">
        <ele>621.629639</ele>
        <time>2011-08-28T12:20:17Z</time>
      </trkpt>
      <trkpt lat="44.27437" lon="6.01427">
        <ele>621.629639</ele>
        <time>2011-08-28T12:20:21Z</time>
      </trkpt>
      <trkpt lat="44.27452" lon="6.01437">
        <ele>619.707031</ele>
        <time>2011-08-28T12:20:27Z</time>
      </trkpt>
      <trkpt lat="44.2746" lon="6.01454">
        <ele>618.264893</ele>
        <time>2011-08-28T12:20:30Z</time>
      </trkpt>
      <trkpt lat="44.27473" lon="6.01434">
        <ele>615.861816</ele>
        <time>2011-08-28T12:20:36Z</time>
      </trkpt>
      <trkpt lat="44.27466" lon="6.0142">
        <ele>613.938965</ele>
        <time>2011-08-28T12:20:38Z</time>
      </trkpt>
      <trkpt lat="44.27454" lon="6.014">
        <ele>611.535889</ele>
        <time>2011-08-28T12:20:41Z</time>
      </trkpt>
      <trkpt lat="44.27451" lon="6.01395">
        <ele>611.055176</ele>
        <time>2011-08-28T12:20:42Z</time>
      </trkpt>
      <trkpt lat="44.27453" lon="6.01367">
        <ele>607.690674</ele>
        <time>2011-08-28T12:20:47Z</time>
      </trkpt>
      <trkpt lat="44.27459" lon="6.01365">
        <ele>607.690674</ele>
        <time>2011-08-28T12:20:48Z</time>
      </trkpt>
      <trkpt lat="44.27471" lon="6.01369">
        <ele>607.209961</ele>
        <time>2011-08-28T12:20:50Z</time>
      </trkpt>
      <trkpt lat="44.27498" lon="6.01384">
        <ele>602.883789</ele>
        <time>2011-08-28T12:20:54Z</time>
      </trkpt>
      <trkpt lat="44.27504" lon="6.01388">
        <ele>602.883789</ele>
        <time>2011-08-28T12:20:55Z</time>
      </trkpt>
      <trkpt lat="44.27515" lon="6.01394">
        <ele>601.441895</ele>
        <time>2011-08-28T12:20:57Z</time>
      </trkpt>
      <trkpt lat="44.27539" lon="6.0139">
        <ele>598.557861</ele>
        <time>2011-08-28T12:21:01Z</time>
      </trkpt>
      <trkpt lat="44.2756" lon="6.01375">
        <ele>596.154785</ele>
        <time>2011-08-28T12:21:04Z</time>
      </trkpt>
      <trkpt lat="44.27653" lon="6.01311">
        <ele>594.712646</ele>
        <time>2011-08-28T12:21:18Z</time>
      </trkpt>
      <trkpt lat="44.2766" lon="6.01304">
        <ele>594.712646</ele>
        <time>2011-08-28T12:21:20Z</time>
      </trkpt>
      <trkpt lat="44.2767" lon="6.01274">
        <ele>593.270752</ele>
        <time>2011-08-28T12:21:25Z</time>
      </trkpt>
      <trkpt lat="44.27665" lon="6.01186">
        <ele>593.270752</ele>
        <time>2011-08-28T12:21:40Z</time>
      </trkpt>
      <trkpt lat="44.27664" lon="6.01181">
        <ele>593.270752</ele>
        <time>2011-08-28T12:21:49Z</time>
      </trkpt>
      <trkpt lat="44.27664" lon="6.01162">
        <ele>593.270752</ele>
        <time>2011-08-28T12:22:28Z</time>
      </trkpt>
      <trkpt lat="44.27678" lon="6.01102">
        <ele>596.154785</ele>
        <time>2011-08-28T12:22:44Z</time>
      </trkpt>
      <trkpt lat="44.2768" lon="6.01093">
        <ele>596.154785</ele>
        <time>2011-08-28T12:22:47Z</time>
      </trkpt>
      <trkpt lat="44.27692" lon="6.01035">
        <ele>597.59668</ele>
        <time>2011-08-28T12:23:04Z</time>
      </trkpt>
      <trkpt lat="44.27701" lon="6.01034">
        <ele>598.077393</ele>
        <time>2011-08-28T12:23:08Z</time>
      </trkpt>
      <trkpt lat="44.27709" lon="6.01034">
        <ele>599.038574</ele>
        <time>2011-08-28T12:23:12Z</time>
      </trkpt>
      <trkpt lat="44.27759" lon="6.01049">
        <ele>597.59668</ele>
        <time>2011-08-28T12:23:30Z</time>
      </trkpt>
      <trkpt lat="44.27795" lon="6.01084">
        <ele>600</ele>
        <time>2011-08-28T12:23:46Z</time>
      </trkpt>
      <trkpt lat="44.27834" lon="6.01126">
        <ele>601.441895</ele>
        <time>2011-08-28T12:24:03Z</time>
      </trkpt>
      <trkpt lat="44.27872" lon="6.01167">
        <ele>602.883789</ele>
        <time>2011-08-28T12:24:20Z</time>
      </trkpt>
      <trkpt lat="44.27893" lon="6.01191">
        <ele>603.364502</ele>
        <time>2011-08-28T12:24:31Z</time>
      </trkpt>
      <trkpt lat="44.27922" lon="6.01223">
        <ele>604.806641</ele>
        <time>2011-08-28T12:24:45Z</time>
      </trkpt>
      <trkpt lat="44.2795" lon="6.01253">
        <ele>605.287354</ele>
        <time>2011-08-28T12:25:00Z</time>
      </trkpt>
      <trkpt lat="44.27984" lon="6.01288">
        <ele>605.768066</ele>
        <time>2011-08-28T12:25:15Z</time>
      </trkpt>
      <trkpt lat="44.28026" lon="6.0133">
        <ele>605.768066</ele>
        <time>2011-08-28T12:25:29Z</time>
      </trkpt>
      <trkpt lat="44.28086" lon="6.01387">
        <ele>604.806641</ele>
        <time>2011-08-28T12:25:47Z</time>
      </trkpt>
      <trkpt lat="44.28127" lon="6.01428">
        <ele>606.729248</ele>
        <time>2011-08-28T12:26:00Z</time>
      </trkpt>
      <trkpt lat="44.28159" lon="6.0146">
        <ele>606.248535</ele>
        <time>2011-08-28T12:26:12Z</time>
      </trkpt>
      <trkpt lat="44.28165" lon="6.01466">
        <ele>606.729248</ele>
        <time>2011-08-28T12:26:14Z</time>
      </trkpt>
      <trkpt lat="44.28172" lon="6.01473">
        <ele>606.248535</ele>
        <time>2011-08-28T12:26:17Z</time>
      </trkpt>
      <trkpt lat="44.28217" lon="6.01518">
        <ele>606.729248</ele>
        <time>2011-08-28T12:26:30Z</time>
      </trkpt>
      <trkpt lat="44.28219" lon="6.0152">
        <ele>606.248535</ele>
        <time>2011-08-28T12:26:31Z</time>
      </trkpt>
      <trkpt lat="44.28239" lon="6.01574">
        <ele>605.768066</ele>
        <time>2011-08-28T12:26:38Z</time>
      </trkpt>
      <trkpt lat="44.28204" lon="6.01637">
        <ele>605.287354</ele>
        <time>2011-08-28T12:26:50Z</time>
      </trkpt>
      <trkpt lat="44.28196" lon="6.01662">
        <ele>605.768066</ele>
        <time>2011-08-28T12:26:58Z</time>
      </trkpt>
      <trkpt lat="44.28215" lon="6.0171">
        <ele>607.209961</ele>
        <time>2011-08-28T12:27:13Z</time>
      </trkpt>
      <trkpt lat="44.28229" lon="6.01733">
        <ele>607.690674</ele>
        <time>2011-08-28T12:27:22Z</time>
      </trkpt>
      <trkpt lat="44.28221" lon="6.01774">
        <ele>607.690674</ele>
        <time>2011-08-28T12:27:25Z</time>
      </trkpt>
      <trkpt lat="44.28248" lon="6.01763">
        <ele>608.651855</ele>
        <time>2011-08-28T12:27:37Z</time>
      </trkpt>
      <trkpt lat="44.28273" lon="6.01802">
        <ele>610.574463</ele>
        <time>2011-08-28T12:27:53Z</time>
      </trkpt>
      <trkpt lat="44.28303" lon="6.01847">
        <ele>611.535889</ele>
        <time>2011-08-28T12:28:13Z</time>
      </trkpt>
      <trkpt lat="44.28322" lon="6.01871">
        <ele>612.977783</ele>
        <time>2011-08-28T12:28:27Z</time>
      </trkpt>
      <trkpt lat="44.28351" lon="6.01907">
        <ele>614.419678</ele>
        <time>2011-08-28T12:28:47Z</time>
      </trkpt>
      <trkpt lat="44.28382" lon="6.01943">
        <ele>614.900391</ele>
        <time>2011-08-28T12:29:02Z</time>
      </trkpt>
      <trkpt lat="44.28421" lon="6.01989">
        <ele>615.381104</ele>
        <time>2011-08-28T12:29:20Z</time>
      </trkpt>
      <trkpt lat="44.28477" lon="6.02054">
        <ele>614.900391</ele>
        <time>2011-08-28T12:29:42Z</time>
      </trkpt>
      <trkpt lat="44.28514" lon="6.02096">
        <ele>615.381104</ele>
        <time>2011-08-28T12:29:58Z</time>
      </trkpt>
      <trkpt lat="44.2858" lon="6.02171">
        <ele>616.342285</ele>
        <time>2011-08-28T12:30:22Z</time>
      </trkpt>
      <trkpt lat="44.28631" lon="6.02229">
        <ele>617.78418</ele>
        <time>2011-08-28T12:30:41Z</time>
      </trkpt>
      <trkpt lat="44.28672" lon="6.02277">
        <ele>616.822998</ele>
        <time>2011-08-28T12:30:57Z</time>
      </trkpt>
      <trkpt lat="44.28717" lon="6.02327">
        <ele>617.78418</ele>
        <time>2011-08-28T12:31:14Z</time>
      </trkpt>
      <trkpt lat="44.28751" lon="6.02365">
        <ele>618.264893</ele>
        <time>2011-08-28T12:31:26Z</time>
      </trkpt>
      <trkpt lat="44.28802" lon="6.02438">
        <ele>618.745605</ele>
        <time>2011-08-28T12:31:44Z</time>
      </trkpt>
      <trkpt lat="44.28863" lon="6.02482">
        <ele>619.226318</ele>
        <time>2011-08-28T12:31:59Z</time>
      </trkpt>
      <trkpt lat="44.28914" lon="6.02497">
        <ele>619.226318</ele>
        <time>2011-08-28T12:32:12Z</time>
      </trkpt>
      <trkpt lat="44.28944" lon="6.02509">
        <ele>618.264893</ele>
        <time>2011-08-28T12:32:18Z</time>
      </trkpt>
      <trkpt lat="44.29016" lon="6.02563">
        <ele>614.419678</ele>
        <time>2011-08-28T12:32:31Z</time>
      </trkpt>
      <trkpt lat="44.29089" lon="6.02623">
        <ele>611.535889</ele>
        <time>2011-08-28T12:32:42Z</time>
      </trkpt>
      <trkpt lat="44.29111" lon="6.02641">
        <ele>610.09375</ele>
        <time>2011-08-28T12:32:45Z</time>
      </trkpt>
      <trkpt lat="44.29149" lon="6.0267">
        <ele>607.690674</ele>
        <time>2011-08-28T12:32:50Z</time>
      </trkpt>
      <trkpt lat="44.29187" lon="6.02694">
        <ele>606.248535</ele>
        <time>2011-08-28T12:32:55Z</time>
      </trkpt>
      <trkpt lat="44.29255" lon="6.02702">
        <ele>607.690674</ele>
        <time>2011-08-28T12:33:06Z</time>
      </trkpt>
      <trkpt lat="44.29325" lon="6.02726">
        <ele>608.651855</ele>
        <time>2011-08-28T12:33:20Z</time>
      </trkpt>
      <trkpt lat="44.29389" lon="6.02756">
        <ele>610.09375</ele>
        <time>2011-08-28T12:33:34Z</time>
      </trkpt>
      <trkpt lat="44.29431" lon="6.02775">
        <ele>610.574463</ele>
        <time>2011-08-28T12:33:45Z</time>
      </trkpt>
      <trkpt lat="44.29479" lon="6.02798">
        <ele>611.535889</ele>
        <time>2011-08-28T12:33:57Z</time>
      </trkpt>
      <trkpt lat="44.29508" lon="6.02813">
        <ele>612.016602</ele>
        <time>2011-08-28T12:34:04Z</time>
      </trkpt>
      <trkpt lat="44.29547" lon="6.02837">
        <ele>612.49707</ele>
        <time>2011-08-28T12:34:13Z</time>
      </trkpt>
      <trkpt lat="44.29569" lon="6.02858">
        <ele>612.49707</ele>
        <time>2011-08-28T12:34:19Z</time>
      </trkpt>
      <trkpt lat="44.29601" lon="6.02904">
        <ele>613.458496</ele>
        <time>2011-08-28T12:34:30Z</time>
      </trkpt>
      <trkpt lat="44.29617" lon="6.0294">
        <ele>613.458496</ele>
        <time>2011-08-28T12:34:37Z</time>
      </trkpt>
      <trkpt lat="44.29638" lon="6.03001">
        <ele>614.900391</ele>
        <time>2011-08-28T12:34:49Z</time>
      </trkpt>
      <trkpt lat="44.29665" lon="6.0306">
        <ele>615.861816</ele>
        <time>2011-08-28T12:35:03Z</time>
      </trkpt>
      <trkpt lat="44.29702" lon="6.03127">
        <ele>617.78418</ele>
        <time>2011-08-28T12:35:19Z</time>
      </trkpt>
      <trkpt lat="44.29728" lon="6.03167">
        <ele>618.264893</ele>
        <time>2011-08-28T12:35:30Z</time>
      </trkpt>
      <trkpt lat="44.29761" lon="6.03198">
        <ele>619.226318</ele>
        <time>2011-08-28T12:35:40Z</time>
      </trkpt>
      <trkpt lat="44.29821" lon="6.03238">
        <ele>620.187744</ele>
        <time>2011-08-28T12:35:57Z</time>
      </trkpt>
      <trkpt lat="44.29835" lon="6.03245">
        <ele>620.187744</ele>
        <time>2011-08-28T12:36:00Z</time>
      </trkpt>
      <trkpt lat="44.29865" lon="6.03257">
        <ele>619.707031</ele>
        <time>2011-08-28T12:36:07Z</time>
      </trkpt>
      <trkpt lat="44.29889" lon="6.03263">
        <ele>619.707031</ele>
        <time>2011-08-28T12:36:12Z</time>
      </trkpt>
      <trkpt lat="44.29911" lon="6.03268">
        <ele>619.707031</ele>
        <time>2011-08-28T12:36:17Z</time>
      </trkpt>
      <trkpt lat="44.29953" lon="6.03278">
        <ele>620.187744</ele>
        <time>2011-08-28T12:36:26Z</time>
      </trkpt>
      <trkpt lat="44.29957" lon="6.03279">
        <ele>620.187744</ele>
        <time>2011-08-28T12:36:27Z</time>
      </trkpt>
      <trkpt lat="44.30012" lon="6.03291">
        <ele>620.668457</ele>
        <time>2011-08-28T12:36:38Z</time>
      </trkpt>
      <trkpt lat="44.30032" lon="6.03296">
        <ele>620.668457</ele>
        <time>2011-08-28T12:36:42Z</time>
      </trkpt>
      <trkpt lat="44.30047" lon="6.03299">
        <ele>620.668457</ele>
        <time>2011-08-28T12:36:45Z</time>
      </trkpt>
      <trkpt lat="44.30079" lon="6.03306">
        <ele>621.14917</ele>
        <time>2011-08-28T12:36:52Z</time>
      </trkpt>
      <trkpt lat="44.30138" lon="6.0332">
        <ele>621.629639</ele>
        <time>2011-08-28T12:37:03Z</time>
      </trkpt>
      <trkpt lat="44.30157" lon="6.03324">
        <ele>622.110352</ele>
        <time>2011-08-28T12:37:07Z</time>
      </trkpt>
      <trkpt lat="44.30183" lon="6.03329">
        <ele>622.110352</ele>
        <time>2011-08-28T12:37:12Z</time>
      </trkpt>
      <trkpt lat="44.30201" lon="6.03334">
        <ele>622.110352</ele>
        <time>2011-08-28T12:37:16Z</time>
      </trkpt>
      <trkpt lat="44.3024" lon="6.03342">
        <ele>622.591064</ele>
        <time>2011-08-28T12:37:26Z</time>
      </trkpt>
      <trkpt lat="44.30279" lon="6.03351">
        <ele>622.591064</ele>
        <time>2011-08-28T12:37:33Z</time>
      </trkpt>
      <trkpt lat="44.30304" lon="6.03356">
        <ele>623.55249</ele>
        <time>2011-08-28T12:37:38Z</time>
      </trkpt>
      <trkpt lat="44.30347" lon="6.03366">
        <ele>623.071777</ele>
        <time>2011-08-28T12:37:48Z</time>
      </trkpt>
      <trkpt lat="44.30356" lon="6.03368">
        <ele>623.071777</ele>
        <time>2011-08-28T12:37:58Z</time>
      </trkpt>
      <trkpt lat="44.30365" lon="6.0337">
        <ele>623.071777</ele>
        <time>2011-08-28T12:38:30Z</time>
      </trkpt>
      <trkpt lat="44.30373" lon="6.03372">
        <ele>622.110352</ele>
        <time>2011-08-28T12:38:33Z</time>
      </trkpt>
      <trkpt lat="44.30393" lon="6.03377">
        <ele>622.591064</ele>
        <time>2011-08-28T12:38:40Z</time>
      </trkpt>
      <trkpt lat="44.30393" lon="6.03377">
        <ele>622.110352</ele>
        <time>2011-08-28T12:39:01Z</time>
      </trkpt>
    </trkseg>
  </trk>
</gpx>